Darstellungsparameter: Aktuell verwendete Einstellungen:
Skalierung der Graphiken ... ?
xyx+y,   Skalierungsfaktor:      Skalierung: Modus: x, Faktor: 1
Darstellungszeitraum ... ?
Vom - - bis: - -   Zeitraum: 29.05.2007 - 28.06.2007
Min/Max/Avg-Anzeige ... ?
Zeige MMA aktuell
Zeige MMA Monat
Zeige MMA alles
Zeige --A aktuell
Zeige --A Monat
Zeige --A alles
Keine MMA-Anzeige
MMA:
Average (ber die Originaldaten)
MMA-Basis: 29.05.2007 - 28.06.2007
Quicknavigation für Darstellung... ?
Tage:      1T, 2T, 3T, 5T -1T -2T -3T -5T +1T +2T +3T +5T
Wochen: 1W, 2W, 3W -1W -2W -3W +1W +2W +3W
Monate: 1M, 3M, 6M -1M -3M -6M +1M +3M +6M
Jahre:    1J, 3J, 5J, 10J -1J -3J -5J -10J +1J +3J +5J +10J
Nutze für die Darstellung ... ?
Originaldaten oder Mittelwerte auf ...
Stundenbasis Tagesbasis Wochenbasis
Monatsbasis Jahresbasis      Datenbasis: Original-Daten
Darstellen als:
Statistik (Auto) Statistik J:M      Darstellung:
Zur Graphik,    zurück zur Übersicht aller Sensoren.
 
Tabellarische Datenbersicht: ?
 
Sensor: Nr:Datum:Temp:Abs-Feuchte:Windchill:Wind:
Aussen-T/F 1 29-05-2007 00:01:01 10.5 C 8.63 g/m*3 10.5 C 0 km/h
2 29-05-2007 00:13:01 10.5 C 8.63 g/m*3 10.5 C 0 km/h
3 29-05-2007 00:25:02 10.4 C 8.58 g/m*3 10.4 C 0 km/h
4 29-05-2007 00:37:02 10.3 C 8.62 g/m*3 10.3 C 0 km/h
5 29-05-2007 00:49:02 10.3 C 8.62 g/m*3 10.3 C 0 km/h
6 29-05-2007 01:01:02 10.3 C 8.62 g/m*3 10.3 C 0 km/h
7 29-05-2007 01:13:02 10.2 C 8.66 g/m*3 10.2 C 0 km/h
8 29-05-2007 01:25:02 10.2 C 8.66 g/m*3 10.2 C 0 km/h
9 29-05-2007 01:37:02 10.2 C 8.66 g/m*3 10.2 C 0 km/h
10 29-05-2007 01:49:02 10.2 C 8.76 g/m*3 10.2 C 0 km/h
11 29-05-2007 02:01:01 10.1 C 8.7 g/m*3 10.1 C 0 km/h
12 29-05-2007 02:13:01 10.1 C 8.7 g/m*3 10.1 C 0 km/h
13 29-05-2007 02:25:01 10.1 C 8.7 g/m*3 10.1 C 0 km/h
14 29-05-2007 02:37:01 10.2 C 8.85 g/m*3 10.2 C 0 km/h
15 29-05-2007 02:50:05 10.2 C 8.85 g/m*3 10.2 C 0 km/h
16 29-05-2007 03:02:05 10.2 C 8.85 g/m*3 10.2 C 0 km/h
17 29-05-2007 03:14:06 10.1 C 8.79 g/m*3 10.1 C 0 km/h
18 29-05-2007 03:26:06 10.2 C 8.85 g/m*3 10.2 C 0 km/h
19 29-05-2007 03:38:03 10.2 C 8.85 g/m*3 10.2 C 0 km/h
20 29-05-2007 03:50:03 10.2 C 8.85 g/m*3 10.2 C 0 km/h
21 29-05-2007 04:02:02 10.2 C 8.95 g/m*3 10.2 C 0 km/h
22 29-05-2007 04:14:02 10.2 C 8.95 g/m*3 10.2 C 0 km/h
23 29-05-2007 04:26:02 10.2 C 8.95 g/m*3 10.2 C 0 km/h
24 29-05-2007 04:38:02 10.1 C 8.89 g/m*3 10.1 C 0 km/h
25 29-05-2007 04:50:02 10.2 C 8.95 g/m*3 10.2 C 0 km/h
Sensor: Nr:Datum:Temp:Abs-Feuchte:Windchill:Wind:
Aussen-T/F 26 29-05-2007 05:02:01 10 C 8.83 g/m*3 10 C 0 km/h
27 29-05-2007 05:14:01 10 C 8.83 g/m*3 10 C 0 km/h
28 29-05-2007 05:26:02 10 C 8.83 g/m*3 10 C 0 km/h
29 29-05-2007 05:38:01 9.9 C 8.87 g/m*3 9.9 C 0 km/h
30 29-05-2007 05:50:03 9.9 C 8.78 g/m*3 9.9 C 0 km/h
31 29-05-2007 06:02:02 9.9 C 8.78 g/m*3 9.9 C 0 km/h
32 29-05-2007 06:14:02 9.9 C 8.78 g/m*3 9.9 C 0 km/h
33 29-05-2007 06:26:02 9.8 C 8.72 g/m*3 9.8 C 0 km/h
34 29-05-2007 06:38:02 9.8 C 8.72 g/m*3 9.8 C 0 km/h
35 29-05-2007 06:50:02 9.8 C 8.63 g/m*3 9.8 C 0 km/h
36 29-05-2007 07:02:02 9.8 C 8.63 g/m*3 9.8 C 0 km/h
37 29-05-2007 07:14:02 10 C 8.64 g/m*3 10 C 0 km/h
38 29-05-2007 07:26:02 10.2 C 8.76 g/m*3 10.2 C 0 km/h
39 29-05-2007 07:38:02 10.2 C 8.66 g/m*3 10.2 C 0 km/h
40 29-05-2007 07:50:03 10.3 C 8.62 g/m*3 10.3 C 0 km/h
41 29-05-2007 08:02:02 10.3 C 8.62 g/m*3 10.3 C 0 km/h
42 29-05-2007 08:14:02 10.4 C 8.77 g/m*3 10.4 C 0 km/h
43 29-05-2007 08:26:02 10.6 C 8.78 g/m*3 10.6 C 0 km/h
44 29-05-2007 08:38:03 10.6 C 8.88 g/m*3 10.6 C 0 km/h
45 29-05-2007 08:50:02 10.7 C 8.94 g/m*3 10.7 C 0 km/h
46 29-05-2007 09:02:02 10.9 C 9.05 g/m*3 10.9 C 0 km/h
47 29-05-2007 09:14:02 11.1 C 9.07 g/m*3 11.1 C 0 km/h
48 29-05-2007 09:26:02 11.4 C 9.34 g/m*3 11.4 C 0 km/h
49 29-05-2007 09:38:02 11.6 C 9.35 g/m*3 11.6 C 0 km/h
50 29-05-2007 09:50:03 11.8 C 9.47 g/m*3 11.8 C 0 km/h
Sensor: Nr:Datum:Temp:Abs-Feuchte:Windchill:Wind:
Aussen-T/F 51 29-05-2007 10:02:02 11.9 C 9.32 g/m*3 11.9 C 0 km/h
52 29-05-2007 10:14:02 11.7 C 8.99 g/m*3 11.7 C 0 km/h
53 29-05-2007 10:26:02 11.6 C 8.94 g/m*3 11.6 C 0 km/h
54 29-05-2007 10:38:02 11.7 C 8.79 g/m*3 11.7 C 0 km/h
55 29-05-2007 10:50:02 11.8 C 8.74 g/m*3 11.8 C 0 km/h
56 29-05-2007 11:02:01 12.1 C 8.79 g/m*3 12.1 C 0 km/h
57 29-05-2007 11:14:01 12.2 C 8.63 g/m*3 12.2 C 0 km/h
58 29-05-2007 11:26:01 12.1 C 8.04 g/m*3 12.1 C 0 km/h
59 29-05-2007 11:38:02 11.7 C 7.95 g/m*3 11.7 C 0 km/h
60 29-05-2007 11:50:02 11.7 C 7.95 g/m*3 11.7 C 0 km/h
61 29-05-2007 12:02:02 11.6 C 7.8 g/m*3 11.6 C 0 km/h
62 29-05-2007 12:14:02 11.3 C 7.75 g/m*3 11.3 C 0 km/h
63 29-05-2007 12:26:02 11.4 C 7.9 g/m*3 11.4 C 0 km/h
64 29-05-2007 12:38:02 11.4 C 8.01 g/m*3 11.4 C 0 km/h
65 29-05-2007 12:50:02 11.5 C 7.95 g/m*3 11.5 C 0 km/h
66 29-05-2007 13:02:02 11.4 C 8.01 g/m*3 11.4 C 0 km/h
67 29-05-2007 13:14:02 11 C 8.21 g/m*3 11 C 0 km/h
68 29-05-2007 13:26:03 11.2 C 8.41 g/m*3 11.2 C 0 km/h
69 29-05-2007 13:38:02 11.4 C 8.31 g/m*3 11.4 C 0 km/h
70 29-05-2007 13:50:02 11.7 C 8.37 g/m*3 11.7 C 0 km/h
71 29-05-2007 14:11:02 11.4 C 8.11 g/m*3 11.4 C 0 km/h
72 29-05-2007 14:31:02 11.1 C 8.06 g/m*3 11.1 C 0 km/h
73 29-05-2007 14:51:02 11.1 C 7.76 g/m*3 11.1 C 0 km/h
74 29-05-2007 15:11:03 11.3 C 7.75 g/m*3 11.3 C 0 km/h
75 29-05-2007 15:31:02 11.8 C 7.79 g/m*3 11.8 C 0 km/h
Sensor: Nr:Datum:Temp:Abs-Feuchte:Windchill:Wind:
Aussen-T/F 76 29-05-2007 15:51:02 12.6 C 7.41 g/m*3 12.6 C 0 km/h
77 29-05-2007 16:11:02 12.1 C 7.08 g/m*3 12.1 C 0 km/h
78 29-05-2007 16:31:02 12.3 C 6.73 g/m*3 12.3 C 0 km/h
79 29-05-2007 16:51:02 12.2 C 6.47 g/m*3 12.2 C 0 km/h
80 29-05-2007 17:11:02 12.5 C 5.94 g/m*3 12.5 C 0 km/h
81 29-05-2007 17:31:02 12.7 C 6.23 g/m*3 12.7 C 0 km/h
82 29-05-2007 17:51:02 12.7 C 5.79 g/m*3 12.7 C 0 km/h
83 29-05-2007 18:11:03 13 C 5.67 g/m*3 13 C 0 km/h
84 29-05-2007 18:31:02 13 C 5.44 g/m*3 13 C 0 km/h
85 29-05-2007 18:51:02 13.5 C 5.38 g/m*3 13.5 C 0 km/h
86 29-05-2007 19:11:02 13.7 C 5.33 g/m*3 13.7 C 0 km/h
87 29-05-2007 19:31:02 13.3 C 5.2 g/m*3 13.3 C 0 km/h
88 29-05-2007 19:51:02 13 C 5.1 g/m*3 13 C 0 km/h
89 29-05-2007 20:11:02 12.9 C 5.3 g/m*3 12.9 C 0 km/h
90 29-05-2007 20:31:02 13.4 C 4.88 g/m*3 13.4 C 0 km/h
91 29-05-2007 20:51:02 13.1 C 4.79 g/m*3 13.1 C 0 km/h
92 29-05-2007 21:11:03 12.4 C 4.92 g/m*3 12.4 C 0 km/h
93 29-05-2007 21:31:03 12 C 4.8 g/m*3 12 C 0 km/h
94 29-05-2007 21:51:02 11.2 C 4.87 g/m*3 11.2 C 0 km/h
95 29-05-2007 22:11:02 10.7 C 5.11 g/m*3 10.7 C 0 km/h
96 29-05-2007 22:31:02 10.1 C 5.2 g/m*3 10.1 C 0 km/h
97 29-05-2007 22:51:02 9.9 C 5.32 g/m*3 9.9 C 0 km/h
98 29-05-2007 23:11:02 9.7 C 5.35 g/m*3 9.7 C 0 km/h
99 29-05-2007 23:31:02 9.1 C 5.41 g/m*3 9.1 C 0 km/h
100 29-05-2007 23:51:02 8.6 C 5.59 g/m*3 8.6 C 0 km/h
Sensor: Nr:Datum:Temp:Abs-Feuchte:Windchill:Wind:
Aussen-T/F 101 30-05-2007 00:11:02 8.5 C 5.46 g/m*3 8.5 C 0 km/h
102 30-05-2007 00:31:02 8.3 C 5.48 g/m*3 8.3 C 0 km/h
103 30-05-2007 00:51:02 7.9 C 5.83 g/m*3 7.9 C 0 km/h
104 30-05-2007 01:11:02 7.7 C 5.92 g/m*3 7.7 C 0 km/h
105 30-05-2007 01:31:02 7.3 C 6 g/m*3 7.3 C 0 km/h
106 30-05-2007 01:51:02 7 C 6.04 g/m*3 7 C 0 km/h
107 30-05-2007 02:11:02 6.7 C 6.08 g/m*3 6.7 C 0 km/h
108 30-05-2007 02:31:02 6.4 C 6.11 g/m*3 6.4 C 0 km/h
109 30-05-2007 02:52:03 6.2 C 6.18 g/m*3 6.2 C 0 km/h
110 30-05-2007 03:12:04 5.9 C 6.2 g/m*3 5.9 C 0 km/h
111 30-05-2007 03:32:02 5.5 C 6.04 g/m*3 5.5 C 0 km/h
112 30-05-2007 03:52:02 5.1 C 5.95 g/m*3 5.1 C 0 km/h
113 30-05-2007 04:12:01 4.7 C 5.86 g/m*3 4.7 C 0 km/h
114 30-05-2007 04:32:02 4.5 C 5.78 g/m*3 4.5 C 0 km/h
115 30-05-2007 04:52:02 4.1 C 5.63 g/m*3 4.1 C 0 km/h
116 30-05-2007 05:12:02 4 C 5.59 g/m*3 4 C 0 km/h
117 30-05-2007 05:32:02 3.7 C 5.55 g/m*3 3.7 C 0 km/h
118 30-05-2007 05:52:02 3.9 C 5.68 g/m*3 3.9 C 0 km/h
119 30-05-2007 06:12:02 3.8 C 5.65 g/m*3 3.8 C 0 km/h
120 30-05-2007 06:44:00 4.2 C 5.8 g/m*3 4.2 C 0 km/h
121 30-05-2007 07:04:00 4.6 C 5.96 g/m*3 4.6 C 0 km/h
122 30-05-2007 07:24:00 4.9 C 6.01 g/m*3 4.9 C 0 km/h
123 30-05-2007 07:44:00 5.4 C 6.07 g/m*3 5.4 C 0 km/h
124 30-05-2007 08:04:00 5.8 C 6.09 g/m*3 5.8 C 0 km/h
125 30-05-2007 08:24:00 6.1 C 6.14 g/m*3 6.1 C 0 km/h
Sensor: Nr:Datum:Temp:Abs-Feuchte:Windchill:Wind:
Aussen-T/F 126 30-05-2007 08:44:00 6.8 C 6.19 g/m*3 6.8 C 0 km/h
127 30-05-2007 09:04:00 7.7 C 6.41 g/m*3 7.7 C 0 km/h
128 30-05-2007 09:24:00 8.8 C 6.79 g/m*3 8.8 C 0 km/h
129 30-05-2007 09:44:00 10.4 C 6.94 g/m*3 10.4 C 0 km/h
130 30-05-2007 10:04:00 11.7 C 7.01 g/m*3 11.7 C 0 km/h
131 30-05-2007 10:24:00 13 C 6.24 g/m*3 13 C 0 km/h
132 30-05-2007 10:44:00 13.8 C 5.36 g/m*3 13.8 C 0 km/h
133 30-05-2007 11:04:00 14.4 C 5.19 g/m*3 14.4 C 0 km/h
134 30-05-2007 11:24:00 15.2 C 5.06 g/m*3 15.2 C 0 km/h
135 30-05-2007 11:44:01 16 C 4.77 g/m*3 16 C 0 km/h
136 30-05-2007 12:04:01 16.8 C 4.58 g/m*3 16.8 C 0 km/h
137 30-05-2007 12:24:01 17.4 C 4.15 g/m*3 17.4 C 0 km/h
138 30-05-2007 12:44:01 17.8 C 3.95 g/m*3 17.8 C 0 km/h
139 30-05-2007 13:04:01 18.3 C 4.07 g/m*3 18.3 C 0 km/h
140 30-05-2007 13:24:01 20.1 C 4.17 g/m*3 20.1 C 0 km/h
141 30-05-2007 13:44:01 20.9 C 4.37 g/m*3 20.9 C 0 km/h
142 30-05-2007 14:04:01 19.9 C 3.61 g/m*3 19.9 C 0 km/h
143 30-05-2007 14:24:01 19.7 C 4.58 g/m*3 19.7 C 0 km/h
144 30-05-2007 14:44:01 19.7 C 4.42 g/m*3 19.7 C 0 km/h
145 30-05-2007 15:04:01 20.5 C 4.45 g/m*3 20.5 C 0 km/h
146 30-05-2007 15:24:01 20.3 C 4.4 g/m*3 20.3 C 0 km/h
147 30-05-2007 15:44:01 22.1 C 4.1 g/m*3 22.1 C 0 km/h
148 30-05-2007 16:04:01 22.2 C 3.93 g/m*3 22.2 C 0 km/h
149 30-05-2007 16:24:01 23.8 C 4.3 g/m*3 23.8 C 0 km/h
150 30-05-2007 16:44:01 24.2 C 4.4 g/m*3 24.2 C 0 km/h
Sensor: Nr:Datum:Temp:Abs-Feuchte:Windchill:Wind:
Aussen-T/F 151 30-05-2007 17:04:01 22 C 3.88 g/m*3 22 C 0 km/h
152 30-05-2007 17:24:01 24.1 C 4.38 g/m*3 24.1 C 0 km/h
153 30-05-2007 17:44:01 22.9 C 4.29 g/m*3 22.9 C 0 km/h
154 30-05-2007 18:04:02 22.2 C 4.91 g/m*3 22.2 C 0 km/h
155 30-05-2007 18:24:02 22.5 C 4.59 g/m*3 22.5 C 0 km/h
156 30-05-2007 18:44:02 22.3 C 4.74 g/m*3 22.3 C 0 km/h
157 30-05-2007 19:04:02 21 C 4.76 g/m*3 21 C 0 km/h
158 30-05-2007 19:24:02 21 C 4.76 g/m*3 21 C 0 km/h
159 30-05-2007 19:44:02 21.6 C 5.5 g/m*3 21.6 C 0 km/h
160 30-05-2007 20:04:02 21.4 C 5.81 g/m*3 21.4 C 0 km/h
161 30-05-2007 20:24:02 19.9 C 5.84 g/m*3 19.9 C 0 km/h
162 30-05-2007 20:44:02 19 C 6.68 g/m*3 19 C 0 km/h
163 30-05-2007 21:04:02 18.1 C 6.64 g/m*3 18.1 C 0 km/h
164 30-05-2007 21:24:02 17.2 C 6.3 g/m*3 17.2 C 0 km/h
165 30-05-2007 21:44:02 16.9 C 6.47 g/m*3 16.9 C 0 km/h
166 30-05-2007 22:04:02 16.6 C 6.5 g/m*3 16.6 C 0 km/h
167 30-05-2007 22:24:02 16.3 C 6.38 g/m*3 16.3 C 0 km/h
168 30-05-2007 22:44:02 15.8 C 6.6 g/m*3 15.8 C 0 km/h
169 30-05-2007 23:04:02 15.6 C 6.65 g/m*3 15.6 C 0 km/h
170 30-05-2007 23:24:02 15.4 C 6.57 g/m*3 15.4 C 0 km/h
171 30-05-2007 23:44:02 15.4 C 6.57 g/m*3 15.4 C 0 km/h
172 31-05-2007 00:04:03 15.3 C 6.53 g/m*3 15.3 C 0 km/h
173 31-05-2007 00:24:03 15.2 C 6.75 g/m*3 15.2 C 0 km/h
174 31-05-2007 00:44:03 15.1 C 6.58 g/m*3 15.1 C 0 km/h
175 31-05-2007 01:04:03 14.9 C 6.5 g/m*3 14.9 C 0 km/h
Sensor: Nr:Datum:Temp:Abs-Feuchte:Windchill:Wind:
Aussen-T/F 176 31-05-2007 01:24:03 14.3 C 7.25 g/m*3 14.3 C 0 km/h
177 31-05-2007 01:44:03 14.2 C 6.35 g/m*3 14.2 C 0 km/h
178 31-05-2007 02:04:03 13.9 C 6.47 g/m*3 13.9 C 0 km/h
179 31-05-2007 02:24:03 13.9 C 6.59 g/m*3 13.9 C 0 km/h
180 31-05-2007 02:44:03 13.7 C 6.63 g/m*3 13.7 C 0 km/h
181 31-05-2007 03:04:03 13.6 C 6.71 g/m*3 13.6 C 0 km/h
182 31-05-2007 03:24:03 13.6 C 6.83 g/m*3 13.6 C 0 km/h
183 31-05-2007 03:44:03 13.7 C 7.1 g/m*3 13.7 C 0 km/h
184 31-05-2007 04:04:03 13.7 C 7.1 g/m*3 13.7 C 0 km/h
185 31-05-2007 04:24:03 13.7 C 7.34 g/m*3 13.7 C 0 km/h
186 31-05-2007 04:44:03 13.4 C 7.09 g/m*3 13.4 C 0 km/h
187 31-05-2007 05:04:03 13.4 C 7.21 g/m*3 13.4 C 0 km/h
188 31-05-2007 05:24:03 13.2 C 7 g/m*3 13.2 C 0 km/h
189 31-05-2007 05:44:03 13.1 C 6.85 g/m*3 13.1 C 0 km/h
190 31-05-2007 06:04:03 13 C 7.26 g/m*3 13 C 0 km/h
191 31-05-2007 06:24:04 12.8 C 7.5 g/m*3 12.8 C 0 km/h
192 31-05-2007 06:44:04 12.1 C 7.94 g/m*3 12.1 C 0 km/h
193 31-05-2007 07:04:04 11.8 C 8.21 g/m*3 11.8 C 0 km/h
194 31-05-2007 07:24:04 11.5 C 8.37 g/m*3 11.5 C 0 km/h
195 31-05-2007 07:44:04 11.8 C 8.74 g/m*3 11.8 C 0 km/h
196 31-05-2007 08:04:04 12.3 C 8.9 g/m*3 12.3 C 0 km/h
197 31-05-2007 08:24:04 12.6 C 9.07 g/m*3 12.6 C 0 km/h
198 31-05-2007 08:44:04 13.1 C 8.79 g/m*3 13.1 C 0 km/h
199 31-05-2007 09:04:04 13 C 9.07 g/m*3 13 C 0 km/h
200 31-05-2007 09:24:04 13.1 C 9.24 g/m*3 13.1 C 0 km/h
Sensor: Nr:Datum:Temp:Abs-Feuchte:Windchill:Wind:
Aussen-T/F 201 31-05-2007 09:44:04 13 C 9.3 g/m*3 13 C 0 km/h
202 31-05-2007 10:04:04 13 C 9.19 g/m*3 13 C 0 km/h
203 31-05-2007 10:24:04 13.4 C 9.18 g/m*3 13.4 C 0 km/h
204 31-05-2007 10:44:04 14.3 C 9.34 g/m*3 14.3 C 0 km/h
205 31-05-2007 11:04:04 14.6 C 9.26 g/m*3 14.6 C 0 km/h
206 31-05-2007 11:24:04 16.1 C 9.46 g/m*3 16.1 C 0 km/h
207 31-05-2007 11:44:04 15.9 C 8.67 g/m*3 15.9 C 0 km/h
208 31-05-2007 12:04:04 15.6 C 9.31 g/m*3 15.6 C 0 km/h
209 31-05-2007 12:24:04 15.9 C 8.8 g/m*3 15.9 C 0 km/h
210 31-05-2007 12:44:05 18.1 C 8.96 g/m*3 18.1 C 0 km/h
211 31-05-2007 13:04:05 18.8 C 9.02 g/m*3 18.8 C 0 km/h
212 31-05-2007 13:24:05 19.7 C 8.83 g/m*3 19.7 C 0 km/h
213 31-05-2007 13:44:05 19.6 C 8.61 g/m*3 19.6 C 0 km/h
214 31-05-2007 14:04:05 19.4 C 8.51 g/m*3 19.4 C 0 km/h
215 31-05-2007 14:24:05 19.5 C 8.73 g/m*3 19.5 C 0 km/h
216 31-05-2007 14:44:05 20.6 C 8.95 g/m*3 20.6 C 0 km/h
217 31-05-2007 15:04:05 20.9 C 8.2 g/m*3 20.9 C 0 km/h
218 31-05-2007 15:24:05 21.3 C 8.2 g/m*3 21.3 C 0 km/h
219 31-05-2007 15:44:05 20.2 C 9.27 g/m*3 20.2 C 0 km/h
220 31-05-2007 16:04:05 22.1 C 8.39 g/m*3 22.1 C 0 km/h
221 31-05-2007 16:24:05 21.7 C 7.63 g/m*3 21.7 C 0 km/h
222 31-05-2007 16:44:05 21 C 8.06 g/m*3 21 C 0 km/h
223 31-05-2007 17:04:05 19.1 C 7.54 g/m*3 19.1 C 0 km/h
224 31-05-2007 17:24:05 16.7 C 8.24 g/m*3 16.7 C 0 km/h
225 31-05-2007 17:44:05 17.1 C 8.3 g/m*3 17.1 C 0 km/h
Sensor: Nr:Datum:Temp:Abs-Feuchte:Windchill:Wind:
Aussen-T/F 226 31-05-2007 18:04:05 17.8 C 8.35 g/m*3 17.8 C 0 km/h
227 31-05-2007 18:24:05 20.5 C 8.19 g/m*3 20.5 C 0 km/h
228 31-05-2007 18:44:05 19.7 C 7.98 g/m*3 19.7 C 0 km/h
229 31-05-2007 19:04:06 19.8 C 8.03 g/m*3 19.8 C 0 km/h
230 31-05-2007 19:24:06 19.6 C 8.78 g/m*3 19.6 C 0 km/h
231 31-05-2007 19:44:06 20.8 C 8.51 g/m*3 20.8 C 0 km/h
232 31-05-2007 20:04:06 21.5 C 8.49 g/m*3 21.5 C 0 km/h
233 31-05-2007 20:24:06 20.3 C 8.09 g/m*3 20.3 C 0 km/h
234 31-05-2007 20:44:06 19.7 C 8.32 g/m*3 19.7 C 0 km/h
235 31-05-2007 21:04:06 19 C 8.15 g/m*3 19 C 0 km/h
236 31-05-2007 21:24:06 17.8 C 8.8 g/m*3 17.8 C 0 km/h
237 31-05-2007 21:44:06 16.3 C 8.6 g/m*3 16.3 C 0 km/h
238 31-05-2007 22:04:06 15.6 C 8.78 g/m*3 15.6 C 0 km/h
239 31-05-2007 22:24:06 15.1 C 8.64 g/m*3 15.1 C 0 km/h
240 31-05-2007 22:44:06 14.3 C 8.72 g/m*3 14.3 C 0 km/h
241 31-05-2007 23:04:06 14.1 C 8.86 g/m*3 14.1 C 0 km/h
242 31-05-2007 23:24:06 13.7 C 8.88 g/m*3 13.7 C 0 km/h
243 31-05-2007 23:44:06 13.5 C 8.77 g/m*3 13.5 C 0 km/h
244 01-06-2007 00:04:06 13.3 C 8.78 g/m*3 13.3 C 0 km/h
245 01-06-2007 00:24:06 13.3 C 8.9 g/m*3 13.3 C 0 km/h
246 01-06-2007 00:44:06 12.9 C 8.9 g/m*3 12.9 C 0 km/h
247 01-06-2007 01:04:06 13 C 8.96 g/m*3 13 C 0 km/h
248 01-06-2007 01:24:07 12.9 C 9.13 g/m*3 12.9 C 0 km/h
249 01-06-2007 01:44:07 12.8 C 9.07 g/m*3 12.8 C 0 km/h
250 01-06-2007 02:04:07 12.5 C 8.91 g/m*3 12.5 C 0 km/h
Sensor: Nr:Datum:Temp:Abs-Feuchte:Windchill:Wind:
Aussen-T/F 251 01-06-2007 02:24:07 12.3 C 8.9 g/m*3 12.3 C 0 km/h
252 01-06-2007 02:44:07 12.4 C 8.96 g/m*3 12.4 C 0 km/h
253 01-06-2007 03:04:07 12.2 C 8.85 g/m*3 12.2 C 0 km/h
254 01-06-2007 03:24:07 11.9 C 8.79 g/m*3 11.9 C 0 km/h
255 01-06-2007 03:44:07 11.8 C 8.84 g/m*3 11.8 C 0 km/h
256 01-06-2007 04:04:07 11.6 C 8.73 g/m*3 11.6 C 0 km/h
257 01-06-2007 04:24:07 11.3 C 8.67 g/m*3 11.3 C 0 km/h
258 01-06-2007 04:44:07 11.1 C 8.56 g/m*3 11.1 C 0 km/h
259 01-06-2007 05:04:07 11.3 C 8.77 g/m*3 11.3 C 0 km/h
260 01-06-2007 05:24:07 11.3 C 8.77 g/m*3 11.3 C 0 km/h
261 01-06-2007 05:44:07 11.5 C 8.88 g/m*3 11.5 C 0 km/h
262 01-06-2007 06:04:07 11.7 C 8.99 g/m*3 11.7 C 0 km/h
263 01-06-2007 06:24:07 11.7 C 8.99 g/m*3 11.7 C 0 km/h
264 01-06-2007 06:44:07 11.7 C 9.1 g/m*3 11.7 C 0 km/h
265 01-06-2007 07:04:07 12.2 C 9.17 g/m*3 12.2 C 0 km/h
266 01-06-2007 07:24:07 12.8 C 9.41 g/m*3 12.8 C 0 km/h
267 01-06-2007 07:44:08 13 C 9.3 g/m*3 13 C 0 km/h
268 01-06-2007 08:04:08 12.9 C 9.24 g/m*3 12.9 C 0 km/h
269 01-06-2007 08:24:08 12.4 C 9.29 g/m*3 12.4 C 0 km/h
270 01-06-2007 08:44:08 13.1 C 9.93 g/m*3 13.1 C 0 km/h
271 01-06-2007 09:04:08 13.5 C 9.71 g/m*3 13.5 C 0 km/h
272 01-06-2007 09:24:08 14.8 C 10.01 g/m*3 14.8 C 0 km/h
273 01-06-2007 09:44:08 16 C 9.95 g/m*3 16 C 0 km/h
274 01-06-2007 10:04:08 16.4 C 9.77 g/m*3 16.4 C 0 km/h
275 01-06-2007 10:24:08 16.8 C 9.72 g/m*3 16.8 C 0 km/h
Sensor: Nr:Datum:Temp:Abs-Feuchte:Windchill:Wind:
Aussen-T/F 276 01-06-2007 10:44:08 17.1 C 9.32 g/m*3 17.1 C 0 km/h
277 01-06-2007 11:04:08 17.7 C 9.2 g/m*3 17.7 C 0 km/h
278 01-06-2007 11:24:08 17.1 C 8.88 g/m*3 17.1 C 0 km/h
279 01-06-2007 11:44:08 16.7 C 9.52 g/m*3 16.7 C 0 km/h
280 01-06-2007 12:04:08 16.2 C 9.52 g/m*3 16.2 C 0 km/h
281 01-06-2007 12:24:08 16 C 9.26 g/m*3 16 C 0 km/h
282 01-06-2007 12:44:08 16.9 C 9.49 g/m*3 16.9 C 0 km/h
283 01-06-2007 13:04:08 17.3 C 9.87 g/m*3 17.3 C 0 km/h
284 01-06-2007 13:24:08 17.2 C 9.52 g/m*3 17.2 C 0 km/h
285 01-06-2007 13:44:08 16.2 C 10.2 g/m*3 16.2 C 0 km/h
286 01-06-2007 14:04:08 16.4 C 10.89 g/m*3 16.4 C 0 km/h
287 01-06-2007 14:24:09 17.3 C 10.75 g/m*3 17.3 C 0 km/h
288 01-06-2007 14:44:09 18 C 10.14 g/m*3 18 C 0 km/h
289 01-06-2007 15:04:09 18.6 C 9.55 g/m*3 18.6 C 0 km/h
290 01-06-2007 15:24:09 19.4 C 8.18 g/m*3 19.4 C 0 km/h
291 01-06-2007 15:44:09 20.3 C 8.97 g/m*3 20.3 C 0 km/h
292 01-06-2007 16:04:09 20.4 C 8.67 g/m*3 20.4 C 0 km/h
293 01-06-2007 16:24:09 20.2 C 8.57 g/m*3 20.2 C 0 km/h
294 01-06-2007 16:44:09 20.4 C 8.49 g/m*3 20.4 C 0 km/h
295 01-06-2007 17:04:09 20.6 C 8.95 g/m*3 20.6 C 0 km/h
296 01-06-2007 17:24:09 19.5 C 8.89 g/m*3 19.5 C 0 km/h
297 01-06-2007 17:44:09 19.5 C 9.23 g/m*3 19.5 C 0 km/h
298 01-06-2007 18:04:09 18.6 C 9.23 g/m*3 18.6 C 0 km/h
299 01-06-2007 18:24:09 18.5 C 9.33 g/m*3 18.5 C 0 km/h
300 01-06-2007 18:44:09 18.5 C 9.33 g/m*3 18.5 C 0 km/h
Sensor: Nr:Datum:Temp:Abs-Feuchte:Windchill:Wind:
Aussen-T/F 301 01-06-2007 19:04:09 18.4 C 9.91 g/m*3 18.4 C 0 km/h
302 01-06-2007 19:24:09 18 C 10.14 g/m*3 18 C 0 km/h
303 01-06-2007 19:44:09 17.7 C 10.56 g/m*3 17.7 C 0 km/h
304 01-06-2007 20:04:09 17.7 C 10.71 g/m*3 17.7 C 0 km/h
305 01-06-2007 20:24:10 17.4 C 10.82 g/m*3 17.4 C 0 km/h
306 01-06-2007 20:44:10 16.9 C 11.22 g/m*3 16.9 C 0 km/h
307 01-06-2007 21:04:10 16.7 C 10.94 g/m*3 16.7 C 0 km/h
308 01-06-2007 21:24:10 16.6 C 10.74 g/m*3 16.6 C 0 km/h
309 01-06-2007 21:44:10 16.4 C 10.47 g/m*3 16.4 C 0 km/h
310 01-06-2007 22:04:10 16.2 C 10.34 g/m*3 16.2 C 0 km/h
311 01-06-2007 22:24:10 16.1 C 10.01 g/m*3 16.1 C 0 km/h
312 01-06-2007 22:44:10 15.6 C 9.84 g/m*3 15.6 C 0 km/h
313 01-06-2007 23:04:10 15 C 9.62 g/m*3 15 C 0 km/h
314 01-06-2007 23:24:10 14.5 C 9.58 g/m*3 14.5 C 0 km/h
315 01-06-2007 23:44:10 14.3 C 9.58 g/m*3 14.3 C 0 km/h
316 02-06-2007 00:04:10 14 C 9.53 g/m*3 14 C 0 km/h
317 02-06-2007 00:24:10 13.8 C 9.77 g/m*3 13.8 C 0 km/h
318 02-06-2007 00:44:10 13.5 C 9.59 g/m*3 13.5 C 0 km/h
319 02-06-2007 01:04:10 13.4 C 9.76 g/m*3 13.4 C 0 km/h
320 02-06-2007 01:24:10 13.1 C 9.59 g/m*3 13.1 C 0 km/h
321 02-06-2007 01:44:10 12.8 C 9.63 g/m*3 12.8 C 0 km/h
322 02-06-2007 02:04:10 12.7 C 9.68 g/m*3 12.7 C 0 km/h
323 02-06-2007 02:24:11 12.4 C 9.62 g/m*3 12.4 C 0 km/h
324 02-06-2007 02:44:11 12.1 C 9.44 g/m*3 12.1 C 0 km/h
325 02-06-2007 03:04:11 12.2 C 9.6 g/m*3 12.2 C 0 km/h
Sensor: Nr:Datum:Temp:Abs-Feuchte:Windchill:Wind:
Aussen-T/F 326 02-06-2007 03:24:11 12 C 9.59 g/m*3 12 C 0 km/h
327 02-06-2007 03:44:11 11.9 C 9.64 g/m*3 11.9 C 0 km/h
328 02-06-2007 04:04:11 11.7 C 9.52 g/m*3 11.7 C 0 km/h
329 02-06-2007 04:24:11 11.5 C 9.4 g/m*3 11.5 C 0 km/h
330 02-06-2007 04:44:11 11.3 C 9.28 g/m*3 11.3 C 0 km/h
331 02-06-2007 05:04:11 11.1 C 9.17 g/m*3 11.1 C 0 km/h
332 02-06-2007 05:24:11 11 C 9.11 g/m*3 11 C 0 km/h
333 02-06-2007 05:44:11 11 C 9.21 g/m*3 11 C 0 km/h
334 02-06-2007 06:04:11 11 C 9.21 g/m*3 11 C 0 km/h
335 02-06-2007 06:24:11 11.3 C 9.49 g/m*3 11.3 C 0 km/h
336 02-06-2007 06:44:11 11.8 C 9.79 g/m*3 11.8 C 0 km/h
337 02-06-2007 07:04:11 12 C 9.8 g/m*3 12 C 0 km/h
338 02-06-2007 07:24:11 12.3 C 9.99 g/m*3 12.3 C 0 km/h
339 02-06-2007 07:44:11 12.6 C 10.07 g/m*3 12.6 C 0 km/h
340 02-06-2007 08:04:12 12.9 C 10.14 g/m*3 12.9 C 0 km/h
341 02-06-2007 08:24:12 13.5 C 10.29 g/m*3 13.5 C 0 km/h
342 02-06-2007 08:44:12 14.4 C 10.26 g/m*3 14.4 C 0 km/h
343 02-06-2007 09:04:12 15.1 C 10.32 g/m*3 15.1 C 0 km/h
344 02-06-2007 09:24:12 16 C 9.95 g/m*3 16 C 0 km/h
345 02-06-2007 09:44:12 16.8 C 9.87 g/m*3 16.8 C 0 km/h
346 02-06-2007 10:04:12 17.1 C 9.75 g/m*3 17.1 C 0 km/h
347 02-06-2007 10:24:12 17.7 C 10.11 g/m*3 17.7 C 0 km/h
348 02-06-2007 10:44:12 20.1 C 9.39 g/m*3 20.1 C 0 km/h
349 02-06-2007 11:04:12 21.7 C 9.35 g/m*3 21.7 C 0 km/h
350 02-06-2007 11:24:12 21.3 C 9.13 g/m*3 21.3 C 0 km/h
Sensor: Nr:Datum:Temp:Abs-Feuchte:Windchill:Wind:
Aussen-T/F 351 02-06-2007 11:44:12 21.7 C 9.35 g/m*3 21.7 C 0 km/h
352 02-06-2007 12:04:12 22.1 C 9.37 g/m*3 22.1 C 0 km/h
353 02-06-2007 12:24:12 24.5 C 8.95 g/m*3 24.5 C 0 km/h
354 02-06-2007 12:44:12 23.4 C 8.83 g/m*3 23.4 C 0 km/h
355 02-06-2007 13:04:12 22.9 C 9.2 g/m*3 22.9 C 0 km/h
356 02-06-2007 13:24:12 22.8 C 9.96 g/m*3 22.8 C 0 km/h
357 02-06-2007 13:44:12 23.6 C 9.57 g/m*3 23.6 C 0 km/h
358 02-06-2007 14:04:12 25.7 C 8.62 g/m*3 25.7 C 0 km/h
359 02-06-2007 14:24:13 27.5 C 7.94 g/m*3 27.5 C 0 km/h
360 02-06-2007 14:44:13 26.7 C 8.35 g/m*3 26.7 C 0 km/h
361 02-06-2007 15:04:13 26 C 7.55 g/m*3 26 C 0 km/h
362 02-06-2007 15:24:13 27 C 7.21 g/m*3 27 C 0 km/h
363 02-06-2007 15:44:13 26.1 C 7.1 g/m*3 26.1 C 0 km/h
364 02-06-2007 16:04:13 23.8 C 8.39 g/m*3 23.8 C 0 km/h
365 02-06-2007 16:24:13 23.5 C 8.67 g/m*3 23.5 C 0 km/h
366 02-06-2007 16:44:13 24.4 C 8.46 g/m*3 24.4 C 0 km/h
367 02-06-2007 17:04:13 25 C 7.14 g/m*3 25 C 0 km/h
368 02-06-2007 17:24:13 24.3 C 7.08 g/m*3 24.3 C 0 km/h
369 02-06-2007 17:44:13 24.3 C 8.19 g/m*3 24.3 C 0 km/h
370 02-06-2007 18:04:13 24.6 C 7.43 g/m*3 24.6 C 0 km/h
371 02-06-2007 18:24:13 24.8 C 7.74 g/m*3 24.8 C 0 km/h
372 02-06-2007 18:44:13 25.2 C 7.68 g/m*3 25.2 C 0 km/h
373 02-06-2007 19:04:13 24.2 C 7.7 g/m*3 24.2 C 0 km/h
374 02-06-2007 19:24:13 25.8 C 7.94 g/m*3 25.8 C 0 km/h
375 02-06-2007 19:44:13 24.5 C 8.06 g/m*3 24.5 C 0 km/h
Sensor: Nr:Datum:Temp:Abs-Feuchte:Windchill:Wind:
Aussen-T/F 376 02-06-2007 20:04:14 23.4 C 8.62 g/m*3 23.4 C 0 km/h
377 02-06-2007 20:24:14 22.4 C 8.54 g/m*3 22.4 C 0 km/h
378 02-06-2007 20:44:14 21.5 C 8.49 g/m*3 21.5 C 0 km/h
379 02-06-2007 21:04:14 20.4 C 8.67 g/m*3 20.4 C 0 km/h
380 02-06-2007 21:24:14 19.9 C 8.93 g/m*3 19.9 C 0 km/h
381 02-06-2007 21:44:14 19.9 C 9.11 g/m*3 19.9 C 0 km/h
382 02-06-2007 22:04:14 19.7 C 9.17 g/m*3 19.7 C 0 km/h
383 02-06-2007 22:24:14 19.5 C 9.23 g/m*3 19.5 C 0 km/h
384 02-06-2007 22:44:14 18.9 C 9.4 g/m*3 18.9 C 0 km/h
385 02-06-2007 23:04:14 18.6 C 9.55 g/m*3 18.6 C 0 km/h
386 02-06-2007 23:24:14 18.6 C 9.55 g/m*3 18.6 C 0 km/h
387 02-06-2007 23:44:14 18.3 C 9.54 g/m*3 18.3 C 0 km/h
388 03-06-2007 00:04:14 18.1 C 9.58 g/m*3 18.1 C 0 km/h
389 03-06-2007 00:24:14 18.1 C 9.73 g/m*3 18.1 C 0 km/h
390 03-06-2007 00:44:14 17.9 C 9.92 g/m*3 17.9 C 0 km/h
391 03-06-2007 01:04:14 17.8 C 10.02 g/m*3 17.8 C 0 km/h
392 03-06-2007 01:24:14 17.7 C 10.11 g/m*3 17.7 C 0 km/h
393 03-06-2007 01:44:14 17.6 C 10.05 g/m*3 17.6 C 0 km/h
394 03-06-2007 02:04:15 17.5 C 10.14 g/m*3 17.5 C 0 km/h
395 03-06-2007 02:24:15 17.2 C 10.1 g/m*3 17.2 C 0 km/h
396 03-06-2007 02:44:15 16.9 C 10.21 g/m*3 16.9 C 0 km/h
397 03-06-2007 03:04:15 16.9 C 10.21 g/m*3 16.9 C 0 km/h
398 03-06-2007 03:24:15 16.8 C 10.15 g/m*3 16.8 C 0 km/h
399 03-06-2007 03:44:15 16.4 C 10.05 g/m*3 16.4 C 0 km/h
400 03-06-2007 04:04:15 16.4 C 10.33 g/m*3 16.4 C 0 km/h
Sensor: Nr:Datum:Temp:Abs-Feuchte:Windchill:Wind:
Aussen-T/F 401 03-06-2007 04:24:15 16.3 C 10.27 g/m*3 16.3 C 0 km/h
402 03-06-2007 04:44:15 16.3 C 10.27 g/m*3 16.3 C 0 km/h
403 03-06-2007 05:04:15 16.3 C 10.27 g/m*3 16.3 C 0 km/h
404 03-06-2007 05:24:15 16.2 C 10.2 g/m*3 16.2 C 0 km/h
405 03-06-2007 05:44:15 16.2 C 10.34 g/m*3 16.2 C 0 km/h
406 03-06-2007 06:04:15 16.2 C 10.34 g/m*3 16.2 C 0 km/h
407 03-06-2007 06:24:15 16.2 C 10.34 g/m*3 16.2 C 0 km/h
408 03-06-2007 06:44:15 16 C 10.35 g/m*3 16 C 0 km/h
409 03-06-2007 07:04:15 15.6 C 10.37 g/m*3 15.6 C 0 km/h
410 03-06-2007 07:24:15 15.8 C 10.63 g/m*3 15.8 C 0 km/h
411 03-06-2007 07:44:15 16.7 C 10.8 g/m*3 16.7 C 0 km/h
412 03-06-2007 08:04:16 17 C 10.56 g/m*3 17 C 0 km/h
413 03-06-2007 08:24:16 18 C 10.6 g/m*3 18 C 0 km/h
414 03-06-2007 08:44:16 18 C 9.98 g/m*3 18 C 0 km/h
415 03-06-2007 09:04:16 18.9 C 10.37 g/m*3 18.9 C 0 km/h
416 03-06-2007 09:24:16 19.4 C 10.01 g/m*3 19.4 C 0 km/h
417 03-06-2007 09:44:16 19.7 C 10.02 g/m*3 19.7 C 0 km/h
418 03-06-2007 10:04:16 20.9 C 10.02 g/m*3 20.9 C 0 km/h
419 03-06-2007 10:24:16 21.1 C 9.58 g/m*3 21.1 C 0 km/h
420 03-06-2007 10:44:16 21.8 C 9.78 g/m*3 21.8 C 0 km/h
421 03-06-2007 11:04:16 22.5 C 9.59 g/m*3 22.5 C 0 km/h
422 03-06-2007 11:24:16 23.1 C 9.3 g/m*3 23.1 C 0 km/h
423 03-06-2007 11:44:16 23.4 C 9.04 g/m*3 23.4 C 0 km/h
424 03-06-2007 12:04:16 23.9 C 9.09 g/m*3 23.9 C 0 km/h
425 03-06-2007 12:24:16 23.7 C 8.98 g/m*3 23.7 C 0 km/h
Sensor: Nr:Datum:Temp:Abs-Feuchte:Windchill:Wind:
Aussen-T/F 426 03-06-2007 12:44:16 25 C 8.75 g/m*3 25 C 0 km/h
427 03-06-2007 13:04:16 26.1 C 8.57 g/m*3 26.1 C 0 km/h
428 03-06-2007 13:24:16 25 C 8.29 g/m*3 25 C 0 km/h
429 03-06-2007 13:44:16 24.8 C 8.42 g/m*3 24.8 C 0 km/h
430 03-06-2007 14:04:16 24.8 C 8.19 g/m*3 24.8 C 0 km/h
431 03-06-2007 14:24:16 26.6 C 8.31 g/m*3 26.6 C 0 km/h
432 03-06-2007 14:44:17 25.7 C 8.38 g/m*3 25.7 C 0 km/h
433 03-06-2007 15:04:17 25.2 C 8.38 g/m*3 25.2 C 0 km/h
434 03-06-2007 15:24:17 25.2 C 8.15 g/m*3 25.2 C 0 km/h
435 03-06-2007 15:44:17 25.7 C 8.38 g/m*3 25.7 C 0 km/h
436 03-06-2007 16:04:17 26.2 C 8.62 g/m*3 26.2 C 0 km/h
437 03-06-2007 16:24:17 26.4 C 8.21 g/m*3 26.4 C 0 km/h
438 03-06-2007 16:44:17 25.4 C 8.95 g/m*3 25.4 C 0 km/h
439 03-06-2007 17:04:17 24.5 C 8.95 g/m*3 24.5 C 0 km/h
440 03-06-2007 17:24:17 24.7 C 9.05 g/m*3 24.7 C 0 km/h
441 03-06-2007 17:44:17 24.9 C 8.93 g/m*3 24.9 C 0 km/h
442 03-06-2007 18:04:17 24.6 C 9 g/m*3 24.6 C 0 km/h
443 03-06-2007 18:24:17 23.9 C 8.87 g/m*3 23.9 C 0 km/h
444 03-06-2007 18:44:17 24.3 C 9.07 g/m*3 24.3 C 0 km/h
445 03-06-2007 19:04:17 25.7 C 9.34 g/m*3 25.7 C 0 km/h
446 03-06-2007 19:24:17 24.5 C 9.62 g/m*3 24.5 C 0 km/h
447 03-06-2007 19:44:17 23.9 C 9.95 g/m*3 23.9 C 0 km/h
448 03-06-2007 20:04:17 23.4 C 9.88 g/m*3 23.4 C 0 km/h
449 03-06-2007 20:24:17 23.2 C 9.98 g/m*3 23.2 C 0 km/h
450 03-06-2007 20:44:17 22.6 C 10.25 g/m*3 22.6 C 0 km/h
Sensor: Nr:Datum:Temp:Abs-Feuchte:Windchill:Wind:
Aussen-T/F 451 03-06-2007 21:04:18 22 C 10.29 g/m*3 22 C 0 km/h
452 03-06-2007 21:24:18 21.7 C 10.68 g/m*3 21.7 C 0 km/h
453 03-06-2007 21:44:18 21.6 C 10.62 g/m*3 21.6 C 0 km/h
454 03-06-2007 22:04:18 20.8 C 10.5 g/m*3 20.8 C 0 km/h
455 03-06-2007 22:24:18 20.5 C 10.85 g/m*3 20.5 C 0 km/h
456 03-06-2007 22:44:18 20.3 C 10.73 g/m*3 20.3 C 0 km/h
457 03-06-2007 23:04:18 20 C 10.71 g/m*3 20 C 0 km/h
458 03-06-2007 23:24:18 19.7 C 10.87 g/m*3 19.7 C 0 km/h
459 03-06-2007 23:44:18 19.3 C 10.95 g/m*3 19.3 C 0 km/h
460 04-06-2007 00:04:18 19.2 C 10.88 g/m*3 19.2 C 0 km/h
461 04-06-2007 00:24:18 19.1 C 10.98 g/m*3 19.1 C 0 km/h
462 04-06-2007 00:44:18 18.9 C 11.02 g/m*3 18.9 C 0 km/h
463 04-06-2007 01:04:18 18.7 C 11.05 g/m*3 18.7 C 0 km/h
464 04-06-2007 01:24:18 18.3 C 10.94 g/m*3 18.3 C 0 km/h
465 04-06-2007 01:44:18 18.2 C 11.04 g/m*3 18.2 C 0 km/h
466 04-06-2007 02:04:18 18.2 C 11.19 g/m*3 18.2 C 0 km/h
467 04-06-2007 02:24:18 17.9 C 11.3 g/m*3 17.9 C 0 km/h
468 04-06-2007 02:44:18 17.8 C 11.23 g/m*3 17.8 C 0 km/h
469 04-06-2007 03:04:18 17.8 C 11.23 g/m*3 17.8 C 0 km/h
470 04-06-2007 03:24:19 17.7 C 11.16 g/m*3 17.7 C 0 km/h
471 04-06-2007 03:44:19 17.4 C 10.97 g/m*3 17.4 C 0 km/h
472 04-06-2007 04:04:19 17.5 C 10.88 g/m*3 17.5 C 0 km/h
473 04-06-2007 04:24:19 17.5 C 10.88 g/m*3 17.5 C 0 km/h
474 04-06-2007 04:44:19 17.1 C 10.63 g/m*3 17.1 C 0 km/h
475 04-06-2007 05:04:19 16.5 C 10.67 g/m*3 16.5 C 0 km/h
Sensor: Nr:Datum:Temp:Abs-Feuchte:Windchill:Wind:
Aussen-T/F 476 04-06-2007 05:24:19 16 C 10.63 g/m*3 16 C 0 km/h
477 04-06-2007 05:44:19 15.7 C 10.7 g/m*3 15.7 C 0 km/h
478 04-06-2007 06:04:19 15.6 C 10.64 g/m*3 15.6 C 0 km/h
479 04-06-2007 06:24:19 15.7 C 10.84 g/m*3 15.7 C 0 km/h
480 04-06-2007 06:44:19 16 C 11.04 g/m*3 16 C 0 km/h
481 04-06-2007 07:04:19 16.2 C 11.17 g/m*3 16.2 C 0 km/h
482 04-06-2007 07:24:19 16.5 C 11.23 g/m*3 16.5 C 0 km/h
483 04-06-2007 07:44:19 16.9 C 11.36 g/m*3 16.9 C 0 km/h
484 04-06-2007 08:04:19 17.5 C 11.33 g/m*3 17.5 C 0 km/h
485 04-06-2007 08:24:19 18.8 C 11.11 g/m*3 18.8 C 0 km/h
486 04-06-2007 08:44:19 19.6 C 10.47 g/m*3 19.6 C 0 km/h
487 04-06-2007 09:04:19 19.9 C 10.48 g/m*3 19.9 C 0 km/h
488 04-06-2007 09:24:20 20.4 C 10.26 g/m*3 20.4 C 0 km/h
489 04-06-2007 09:44:20 20.9 C 10.38 g/m*3 20.9 C 0 km/h
490 04-06-2007 10:04:20 22 C 10.29 g/m*3 22 C 0 km/h
491 04-06-2007 10:24:20 22.8 C 10.16 g/m*3 22.8 C 0 km/h
492 04-06-2007 10:44:20 22.6 C 10.04 g/m*3 22.6 C 0 km/h
493 04-06-2007 11:04:20 23.2 C 9.98 g/m*3 23.2 C 0 km/h
494 04-06-2007 11:24:20 24.2 C 10.12 g/m*3 24.2 C 0 km/h
495 04-06-2007 11:44:20 25.6 C 10 g/m*3 25.6 C 0 km/h
496 04-06-2007 12:04:20 25.7 C 9.58 g/m*3 25.7 C 0 km/h
497 04-06-2007 12:24:20 27.8 C 9.41 g/m*3 27.8 C 0 km/h
498 04-06-2007 12:44:20 27.4 C 9.21 g/m*3 27.4 C 0 km/h
499 04-06-2007 13:04:20 28.3 C 8.85 g/m*3 28.3 C 0 km/h
500 04-06-2007 13:24:20 28.4 C 8.34 g/m*3 28.4 C 0 km/h
Sensor: Nr:Datum:Temp:Abs-Feuchte:Windchill:Wind:
Aussen-T/F 501 04-06-2007 13:44:20 28.8 C 8.24 g/m*3 28.8 C 0 km/h
502 04-06-2007 14:04:20 29.6 C 8.31 g/m*3 29.6 C 0 km/h
503 04-06-2007 14:24:20 28.2 C 8.25 g/m*3 28.2 C 0 km/h
504 04-06-2007 14:44:20 27.6 C 8.51 g/m*3 27.6 C 0 km/h
505 04-06-2007 15:04:21 28.1 C 8.48 g/m*3 28.1 C 0 km/h
506 04-06-2007 15:24:21 29.8 C 7.8 g/m*3 29.8 C 0 km/h
507 04-06-2007 15:44:21 26.4 C 8.71 g/m*3 26.4 C 0 km/h
508 04-06-2007 16:04:21 25.6 C 9.28 g/m*3 25.6 C 0 km/h
509 04-06-2007 16:24:21 25.7 C 9.1 g/m*3 25.7 C 0 km/h
510 04-06-2007 16:44:21 26.1 C 9.3 g/m*3 26.1 C 0 km/h
511 04-06-2007 17:04:21 25.7 C 9.58 g/m*3 25.7 C 0 km/h
512 04-06-2007 17:24:21 25.5 C 9.47 g/m*3 25.5 C 0 km/h
513 04-06-2007 17:44:21 26.2 C 9.35 g/m*3 26.2 C 0 km/h
514 04-06-2007 18:04:21 26.7 C 9.11 g/m*3 26.7 C 0 km/h
515 04-06-2007 18:24:21 25.1 C 9.49 g/m*3 25.1 C 0 km/h
516 04-06-2007 18:44:21 25 C 10.13 g/m*3 25 C 0 km/h
517 04-06-2007 19:04:21 25.5 C 10.18 g/m*3 25.5 C 0 km/h
518 04-06-2007 19:24:21 26.1 C 10.28 g/m*3 26.1 C 0 km/h
519 04-06-2007 19:44:21 26.8 C 8.91 g/m*3 26.8 C 0 km/h
520 04-06-2007 20:04:21 26.1 C 9.06 g/m*3 26.1 C 0 km/h
521 04-06-2007 20:24:21 25.2 C 8.61 g/m*3 25.2 C 0 km/h
522 04-06-2007 20:44:21 24.3 C 9.74 g/m*3 24.3 C 0 km/h
523 04-06-2007 21:04:22 23.2 C 10.81 g/m*3 23.2 C 0 km/h
524 04-06-2007 21:24:22 20.6 C 11.63 g/m*3 20.6 C 0 km/h
525 04-06-2007 21:44:22 21.2 C 10.75 g/m*3 21.2 C 0 km/h
Sensor: Nr:Datum:Temp:Abs-Feuchte:Windchill:Wind:
Aussen-T/F 526 04-06-2007 22:04:22 21.4 C 10.12 g/m*3 21.4 C 0 km/h
527 04-06-2007 22:24:22 21.5 C 9.81 g/m*3 21.5 C 0 km/h
528 04-06-2007 22:44:22 21.2 C 9.27 g/m*3 21.2 C 0 km/h
529 04-06-2007 23:04:22 20.8 C 9.05 g/m*3 20.8 C 0 km/h
530 04-06-2007 23:24:22 20.3 C 9.32 g/m*3 20.3 C 0 km/h
531 04-06-2007 23:44:22 19.9 C 9.62 g/m*3 19.9 C 0 km/h
532 05-06-2007 00:04:22 19.5 C 9.73 g/m*3 19.5 C 0 km/h
533 05-06-2007 00:24:22 19.4 C 10.01 g/m*3 19.4 C 0 km/h
534 05-06-2007 00:44:22 19.2 C 10.06 g/m*3 19.2 C 0 km/h
535 05-06-2007 01:04:22 19 C 10.1 g/m*3 19 C 0 km/h
536 05-06-2007 01:24:22 18.9 C 10.37 g/m*3 18.9 C 0 km/h
537 05-06-2007 01:44:22 18.4 C 10.22 g/m*3 18.4 C 0 km/h
538 05-06-2007 02:04:22 18 C 10.29 g/m*3 18 C 0 km/h
539 05-06-2007 02:24:22 17.7 C 10.26 g/m*3 17.7 C 0 km/h
540 05-06-2007 02:44:22 17.2 C 10.25 g/m*3 17.2 C 0 km/h
541 05-06-2007 03:04:23 16.8 C 10.29 g/m*3 16.8 C 0 km/h
542 05-06-2007 03:24:23 16.6 C 10.45 g/m*3 16.6 C 0 km/h
543 05-06-2007 03:44:23 16.4 C 10.47 g/m*3 16.4 C 0 km/h
544 05-06-2007 04:04:23 16.2 C 10.48 g/m*3 16.2 C 0 km/h
545 05-06-2007 04:24:23 15.9 C 10.56 g/m*3 15.9 C 0 km/h
546 05-06-2007 04:44:23 15.8 C 10.63 g/m*3 15.8 C 0 km/h
547 05-06-2007 05:04:23 15.4 C 10.38 g/m*3 15.4 C 0 km/h
548 05-06-2007 05:24:23 15.3 C 10.45 g/m*3 15.3 C 0 km/h
549 05-06-2007 05:44:23 15 C 10.39 g/m*3 15 C 0 km/h
550 05-06-2007 06:04:23 15.1 C 10.58 g/m*3 15.1 C 0 km/h
Sensor: Nr:Datum:Temp:Abs-Feuchte:Windchill:Wind:
Aussen-T/F 551 05-06-2007 06:24:23 15.2 C 10.64 g/m*3 15.2 C 0 km/h
552 05-06-2007 06:44:23 15.2 C 10.64 g/m*3 15.2 C 0 km/h
553 05-06-2007 07:04:23 15.7 C 11.11 g/m*3 15.7 C 0 km/h
554 05-06-2007 07:24:23 16.1 C 10.97 g/m*3 16.1 C 0 km/h
555 05-06-2007 07:44:23 16.2 C 11.03 g/m*3 16.2 C 0 km/h
556 05-06-2007 08:04:23 16.7 C 11.08 g/m*3 16.7 C 0 km/h
557 05-06-2007 08:24:23 17.4 C 11.26 g/m*3 17.4 C 0 km/h
558 05-06-2007 08:44:23 18.2 C 11.19 g/m*3 18.2 C 0 km/h
559 05-06-2007 09:04:23 19 C 10.76 g/m*3 19 C 0 km/h
560 05-06-2007 09:24:23 19.9 C 10.65 g/m*3 19.9 C 0 km/h
561 05-06-2007 09:44:24 20.9 C 10.56 g/m*3 20.9 C 0 km/h
562 05-06-2007 10:04:24 21.6 C 10.43 g/m*3 21.6 C 0 km/h
563 05-06-2007 10:24:24 22.5 C 10.19 g/m*3 22.5 C 0 km/h
564 05-06-2007 10:44:24 23.4 C 9.88 g/m*3 23.4 C 0 km/h
565 05-06-2007 11:04:24 23.4 C 9.88 g/m*3 23.4 C 0 km/h
566 05-06-2007 11:24:24 24 C 10.01 g/m*3 24 C 0 km/h
567 05-06-2007 11:44:24 25.3 C 8.66 g/m*3 25.3 C 0 km/h
568 05-06-2007 12:04:24 26.3 C 8.91 g/m*3 26.3 C 0 km/h
569 05-06-2007 12:24:24 26.6 C 8.31 g/m*3 26.6 C 0 km/h
570 05-06-2007 12:44:24 27.5 C 7.94 g/m*3 27.5 C 0 km/h
571 05-06-2007 13:04:24 27.1 C 7.76 g/m*3 27.1 C 0 km/h
572 05-06-2007 13:24:24 26.9 C 8.45 g/m*3 26.9 C 0 km/h
573 05-06-2007 13:44:24 27.7 C 8.56 g/m*3 27.7 C 0 km/h
574 05-06-2007 14:04:24 27.3 C 7.85 g/m*3 27.3 C 0 km/h
575 05-06-2007 14:24:24 27.5 C 8.47 g/m*3 27.5 C 0 km/h
Sensor: Nr:Datum:Temp:Abs-Feuchte:Windchill:Wind:
Aussen-T/F 576 05-06-2007 14:44:24 27 C 7.72 g/m*3 27 C 0 km/h
577 05-06-2007 15:04:24 28.3 C 7.46 g/m*3 28.3 C 0 km/h
578 05-06-2007 15:24:25 28.9 C 8.28 g/m*3 28.9 C 0 km/h
579 05-06-2007 15:44:25 27.4 C 8.16 g/m*3 27.4 C 0 km/h
580 05-06-2007 16:04:25 27.4 C 8.42 g/m*3 27.4 C 0 km/h
581 05-06-2007 16:24:25 28.1 C 8.75 g/m*3 28.1 C 0 km/h
582 05-06-2007 16:44:25 28.3 C 8.29 g/m*3 28.3 C 0 km/h
583 05-06-2007 17:04:25 26.9 C 8.96 g/m*3 26.9 C 0 km/h
584 05-06-2007 17:24:25 30 C 7.88 g/m*3 30 C 0 km/h
585 05-06-2007 17:44:25 28.1 C 9.02 g/m*3 28.1 C 0 km/h
586 05-06-2007 18:04:25 26.8 C 9.67 g/m*3 26.8 C 0 km/h
587 05-06-2007 18:24:25 26 C 9.49 g/m*3 26 C 0 km/h
588 05-06-2007 18:44:25 24.6 C 9.45 g/m*3 24.6 C 0 km/h
589 05-06-2007 19:04:25 25 C 9.21 g/m*3 25 C 0 km/h
590 05-06-2007 19:24:25 24.6 C 9.23 g/m*3 24.6 C 0 km/h
591 05-06-2007 19:44:25 26 C 9.25 g/m*3 26 C 0 km/h
592 05-06-2007 20:04:25 24.9 C 9.61 g/m*3 24.9 C 0 km/h
593 05-06-2007 20:24:25 24.1 C 9.41 g/m*3 24.1 C 0 km/h
594 05-06-2007 20:44:25 23 C 9.45 g/m*3 23 C 0 km/h
595 05-06-2007 21:04:25 22 C 9.51 g/m*3 22 C 0 km/h
596 05-06-2007 21:24:26 21.3 C 9.32 g/m*3 21.3 C 0 km/h
597 05-06-2007 21:44:26 20.8 C 9.42 g/m*3 20.8 C 0 km/h
598 05-06-2007 22:04:26 20.4 C 9.2 g/m*3 20.4 C 0 km/h
599 05-06-2007 22:24:26 20 C 9.16 g/m*3 20 C 0 km/h
600 05-06-2007 22:44:26 19.7 C 9.51 g/m*3 19.7 C 0 km/h
Sensor: Nr:Datum:Temp:Abs-Feuchte:Windchill:Wind:
Aussen-T/F 601 05-06-2007 23:04:26 19.3 C 9.45 g/m*3 19.3 C 0 km/h
602 05-06-2007 23:24:26 18.9 C 9.56 g/m*3 18.9 C 0 km/h
603 05-06-2007 23:44:26 18.6 C 9.55 g/m*3 18.6 C 0 km/h
604 06-06-2007 00:04:26 18.3 C 9.54 g/m*3 18.3 C 0 km/h
605 06-06-2007 00:24:26 18 C 9.52 g/m*3 18 C 0 km/h
606 06-06-2007 00:44:26 17.7 C 9.81 g/m*3 17.7 C 0 km/h
607 06-06-2007 01:04:26 17.4 C 9.78 g/m*3 17.4 C 0 km/h
608 06-06-2007 01:24:26 17.2 C 9.81 g/m*3 17.2 C 0 km/h
609 06-06-2007 01:44:26 16.8 C 10.01 g/m*3 16.8 C 0 km/h
610 06-06-2007 02:04:26 16.6 C 10.03 g/m*3 16.6 C 0 km/h
611 06-06-2007 02:24:26 16.3 C 10.27 g/m*3 16.3 C 0 km/h
612 06-06-2007 02:44:26 15.9 C 10.16 g/m*3 15.9 C 0 km/h
613 06-06-2007 03:04:27 15.7 C 10.17 g/m*3 15.7 C 0 km/h
614 06-06-2007 03:24:27 15.6 C 10.24 g/m*3 15.6 C 0 km/h
615 06-06-2007 03:44:27 15.3 C 10.06 g/m*3 15.3 C 0 km/h
616 06-06-2007 04:04:27 14.9 C 10.07 g/m*3 14.9 C 0 km/h
617 06-06-2007 04:24:27 14.8 C 10.13 g/m*3 14.8 C 0 km/h
618 06-06-2007 04:44:27 14.5 C 10.07 g/m*3 14.5 C 0 km/h
619 06-06-2007 05:04:27 14.3 C 9.95 g/m*3 14.3 C 0 km/h
620 06-06-2007 05:24:27 14.2 C 10.01 g/m*3 14.2 C 0 km/h
621 06-06-2007 05:44:27 14 C 9.89 g/m*3 14 C 0 km/h
622 06-06-2007 06:04:27 14.1 C 10.07 g/m*3 14.1 C 0 km/h
623 06-06-2007 06:24:27 14.1 C 10.07 g/m*3 14.1 C 0 km/h
624 06-06-2007 06:44:27 14.3 C 10.2 g/m*3 14.3 C 0 km/h
625 06-06-2007 07:04:27 14.5 C 10.32 g/m*3 14.5 C 0 km/h
Sensor: Nr:Datum:Temp:Abs-Feuchte:Windchill:Wind:
Aussen-T/F 626 06-06-2007 07:24:27 14.8 C 10.51 g/m*3 14.8 C 0 km/h
627 06-06-2007 07:44:27 15.2 C 10.51 g/m*3 15.2 C 0 km/h
628 06-06-2007 08:04:27 15.9 C 10.97 g/m*3 15.9 C 0 km/h
629 06-06-2007 08:24:27 16.4 C 11.03 g/m*3 16.4 C 0 km/h
630 06-06-2007 08:44:28 16.9 C 11.08 g/m*3 16.9 C 0 km/h
631 06-06-2007 09:04:28 17.7 C 11.16 g/m*3 17.7 C 0 km/h
632 06-06-2007 09:24:28 18.7 C 11.05 g/m*3 18.7 C 0 km/h
633 06-06-2007 09:44:28 19.6 C 10.8 g/m*3 19.6 C 0 km/h
634 06-06-2007 10:04:28 20.4 C 10.61 g/m*3 20.4 C 0 km/h
635 06-06-2007 10:24:28 21.6 C 10.62 g/m*3 21.6 C 0 km/h
636 06-06-2007 10:44:28 22.4 C 10.53 g/m*3 22.4 C 0 km/h
637 06-06-2007 11:04:28 23.7 C 10.48 g/m*3 23.7 C 0 km/h
638 06-06-2007 11:24:28 24.5 C 10.52 g/m*3 24.5 C 0 km/h
639 06-06-2007 11:44:28 25.5 C 9.94 g/m*3 25.5 C 0 km/h
640 06-06-2007 12:04:28 26.2 C 10.09 g/m*3 26.2 C 0 km/h
641 06-06-2007 12:24:28 27.4 C 9.47 g/m*3 27.4 C 0 km/h
642 06-06-2007 12:44:28 28.4 C 8.9 g/m*3 28.4 C 0 km/h
643 06-06-2007 13:04:28 28.9 C 9.14 g/m*3 28.9 C 0 km/h
644 06-06-2007 13:24:28 30.3 C 8.32 g/m*3 30.3 C 0 km/h
645 06-06-2007 13:44:28 31 C 8 g/m*3 31 C 0 km/h
646 06-06-2007 14:04:28 29.5 C 8.85 g/m*3 29.5 C 0 km/h
647 06-06-2007 14:24:29 28.7 C 9.04 g/m*3 28.7 C 0 km/h
648 06-06-2007 14:44:29 28.1 C 8.75 g/m*3 28.1 C 0 km/h
649 06-06-2007 15:04:29 29.7 C 8.65 g/m*3 29.7 C 0 km/h
650 06-06-2007 15:24:29 28.1 C 8.75 g/m*3 28.1 C 0 km/h
Sensor: Nr:Datum:Temp:Abs-Feuchte:Windchill:Wind:
Aussen-T/F 651 06-06-2007 15:44:29 29.6 C 8.9 g/m*3 29.6 C 0 km/h
652 06-06-2007 16:04:29 30.1 C 8.54 g/m*3 30.1 C 0 km/h
653 06-06-2007 16:24:29 31.2 C 7.76 g/m*3 31.2 C 0 km/h
654 06-06-2007 16:44:29 31 C 8.32 g/m*3 31 C 0 km/h
655 06-06-2007 17:04:29 31.9 C 7.05 g/m*3 31.9 C 0 km/h
656 06-06-2007 17:24:29 31.7 C 6.98 g/m*3 31.7 C 0 km/h
657 06-06-2007 17:44:29 30.5 C 8.1 g/m*3 30.5 C 0 km/h
658 06-06-2007 18:04:29 30.4 C 8.68 g/m*3 30.4 C 0 km/h
659 06-06-2007 18:24:29 30.9 C 8.28 g/m*3 30.9 C 0 km/h
660 06-06-2007 18:44:29 31.1 C 8.37 g/m*3 31.1 C 0 km/h
661 06-06-2007 19:04:29 31.2 C 8.09 g/m*3 31.2 C 0 km/h
662 06-06-2007 19:24:29 29.8 C 9 g/m*3 29.8 C 0 km/h
663 06-06-2007 19:44:29 28.4 C 8.9 g/m*3 28.4 C 0 km/h
664 06-06-2007 20:04:30 28 C 9.25 g/m*3 28 C 0 km/h
665 06-06-2007 20:24:30 27.5 C 9.52 g/m*3 27.5 C 0 km/h
666 06-06-2007 20:44:30 26.5 C 9.76 g/m*3 26.5 C 0 km/h
667 06-06-2007 21:04:30 25.6 C 9.76 g/m*3 25.6 C 0 km/h
668 06-06-2007 21:24:30 24.6 C 9.68 g/m*3 24.6 C 0 km/h
669 06-06-2007 21:44:30 24.1 C 9.85 g/m*3 24.1 C 0 km/h
670 06-06-2007 22:04:30 23.7 C 10.05 g/m*3 23.7 C 0 km/h
671 06-06-2007 22:24:30 23.1 C 10.13 g/m*3 23.1 C 0 km/h
672 06-06-2007 22:44:30 22.5 C 10.19 g/m*3 22.5 C 0 km/h
673 06-06-2007 23:04:30 22 C 10.09 g/m*3 22 C 0 km/h
674 06-06-2007 23:24:30 21.8 C 10.36 g/m*3 21.8 C 0 km/h
675 06-06-2007 23:44:30 21.5 C 10.37 g/m*3 21.5 C 0 km/h
Sensor: Nr:Datum:Temp:Abs-Feuchte:Windchill:Wind:
Aussen-T/F 676 07-06-2007 00:04:30 21.3 C 10.44 g/m*3 21.3 C 0 km/h
677 07-06-2007 00:24:30 21.1 C 10.5 g/m*3 21.1 C 0 km/h
678 07-06-2007 00:44:30 21 C 10.81 g/m*3 21 C 0 km/h
679 07-06-2007 01:04:30 21 C 10.81 g/m*3 21 C 0 km/h
680 07-06-2007 01:24:30 20.7 C 11.16 g/m*3 20.7 C 0 km/h
681 07-06-2007 01:44:31 20.4 C 11.14 g/m*3 20.4 C 0 km/h
682 07-06-2007 02:04:31 20.1 C 11.13 g/m*3 20.1 C 0 km/h
683 07-06-2007 02:24:31 20.1 C 11.47 g/m*3 20.1 C 0 km/h
684 07-06-2007 02:44:31 19.7 C 11.21 g/m*3 19.7 C 0 km/h
685 07-06-2007 03:04:31 19.5 C 11.41 g/m*3 19.5 C 0 km/h
686 07-06-2007 03:24:31 19.2 C 11.38 g/m*3 19.2 C 0 km/h
687 07-06-2007 03:44:31 19 C 11.41 g/m*3 19 C 0 km/h
688 07-06-2007 04:04:31 18.8 C 11.6 g/m*3 18.8 C 0 km/h
689 07-06-2007 04:24:31 18.4 C 11.64 g/m*3 18.4 C 0 km/h
690 07-06-2007 04:44:31 18.3 C 11.41 g/m*3 18.3 C 0 km/h
691 07-06-2007 05:04:31 18.1 C 11.43 g/m*3 18.1 C 0 km/h
692 07-06-2007 05:24:31 18.1 C 11.59 g/m*3 18.1 C 0 km/h
693 07-06-2007 05:44:31 17.9 C 11.76 g/m*3 17.9 C 0 km/h
694 07-06-2007 06:04:31 17.9 C 11.76 g/m*3 17.9 C 0 km/h
695 07-06-2007 06:24:31 17.8 C 11.69 g/m*3 17.8 C 0 km/h
696 07-06-2007 06:44:31 17.9 C 11.76 g/m*3 17.9 C 0 km/h
697 07-06-2007 07:04:31 18.1 C 11.74 g/m*3 18.1 C 0 km/h
698 07-06-2007 07:24:31 18.6 C 12.1 g/m*3 18.6 C 0 km/h
699 07-06-2007 07:44:32 18.9 C 12.31 g/m*3 18.9 C 0 km/h
700 07-06-2007 08:04:32 19.4 C 12.01 g/m*3 19.4 C 0 km/h
Sensor: Nr:Datum:Temp:Abs-Feuchte:Windchill:Wind:
Aussen-T/F 701 07-06-2007 08:24:32 19.8 C 12.13 g/m*3 19.8 C 0 km/h
702 07-06-2007 08:44:32 20.3 C 12.14 g/m*3 20.3 C 0 km/h
703 07-06-2007 09:04:32 21 C 12.09 g/m*3 21 C 0 km/h
704 07-06-2007 09:24:32 22.1 C 12.3 g/m*3 22.1 C 0 km/h
705 07-06-2007 09:44:32 23.2 C 12.06 g/m*3 23.2 C 0 km/h
706 07-06-2007 10:04:32 24 C 11.97 g/m*3 24 C 0 km/h
707 07-06-2007 10:24:32 25.1 C 12.04 g/m*3 25.1 C 0 km/h
708 07-06-2007 10:44:32 26.4 C 12.2 g/m*3 26.4 C 0 km/h
709 07-06-2007 11:04:32 27.1 C 11.39 g/m*3 27.1 C 0 km/h
710 07-06-2007 11:24:32 28.3 C 11.33 g/m*3 28.3 C 0 km/h
711 07-06-2007 11:44:32 29 C 10.91 g/m*3 29 C 0 km/h
712 07-06-2007 12:04:32 29.7 C 10.14 g/m*3 29.7 C 0 km/h
713 07-06-2007 12:24:32 29.4 C 9.98 g/m*3 29.4 C 0 km/h
714 07-06-2007 12:44:32 30.6 C 9.4 g/m*3 30.6 C 0 km/h
715 07-06-2007 13:04:32 30.6 C 9.4 g/m*3 30.6 C 0 km/h
716 07-06-2007 13:24:33 31.7 C 8.31 g/m*3 31.7 C 0 km/h
717 07-06-2007 13:44:33 32 C 8.1 g/m*3 32 C 0 km/h
718 07-06-2007 14:04:33 31.9 C 8.06 g/m*3 31.9 C 0 km/h
719 07-06-2007 14:24:33 31.7 C 8.31 g/m*3 31.7 C 0 km/h
720 07-06-2007 14:44:33 32.3 C 8.58 g/m*3 32.3 C 0 km/h
721 07-06-2007 15:04:33 32.4 C 8.28 g/m*3 32.4 C 0 km/h
722 07-06-2007 15:24:33 32.6 C 8.02 g/m*3 32.6 C 0 km/h
723 07-06-2007 15:44:33 32.3 C 7.89 g/m*3 32.3 C 0 km/h
724 07-06-2007 16:04:33 32.2 C 8.19 g/m*3 32.2 C 0 km/h
725 07-06-2007 16:24:33 31.9 C 8.73 g/m*3 31.9 C 0 km/h
Sensor: Nr:Datum:Temp:Abs-Feuchte:Windchill:Wind:
Aussen-T/F 726 07-06-2007 16:44:33 32.7 C 7.71 g/m*3 32.7 C 0 km/h
727 07-06-2007 17:04:33 32.9 C 7.44 g/m*3 32.9 C 0 km/h
728 07-06-2007 17:24:33 31.5 C 8.22 g/m*3 31.5 C 0 km/h
729 07-06-2007 17:44:33 32.3 C 8.23 g/m*3 32.3 C 0 km/h
730 07-06-2007 18:04:33 33.3 C 7.23 g/m*3 33.3 C 0 km/h
731 07-06-2007 18:24:33 32.9 C 7.44 g/m*3 32.9 C 0 km/h
732 07-06-2007 18:44:33 33.3 C 7.23 g/m*3 33.3 C 0 km/h
733 07-06-2007 19:04:34 32.7 C 7.36 g/m*3 32.7 C 0 km/h
734 07-06-2007 19:24:34 32.2 C 8.19 g/m*3 32.2 C 0 km/h
735 07-06-2007 19:44:34 31.3 C 8.78 g/m*3 31.3 C 0 km/h
736 07-06-2007 20:04:34 30.2 C 10.12 g/m*3 30.2 C 0 km/h
737 07-06-2007 20:24:34 29 C 10.05 g/m*3 29 C 0 km/h
738 07-06-2007 20:44:34 28.3 C 10.51 g/m*3 28.3 C 0 km/h
739 07-06-2007 21:04:34 27.6 C 10.64 g/m*3 27.6 C 0 km/h
740 07-06-2007 21:24:34 26.9 C 10.75 g/m*3 26.9 C 0 km/h
741 07-06-2007 21:44:34 26.1 C 10.77 g/m*3 26.1 C 0 km/h
742 07-06-2007 22:04:34 25.7 C 11.25 g/m*3 25.7 C 0 km/h
743 07-06-2007 22:24:34 25 C 11.05 g/m*3 25 C 0 km/h
744 07-06-2007 22:44:34 24.9 C 11.45 g/m*3 24.9 C 0 km/h
745 07-06-2007 23:04:34 24.5 C 11.41 g/m*3 24.5 C 0 km/h
746 07-06-2007 23:24:34 24.1 C 11.6 g/m*3 24.1 C 0 km/h
747 07-06-2007 23:44:34 24.1 C 11.6 g/m*3 24.1 C 0 km/h
748 08-06-2007 00:04:34 23.8 C 11.62 g/m*3 23.8 C 0 km/h
749 08-06-2007 00:24:34 23.9 C 11.68 g/m*3 23.9 C 0 km/h
750 08-06-2007 00:44:35 23.7 C 11.76 g/m*3 23.7 C 0 km/h
Sensor: Nr:Datum:Temp:Abs-Feuchte:Windchill:Wind:
Aussen-T/F 751 08-06-2007 01:04:35 23.4 C 11.57 g/m*3 23.4 C 0 km/h
752 08-06-2007 01:24:35 23 C 11.51 g/m*3 23 C 0 km/h
753 08-06-2007 01:44:35 22.7 C 11.72 g/m*3 22.7 C 0 km/h
754 08-06-2007 02:04:35 22.2 C 11.78 g/m*3 22.2 C 0 km/h
755 08-06-2007 02:24:35 21.8 C 11.9 g/m*3 21.8 C 0 km/h
756 08-06-2007 02:44:35 21.5 C 12.07 g/m*3 21.5 C 0 km/h
757 08-06-2007 03:04:35 21.1 C 11.98 g/m*3 21.1 C 0 km/h
758 08-06-2007 03:24:35 20.8 C 12.13 g/m*3 20.8 C 0 km/h
759 08-06-2007 03:44:35 20.5 C 12.28 g/m*3 20.5 C 0 km/h
760 08-06-2007 04:04:35 20.1 C 12.17 g/m*3 20.1 C 0 km/h
761 08-06-2007 04:24:35 19.7 C 12.4 g/m*3 19.7 C 0 km/h
762 08-06-2007 04:44:35 19.6 C 12.49 g/m*3 19.6 C 0 km/h
763 08-06-2007 05:04:35 19.6 C 12.49 g/m*3 19.6 C 0 km/h
764 08-06-2007 05:24:35 19.4 C 12.35 g/m*3 19.4 C 0 km/h
765 08-06-2007 05:44:35 19.3 C 12.27 g/m*3 19.3 C 0 km/h
766 08-06-2007 06:04:35 19.2 C 12.37 g/m*3 19.2 C 0 km/h
767 08-06-2007 06:24:36 19.5 C 12.59 g/m*3 19.5 C 0 km/h
768 08-06-2007 06:44:36 19.7 C 12.57 g/m*3 19.7 C 0 km/h
769 08-06-2007 07:04:36 19.9 C 12.71 g/m*3 19.9 C 0 km/h
770 08-06-2007 07:24:36 20.2 C 12.59 g/m*3 20.2 C 0 km/h
771 08-06-2007 07:44:36 20.4 C 12.74 g/m*3 20.4 C 0 km/h
772 08-06-2007 08:04:36 21 C 13.01 g/m*3 21 C 0 km/h
773 08-06-2007 08:24:36 21.7 C 12.97 g/m*3 21.7 C 0 km/h
774 08-06-2007 08:44:36 22.6 C 12.46 g/m*3 22.6 C 0 km/h
775 08-06-2007 09:04:36 23.4 C 12.41 g/m*3 23.4 C 0 km/h
Sensor: Nr:Datum:Temp:Abs-Feuchte:Windchill:Wind:
Aussen-T/F 776 08-06-2007 09:24:36 24.4 C 12.24 g/m*3 24.4 C 0 km/h
777 08-06-2007 09:44:36 24.8 C 11.38 g/m*3 24.8 C 0 km/h
778 08-06-2007 10:04:36 25.7 C 11.49 g/m*3 25.7 C 0 km/h
779 08-06-2007 10:24:36 26.5 C 11.01 g/m*3 26.5 C 0 km/h
780 08-06-2007 10:44:36 27.5 C 11.11 g/m*3 27.5 C 0 km/h
781 08-06-2007 11:04:36 28.3 C 11.33 g/m*3 28.3 C 0 km/h
782 08-06-2007 11:24:36 29.2 C 11.03 g/m*3 29.2 C 0 km/h
783 08-06-2007 11:44:36 30.3 C 10.79 g/m*3 30.3 C 0 km/h
784 08-06-2007 12:04:37 30.8 C 9.81 g/m*3 30.8 C 0 km/h
785 08-06-2007 12:24:37 31.3 C 9.43 g/m*3 31.3 C 0 km/h
786 08-06-2007 12:44:37 31.7 C 8.97 g/m*3 31.7 C 0 km/h
787 08-06-2007 13:04:37 32 C 7.43 g/m*3 32 C 0 km/h
788 08-06-2007 13:24:37 32.7 C 7.01 g/m*3 32.7 C 0 km/h
789 08-06-2007 13:44:37 32.8 C 7.04 g/m*3 32.8 C 0 km/h
790 08-06-2007 14:04:37 32.2 C 7.17 g/m*3 32.2 C 0 km/h
791 08-06-2007 14:24:37 32.7 C 7.36 g/m*3 32.7 C 0 km/h
792 08-06-2007 14:44:37 32.5 C 6.93 g/m*3 32.5 C 0 km/h
793 08-06-2007 15:04:37 32.7 C 7.01 g/m*3 32.7 C 0 km/h
794 08-06-2007 15:24:37 32.7 C 7.01 g/m*3 32.7 C 0 km/h
795 08-06-2007 15:44:37 32.7 C 7.01 g/m*3 32.7 C 0 km/h
796 08-06-2007 16:04:37 32.5 C 7.63 g/m*3 32.5 C 0 km/h
797 08-06-2007 16:24:37 33.8 C 7.43 g/m*3 33.8 C 0 km/h
798 08-06-2007 16:44:37 33.6 C 7.35 g/m*3 33.6 C 0 km/h
799 08-06-2007 17:04:37 34.5 C 7.7 g/m*3 34.5 C 0 km/h
800 08-06-2007 17:24:37 34.2 C 7.58 g/m*3 34.2 C 0 km/h
Sensor: Nr:Datum:Temp:Abs-Feuchte:Windchill:Wind:
Aussen-T/F 801 08-06-2007 17:44:38 33.8 C 7.43 g/m*3 33.8 C 0 km/h
802 08-06-2007 18:04:38 33.3 C 7.23 g/m*3 33.3 C 0 km/h
803 08-06-2007 18:24:38 32.6 C 8.36 g/m*3 32.6 C 0 km/h
804 08-06-2007 18:44:38 31.7 C 8.97 g/m*3 31.7 C 0 km/h
805 08-06-2007 19:04:38 30.9 C 9.87 g/m*3 30.9 C 0 km/h
806 08-06-2007 19:24:38 30.4 C 9.92 g/m*3 30.4 C 0 km/h
807 08-06-2007 19:44:38 30.1 C 10.06 g/m*3 30.1 C 0 km/h
808 08-06-2007 20:04:38 28.7 C 9.89 g/m*3 28.7 C 0 km/h
809 08-06-2007 20:24:38 28.2 C 9.62 g/m*3 28.2 C 0 km/h
810 08-06-2007 20:44:38 27.8 C 9.68 g/m*3 27.8 C 0 km/h
811 08-06-2007 21:04:38 27.7 C 9.63 g/m*3 27.7 C 0 km/h
812 08-06-2007 21:24:38 27.3 C 10.47 g/m*3 27.3 C 0 km/h
813 08-06-2007 21:44:38 26.6 C 11.08 g/m*3 26.6 C 0 km/h
814 08-06-2007 22:04:38 26.1 C 11.51 g/m*3 26.1 C 0 km/h
815 08-06-2007 22:24:38 25.9 C 12.1 g/m*3 25.9 C 0 km/h
816 08-06-2007 22:44:38 25.3 C 10.3 g/m*3 25.3 C 0 km/h
817 08-06-2007 23:04:38 25.1 C 10.65 g/m*3 25.1 C 0 km/h
818 08-06-2007 23:24:39 24.6 C 11.25 g/m*3 24.6 C 0 km/h
819 08-06-2007 23:44:39 24.4 C 11.79 g/m*3 24.4 C 0 km/h
820 09-06-2007 00:04:39 23.7 C 12.19 g/m*3 23.7 C 0 km/h
821 09-06-2007 00:24:39 23.4 C 12.2 g/m*3 23.4 C 0 km/h
822 09-06-2007 00:44:39 23 C 12.13 g/m*3 23 C 0 km/h
823 09-06-2007 01:04:39 22.4 C 12.31 g/m*3 22.4 C 0 km/h
824 09-06-2007 01:24:39 22.1 C 12.49 g/m*3 22.1 C 0 km/h
825 09-06-2007 01:44:39 21.8 C 12.66 g/m*3 21.8 C 0 km/h
Sensor: Nr:Datum:Temp:Abs-Feuchte:Windchill:Wind:
Aussen-T/F 826 09-06-2007 02:04:39 21.5 C 12.63 g/m*3 21.5 C 0 km/h
827 09-06-2007 02:24:39 21.2 C 12.6 g/m*3 21.2 C 0 km/h
828 09-06-2007 02:44:39 20.8 C 12.67 g/m*3 20.8 C 0 km/h
829 09-06-2007 03:04:39 20.7 C 12.78 g/m*3 20.7 C 0 km/h
830 09-06-2007 03:24:39 20.3 C 12.84 g/m*3 20.3 C 0 km/h
831 09-06-2007 03:44:39 20.1 C 12.69 g/m*3 20.1 C 0 km/h
832 09-06-2007 04:04:39 20.1 C 12.86 g/m*3 20.1 C 0 km/h
833 09-06-2007 04:24:39 19.9 C 12.89 g/m*3 19.9 C 0 km/h
834 09-06-2007 04:44:39 19.7 C 12.91 g/m*3 19.7 C 0 km/h
835 09-06-2007 05:04:39 19.5 C 12.92 g/m*3 19.5 C 0 km/h
836 09-06-2007 05:24:40 19.8 C 13.32 g/m*3 19.8 C 0 km/h
837 09-06-2007 05:44:40 20.1 C 13.04 g/m*3 20.1 C 0 km/h
838 09-06-2007 06:04:40 20.2 C 12.94 g/m*3 20.2 C 0 km/h
839 09-06-2007 06:24:40 20.4 C 12.91 g/m*3 20.4 C 0 km/h
840 09-06-2007 06:44:40 20.6 C 13.07 g/m*3 20.6 C 0 km/h
841 09-06-2007 07:04:40 21 C 13.01 g/m*3 21 C 0 km/h
842 09-06-2007 07:24:40 20.7 C 13.14 g/m*3 20.7 C 0 km/h
843 09-06-2007 07:44:40 20.5 C 13.17 g/m*3 20.5 C 0 km/h
844 09-06-2007 08:04:40 20.6 C 13.07 g/m*3 20.6 C 0 km/h
845 09-06-2007 08:24:40 21.1 C 13.08 g/m*3 21.1 C 0 km/h
846 09-06-2007 08:44:40 21.2 C 12.79 g/m*3 21.2 C 0 km/h
847 09-06-2007 09:04:40 21.2 C 12.97 g/m*3 21.2 C 0 km/h
848 09-06-2007 09:24:40 21.5 C 12.82 g/m*3 21.5 C 0 km/h
849 09-06-2007 09:44:40 21.9 C 12.74 g/m*3 21.9 C 0 km/h
850 09-06-2007 10:04:40 22.1 C 12.49 g/m*3 22.1 C 0 km/h
Sensor: Nr:Datum:Temp:Abs-Feuchte:Windchill:Wind:
Aussen-T/F 851 09-06-2007 10:24:40 23 C 12.33 g/m*3 23 C 0 km/h
852 09-06-2007 10:44:40 23.5 C 12.27 g/m*3 23.5 C 0 km/h
853 09-06-2007 11:04:41 22.9 C 12.67 g/m*3 22.9 C 0 km/h
854 09-06-2007 11:24:41 23.4 C 12.2 g/m*3 23.4 C 0 km/h
855 09-06-2007 11:44:41 23.7 C 12.41 g/m*3 23.7 C 0 km/h
856 09-06-2007 12:04:41 24.7 C 12.22 g/m*3 24.7 C 0 km/h
857 09-06-2007 12:24:41 25.4 C 12.01 g/m*3 25.4 C 0 km/h
858 09-06-2007 12:44:41 25.9 C 11.62 g/m*3 25.9 C 0 km/h
859 09-06-2007 13:04:41 27 C 11.32 g/m*3 27 C 0 km/h
860 09-06-2007 13:24:41 28.8 C 11.08 g/m*3 28.8 C 0 km/h
861 09-06-2007 13:44:41 28.4 C 11.12 g/m*3 28.4 C 0 km/h
862 09-06-2007 14:04:41 27.2 C 11.19 g/m*3 27.2 C 0 km/h
863 09-06-2007 14:24:41 26.9 C 11.77 g/m*3 26.9 C 0 km/h
864 09-06-2007 14:44:41 25.2 C 11.64 g/m*3 25.2 C 0 km/h
865 09-06-2007 15:04:41 24.5 C 11.86 g/m*3 24.5 C 0 km/h
866 09-06-2007 15:24:41 23.6 C 12.12 g/m*3 23.6 C 0 km/h
867 09-06-2007 15:44:41 23.2 C 11.85 g/m*3 23.2 C 0 km/h
868 09-06-2007 16:04:41 23.3 C 11.71 g/m*3 23.3 C 0 km/h
869 09-06-2007 16:24:41 23.8 C 11.62 g/m*3 23.8 C 0 km/h
870 09-06-2007 16:44:42 24.5 C 11.64 g/m*3 24.5 C 0 km/h
871 09-06-2007 17:04:42 24.5 C 11.19 g/m*3 24.5 C 0 km/h
872 09-06-2007 17:24:42 24.9 C 11.45 g/m*3 24.9 C 0 km/h
873 09-06-2007 17:44:42 26.8 C 11.2 g/m*3 26.8 C 0 km/h
874 09-06-2007 18:04:42 26.2 C 11.08 g/m*3 26.2 C 0 km/h
875 09-06-2007 18:24:42 28 C 10.88 g/m*3 28 C 0 km/h
Sensor: Nr:Datum:Temp:Abs-Feuchte:Windchill:Wind:
Aussen-T/F 876 09-06-2007 18:44:42 27.8 C 10.76 g/m*3 27.8 C 0 km/h
877 09-06-2007 19:04:42 29.9 C 10.56 g/m*3 29.9 C 0 km/h
878 09-06-2007 19:24:42 30.2 C 9.81 g/m*3 30.2 C 0 km/h
879 09-06-2007 19:44:42 29.7 C 10.44 g/m*3 29.7 C 0 km/h
880 09-06-2007 20:04:42 27.6 C 10.64 g/m*3 27.6 C 0 km/h
881 09-06-2007 20:24:42 25.6 C 11.19 g/m*3 25.6 C 0 km/h
882 09-06-2007 20:44:42 24.1 C 11.38 g/m*3 24.1 C 0 km/h
883 09-06-2007 21:04:42 22.3 C 11.26 g/m*3 22.3 C 0 km/h
884 09-06-2007 21:24:42 21.8 C 11.32 g/m*3 21.8 C 0 km/h
885 09-06-2007 21:44:42 21.6 C 11.19 g/m*3 21.6 C 0 km/h
886 09-06-2007 22:04:42 21.2 C 11.12 g/m*3 21.2 C 0 km/h
887 09-06-2007 22:24:43 20.8 C 11.23 g/m*3 20.8 C 0 km/h
888 09-06-2007 22:44:43 20.5 C 11.21 g/m*3 20.5 C 0 km/h
889 09-06-2007 23:04:43 20.3 C 11.26 g/m*3 20.3 C 0 km/h
890 09-06-2007 23:24:43 20.1 C 11.3 g/m*3 20.1 C 0 km/h
891 09-06-2007 23:44:43 19.4 C 11.35 g/m*3 19.4 C 0 km/h
892 10-06-2007 00:04:43 19.3 C 11.44 g/m*3 19.3 C 0 km/h
893 10-06-2007 00:24:43 18.9 C 11.5 g/m*3 18.9 C 0 km/h
894 10-06-2007 00:44:43 18.6 C 11.3 g/m*3 18.6 C 0 km/h
895 10-06-2007 01:04:43 18.3 C 11.41 g/m*3 18.3 C 0 km/h
896 10-06-2007 01:24:43 18.1 C 11.43 g/m*3 18.1 C 0 km/h
897 10-06-2007 01:44:43 17.8 C 11.69 g/m*3 17.8 C 0 km/h
898 10-06-2007 02:04:43 17.5 C 11.48 g/m*3 17.5 C 0 km/h
899 10-06-2007 02:24:43 17.5 C 11.48 g/m*3 17.5 C 0 km/h
900 10-06-2007 02:44:43 16.9 C 11.51 g/m*3 16.9 C 0 km/h
Sensor: Nr:Datum:Temp:Abs-Feuchte:Windchill:Wind:
Aussen-T/F 901 10-06-2007 03:04:43 16.8 C 11.44 g/m*3 16.8 C 0 km/h
902 10-06-2007 03:24:43 16.6 C 11.3 g/m*3 16.6 C 0 km/h
903 10-06-2007 03:44:43 16.4 C 11.31 g/m*3 16.4 C 0 km/h
904 10-06-2007 04:04:43 16.3 C 11.38 g/m*3 16.3 C 0 km/h
905 10-06-2007 04:24:44 16.1 C 11.38 g/m*3 16.1 C 0 km/h
906 10-06-2007 04:44:44 15.9 C 11.24 g/m*3 15.9 C 0 km/h
907 10-06-2007 05:04:44 15.8 C 11.17 g/m*3 15.8 C 0 km/h
908 10-06-2007 05:24:44 15.6 C 11.04 g/m*3 15.6 C 0 km/h
909 10-06-2007 05:44:44 15.6 C 11.04 g/m*3 15.6 C 0 km/h
910 10-06-2007 06:04:44 15.6 C 11.17 g/m*3 15.6 C 0 km/h
911 10-06-2007 06:24:44 16 C 11.31 g/m*3 16 C 0 km/h
912 10-06-2007 06:44:44 16.5 C 11.37 g/m*3 16.5 C 0 km/h
913 10-06-2007 07:04:44 17.1 C 11.5 g/m*3 17.1 C 0 km/h
914 10-06-2007 07:24:44 17.5 C 11.63 g/m*3 17.5 C 0 km/h
915 10-06-2007 07:44:44 17.9 C 11.76 g/m*3 17.9 C 0 km/h
916 10-06-2007 08:04:44 18 C 11.52 g/m*3 18 C 0 km/h
917 10-06-2007 08:24:44 18.4 C 11.64 g/m*3 18.4 C 0 km/h
918 10-06-2007 08:44:44 18.5 C 11.87 g/m*3 18.5 C 0 km/h
919 10-06-2007 09:04:44 18.9 C 11.83 g/m*3 18.9 C 0 km/h
920 10-06-2007 09:24:44 19.3 C 11.78 g/m*3 19.3 C 0 km/h
921 10-06-2007 09:44:44 19.8 C 11.61 g/m*3 19.8 C 0 km/h
922 10-06-2007 10:04:45 20.8 C 11.41 g/m*3 20.8 C 0 km/h
923 10-06-2007 10:24:45 22.5 C 11.58 g/m*3 22.5 C 0 km/h
924 10-06-2007 10:44:45 23.1 C 11.37 g/m*3 23.1 C 0 km/h
925 10-06-2007 11:04:45 23.6 C 11.27 g/m*3 23.6 C 0 km/h
Sensor: Nr:Datum:Temp:Abs-Feuchte:Windchill:Wind:
Aussen-T/F 926 10-06-2007 11:24:45 24 C 11.53 g/m*3 24 C 0 km/h
927 10-06-2007 11:44:45 25 C 11.05 g/m*3 25 C 0 km/h
928 10-06-2007 12:04:45 24.8 C 11.15 g/m*3 24.8 C 0 km/h
929 10-06-2007 12:24:45 27.2 C 10.67 g/m*3 27.2 C 0 km/h
930 10-06-2007 12:44:45 28.9 C 10.57 g/m*3 28.9 C 0 km/h
931 10-06-2007 13:04:45 30.3 C 10.48 g/m*3 30.3 C 0 km/h
932 10-06-2007 13:24:45 31.3 C 9.11 g/m*3 31.3 C 0 km/h
933 10-06-2007 13:44:45 29.2 C 9.87 g/m*3 29.2 C 0 km/h
934 10-06-2007 14:04:45 30 C 9.7 g/m*3 30 C 0 km/h
935 10-06-2007 14:24:45 28.5 C 10.62 g/m*3 28.5 C 0 km/h
936 10-06-2007 14:44:45 28 C 10.33 g/m*3 28 C 0 km/h
937 10-06-2007 15:04:45 27.6 C 10.64 g/m*3 27.6 C 0 km/h
938 10-06-2007 15:24:45 28.3 C 11.33 g/m*3 28.3 C 0 km/h
939 10-06-2007 15:44:46 28.2 C 11 g/m*3 28.2 C 0 km/h
940 10-06-2007 16:04:46 28.2 C 10.17 g/m*3 28.2 C 0 km/h
941 10-06-2007 16:24:46 30.5 C 10.28 g/m*3 30.5 C 0 km/h
942 10-06-2007 16:44:46 30.3 C 10.17 g/m*3 30.3 C 0 km/h
943 10-06-2007 17:04:46 30.6 C 10.34 g/m*3 30.6 C 0 km/h
944 10-06-2007 17:24:46 29.2 C 10.45 g/m*3 29.2 C 0 km/h
945 10-06-2007 17:44:46 28 C 10.61 g/m*3 28 C 0 km/h
946 10-06-2007 18:04:46 20.2 C 13.99 g/m*3 20.2 C 0 km/h
947 10-06-2007 18:24:46 20.4 C 15.39 g/m*3 20.4 C 0 km/h
948 10-06-2007 18:44:46 20.7 C 15.84 g/m*3 20.7 C 0 km/h
949 10-06-2007 19:04:46 21.3 C 16.4 g/m*3 21.3 C 0 km/h
950 10-06-2007 19:24:46 20.7 C 15.48 g/m*3 20.7 C 0 km/h
Sensor: Nr:Datum:Temp:Abs-Feuchte:Windchill:Wind:
Aussen-T/F 951 10-06-2007 19:44:46 20.1 C 14.78 g/m*3 20.1 C 0 km/h
952 10-06-2007 20:04:46 20.3 C 14.77 g/m*3 20.3 C 0 km/h
953 10-06-2007 20:24:46 20.2 C 14.69 g/m*3 20.2 C 0 km/h
954 10-06-2007 20:44:46 20.1 C 14.43 g/m*3 20.1 C 0 km/h
955 10-06-2007 21:04:46 19.7 C 13.75 g/m*3 19.7 C 0 km/h
956 10-06-2007 21:24:46 19.3 C 13.93 g/m*3 19.3 C 0 km/h
957 10-06-2007 21:44:47 19.2 C 13.85 g/m*3 19.2 C 0 km/h
958 10-06-2007 22:04:47 19 C 13.85 g/m*3 19 C 0 km/h
959 10-06-2007 22:24:47 18.8 C 14.01 g/m*3 18.8 C 0 km/h
960 10-06-2007 22:44:47 18.7 C 13.93 g/m*3 18.7 C 0 km/h
961 10-06-2007 23:04:47 18.5 C 13.77 g/m*3 18.5 C 0 km/h
962 10-06-2007 23:24:47 18.2 C 13.52 g/m*3 18.2 C 0 km/h
963 10-06-2007 23:44:47 17.8 C 13.2 g/m*3 17.8 C 0 km/h
964 11-06-2007 00:04:47 17.6 C 12.75 g/m*3 17.6 C 0 km/h
965 11-06-2007 00:24:47 17.5 C 12.37 g/m*3 17.5 C 0 km/h
966 11-06-2007 00:44:47 17.4 C 12.3 g/m*3 17.4 C 0 km/h
967 11-06-2007 01:04:47 17.5 C 12.37 g/m*3 17.5 C 0 km/h
968 11-06-2007 01:24:47 17.3 C 12.23 g/m*3 17.3 C 0 km/h
969 11-06-2007 01:44:47 16.8 C 12.01 g/m*3 16.8 C 0 km/h
970 11-06-2007 02:04:47 16.9 C 12.08 g/m*3 16.9 C 0 km/h
971 11-06-2007 02:24:47 16.8 C 12.01 g/m*3 16.8 C 0 km/h
972 11-06-2007 02:44:47 17 C 12.01 g/m*3 17 C 0 km/h
973 11-06-2007 03:04:47 16.7 C 11.8 g/m*3 16.7 C 0 km/h
974 11-06-2007 03:24:48 16.2 C 11.58 g/m*3 16.2 C 0 km/h
975 11-06-2007 03:44:48 16.1 C 11.51 g/m*3 16.1 C 0 km/h
Sensor: Nr:Datum:Temp:Abs-Feuchte:Windchill:Wind:
Aussen-T/F 976 11-06-2007 04:04:48 16 C 11.44 g/m*3 16 C 0 km/h
977 11-06-2007 04:24:48 15.8 C 11.58 g/m*3 15.8 C 0 km/h
978 11-06-2007 04:44:48 15.6 C 11.44 g/m*3 15.6 C 0 km/h
979 11-06-2007 05:04:48 15.3 C 11.23 g/m*3 15.3 C 0 km/h
980 11-06-2007 05:24:48 15.2 C 11.29 g/m*3 15.2 C 0 km/h
981 11-06-2007 05:44:48 15 C 11.16 g/m*3 15 C 0 km/h
982 11-06-2007 06:04:48 15.2 C 11.29 g/m*3 15.2 C 0 km/h
983 11-06-2007 06:24:48 15.4 C 11.43 g/m*3 15.4 C 0 km/h
984 11-06-2007 06:44:48 15.6 C 11.57 g/m*3 15.6 C 0 km/h
985 11-06-2007 07:04:48 15.2 C 11.42 g/m*3 15.2 C 0 km/h
986 11-06-2007 07:24:48 15.9 C 11.92 g/m*3 15.9 C 0 km/h
987 11-06-2007 07:44:48 16.5 C 12.08 g/m*3 16.5 C 0 km/h
988 11-06-2007 08:04:48 17.6 C 12.3 g/m*3 17.6 C 0 km/h
989 11-06-2007 08:24:48 18.1 C 11.43 g/m*3 18.1 C 0 km/h
990 11-06-2007 08:44:48 18.1 C 11.74 g/m*3 18.1 C 0 km/h
991 11-06-2007 09:04:49 18.7 C 11.85 g/m*3 18.7 C 0 km/h
992 11-06-2007 09:24:49 18.4 C 11.64 g/m*3 18.4 C 0 km/h
993 11-06-2007 09:44:49 19.4 C 12.18 g/m*3 19.4 C 0 km/h
994 11-06-2007 10:04:49 20.3 C 12.14 g/m*3 20.3 C 0 km/h
995 11-06-2007 10:24:49 20.4 C 12.21 g/m*3 20.4 C 0 km/h
996 11-06-2007 10:44:49 19.8 C 12.64 g/m*3 19.8 C 0 km/h
997 11-06-2007 11:04:57 19.3 C 13.1 g/m*3 19.3 C 0 km/h
998 11-06-2007 11:24:57 20 C 13.65 g/m*3 20 C 0 km/h
999 11-06-2007 11:44:02 21 C 13.37 g/m*3 21 C 0 km/h
1000 11-06-2007 12:04:02 23.3 C 11.92 g/m*3 23.3 C 0 km/h
Sensor: Nr:Datum:Temp:Abs-Feuchte:Windchill:Wind:
Aussen-T/F 1001 11-06-2007 12:24:02 24.5 C 11.86 g/m*3 24.5 C 0 km/h
1002 11-06-2007 12:44:02 24.2 C 12.54 g/m*3 24.2 C 0 km/h
1003 11-06-2007 13:04:02 22.9 C 12.47 g/m*3 22.9 C 0 km/h
1004 11-06-2007 13:24:01 22.6 C 12.86 g/m*3 22.6 C 0 km/h
1005 11-06-2007 13:44:02 22.1 C 12.88 g/m*3 22.1 C 0 km/h
1006 11-06-2007 14:04:02 22 C 13.39 g/m*3 22 C 0 km/h
1007 11-06-2007 14:24:02 22.1 C 13.27 g/m*3 22.1 C 0 km/h
1008 11-06-2007 14:44:03 22.7 C 12.53 g/m*3 22.7 C 0 km/h
1009 11-06-2007 15:04:02 25 C 11.28 g/m*3 25 C 0 km/h
1010 11-06-2007 15:24:02 26.9 C 11.52 g/m*3 26.9 C 0 km/h
1011 11-06-2007 15:44:02 29.4 C 9.1 g/m*3 29.4 C 0 km/h
1012 11-06-2007 16:10:02 28.8 C 9.66 g/m*3 28.8 C 0 km/h
1013 11-06-2007 16:22:02 28.6 C 9.55 g/m*3 28.6 C 0 km/h
1014 11-06-2007 16:34:03 28.5 C 9.5 g/m*3 28.5 C 0 km/h
1015 11-06-2007 16:46:02 28.4 C 9.17 g/m*3 28.4 C 0 km/h
1016 11-06-2007 16:58:02 27.7 C 9.9 g/m*3 27.7 C 0 km/h
1017 11-06-2007 17:10:02 27.3 C 10.47 g/m*3 27.3 C 0 km/h
1018 11-06-2007 17:22:02 27 C 11.07 g/m*3 27 C 0 km/h
1019 11-06-2007 17:34:02 26.6 C 11.33 g/m*3 26.6 C 0 km/h
1020 11-06-2007 17:46:02 27 C 11.07 g/m*3 27 C 0 km/h
1021 11-06-2007 17:58:02 28.5 C 9.78 g/m*3 28.5 C 0 km/h
1022 11-06-2007 18:10:02 29.3 C 9.63 g/m*3 29.3 C 0 km/h
1023 11-06-2007 18:22:01 30.1 C 9.45 g/m*3 30.1 C 0 km/h
1024 11-06-2007 18:34:02 30.4 C 8.99 g/m*3 30.4 C 0 km/h
1025 11-06-2007 18:46:02 30.1 C 9.15 g/m*3 30.1 C 0 km/h
Sensor: Nr:Datum:Temp:Abs-Feuchte:Windchill:Wind:
Aussen-T/F 1026 11-06-2007 18:58:02 29.9 C 9.05 g/m*3 29.9 C 0 km/h
1027 11-06-2007 19:10:02 29.8 C 9 g/m*3 29.8 C 0 km/h
1028 11-06-2007 19:22:01 29.3 C 9.34 g/m*3 29.3 C 0 km/h
1029 11-06-2007 19:34:03 28 C 10.61 g/m*3 28 C 0 km/h
1030 11-06-2007 19:46:02 27.1 C 10.87 g/m*3 27.1 C 0 km/h
1031 11-06-2007 19:58:02 25.7 C 11.25 g/m*3 25.7 C 0 km/h
1032 11-06-2007 20:10:03 26.3 C 11.14 g/m*3 26.3 C 0 km/h
1033 11-06-2007 20:22:02 26.9 C 11.26 g/m*3 26.9 C 0 km/h
1034 11-06-2007 20:34:03 25.6 C 11.43 g/m*3 25.6 C 0 km/h
1035 11-06-2007 20:46:02 24.3 C 11.06 g/m*3 24.3 C 0 km/h
1036 11-06-2007 20:58:02 24.2 C 11 g/m*3 24.2 C 0 km/h
1037 11-06-2007 21:10:02 23.7 C 10.69 g/m*3 23.7 C 0 km/h
1038 11-06-2007 21:22:02 23.3 C 10.45 g/m*3 23.3 C 0 km/h
1039 11-06-2007 21:34:02 23 C 10.48 g/m*3 23 C 0 km/h
1040 11-06-2007 21:46:02 22.5 C 10.59 g/m*3 22.5 C 0 km/h
1041 11-06-2007 21:58:02 21.8 C 10.55 g/m*3 21.8 C 0 km/h
1042 11-06-2007 22:10:02 21.5 C 10.18 g/m*3 21.5 C 0 km/h
1043 11-06-2007 22:22:03 21.3 C 10.44 g/m*3 21.3 C 0 km/h
1044 11-06-2007 22:34:02 21.2 C 10.38 g/m*3 21.2 C 0 km/h
1045 11-06-2007 22:46:02 20.9 C 10.56 g/m*3 20.9 C 0 km/h
1046 11-06-2007 22:58:02 20.7 C 10.8 g/m*3 20.7 C 0 km/h
1047 11-06-2007 23:10:02 20.4 C 10.61 g/m*3 20.4 C 0 km/h
1048 11-06-2007 23:22:02 20.2 C 10.84 g/m*3 20.2 C 0 km/h
1049 11-06-2007 23:34:02 20.1 C 11.13 g/m*3 20.1 C 0 km/h
1050 11-06-2007 23:46:01 20 C 11.06 g/m*3 20 C 0 km/h
Sensor: Nr:Datum:Temp:Abs-Feuchte:Windchill:Wind:
Aussen-T/F 1051 11-06-2007 23:58:01 20.2 C 11.02 g/m*3 20.2 C 0 km/h
1052 12-06-2007 00:10:03 20.1 C 10.95 g/m*3 20.1 C 0 km/h
1053 12-06-2007 00:22:02 20 C 10.89 g/m*3 20 C 0 km/h
1054 12-06-2007 00:34:02 19.8 C 11.1 g/m*3 19.8 C 0 km/h
1055 12-06-2007 00:46:03 19.8 C 11.27 g/m*3 19.8 C 0 km/h
1056 12-06-2007 00:58:03 19.5 C 11.24 g/m*3 19.5 C 0 km/h
1057 12-06-2007 01:10:03 19.3 C 11.28 g/m*3 19.3 C 0 km/h
1058 12-06-2007 01:22:03 19.2 C 11.38 g/m*3 19.2 C 0 km/h
1059 12-06-2007 01:34:03 18.9 C 11.34 g/m*3 18.9 C 0 km/h
1060 12-06-2007 01:46:02 18.7 C 11.37 g/m*3 18.7 C 0 km/h
1061 12-06-2007 01:58:02 18.5 C 11.39 g/m*3 18.5 C 0 km/h
1062 12-06-2007 02:10:02 18.2 C 11.35 g/m*3 18.2 C 0 km/h
1063 12-06-2007 02:22:03 18.1 C 11.28 g/m*3 18.1 C 0 km/h
1064 12-06-2007 02:34:02 18 C 11.37 g/m*3 18 C 0 km/h
1065 12-06-2007 02:47:04 17.8 C 11.54 g/m*3 17.8 C 0 km/h
1066 12-06-2007 02:59:04 17.8 C 11.38 g/m*3 17.8 C 0 km/h
1067 12-06-2007 03:11:04 17.7 C 11.47 g/m*3 17.7 C 0 km/h
1068 12-06-2007 03:23:04 17.7 C 11.47 g/m*3 17.7 C 0 km/h
1069 12-06-2007 03:35:03 17.6 C 11.55 g/m*3 17.6 C 0 km/h
1070 12-06-2007 03:47:03 17.2 C 11.42 g/m*3 17.2 C 0 km/h
1071 12-06-2007 03:59:03 17 C 11.29 g/m*3 17 C 0 km/h
1072 12-06-2007 04:11:02 16.9 C 11.51 g/m*3 16.9 C 0 km/h
1073 12-06-2007 04:23:02 16.7 C 11.37 g/m*3 16.7 C 0 km/h
1074 12-06-2007 04:35:02 16.6 C 11.44 g/m*3 16.6 C 0 km/h
1075 12-06-2007 04:47:02 16.6 C 11.44 g/m*3 16.6 C 0 km/h
Sensor: Nr:Datum:Temp:Abs-Feuchte:Windchill:Wind:
Aussen-T/F 1076 12-06-2007 04:59:03 16.4 C 11.45 g/m*3 16.4 C 0 km/h
1077 12-06-2007 05:11:02 16.2 C 11.31 g/m*3 16.2 C 0 km/h
1078 12-06-2007 05:23:03 16.1 C 11.38 g/m*3 16.1 C 0 km/h
1079 12-06-2007 05:35:02 16.1 C 11.38 g/m*3 16.1 C 0 km/h
1080 12-06-2007 05:47:01 16.1 C 11.38 g/m*3 16.1 C 0 km/h
1081 12-06-2007 05:59:01 16.2 C 11.31 g/m*3 16.2 C 0 km/h
1082 12-06-2007 06:11:02 16.2 C 11.17 g/m*3 16.2 C 0 km/h
1083 12-06-2007 06:23:02 16.4 C 11.31 g/m*3 16.4 C 0 km/h
1084 12-06-2007 06:35:01 16.6 C 11.3 g/m*3 16.6 C 0 km/h
1085 12-06-2007 06:47:02 16.7 C 11.23 g/m*3 16.7 C 0 km/h
1086 12-06-2007 06:59:02 17.2 C 11.28 g/m*3 17.2 C 0 km/h
1087 12-06-2007 07:11:02 18 C 11.37 g/m*3 18 C 0 km/h
1088 12-06-2007 07:23:01 18 C 11.21 g/m*3 18 C 0 km/h
1089 12-06-2007 07:35:02 18.2 C 11.19 g/m*3 18.2 C 0 km/h
1090 12-06-2007 07:47:01 18 C 11.21 g/m*3 18 C 0 km/h
1091 12-06-2007 07:59:01 18.2 C 11.5 g/m*3 18.2 C 0 km/h
1092 12-06-2007 08:11:02 18.4 C 11.64 g/m*3 18.4 C 0 km/h
1093 12-06-2007 08:23:01 18.7 C 11.69 g/m*3 18.7 C 0 km/h
1094 12-06-2007 08:35:01 18.7 C 11.53 g/m*3 18.7 C 0 km/h
1095 12-06-2007 08:47:03 19.3 C 11.44 g/m*3 19.3 C 0 km/h
1096 12-06-2007 08:59:03 19.5 C 11.58 g/m*3 19.5 C 0 km/h
1097 12-06-2007 09:11:02 19.9 C 11.68 g/m*3 19.9 C 0 km/h
1098 12-06-2007 09:23:02 19.8 C 11.61 g/m*3 19.8 C 0 km/h
1099 12-06-2007 09:35:02 19.7 C 11.72 g/m*3 19.7 C 0 km/h
1100 12-06-2007 09:47:02 20 C 11.58 g/m*3 20 C 0 km/h
Sensor: Nr:Datum:Temp:Abs-Feuchte:Windchill:Wind:
Aussen-T/F 1101 12-06-2007 09:59:03 20.7 C 11.7 g/m*3 20.7 C 0 km/h
1102 12-06-2007 10:11:02 20.9 C 11.84 g/m*3 20.9 C 0 km/h
1103 12-06-2007 10:23:02 20.9 C 12.02 g/m*3 20.9 C 0 km/h
1104 12-06-2007 10:35:02 20.7 C 11.88 g/m*3 20.7 C 0 km/h
1105 12-06-2007 10:47:01 20.9 C 12.2 g/m*3 20.9 C 0 km/h
1106 12-06-2007 10:59:01 21.3 C 11.93 g/m*3 21.3 C 0 km/h
1107 12-06-2007 11:11:02 21.7 C 12.02 g/m*3 21.7 C 0 km/h
1108 12-06-2007 11:23:01 21.8 C 12.09 g/m*3 21.8 C 0 km/h
1109 12-06-2007 11:35:02 21.8 C 12.09 g/m*3 21.8 C 0 km/h
1110 12-06-2007 11:47:02 22.6 C 12.05 g/m*3 22.6 C 0 km/h
1111 12-06-2007 11:59:02 22.8 C 11.79 g/m*3 22.8 C 0 km/h
1112 12-06-2007 12:11:02 22.5 C 11.98 g/m*3 22.5 C 0 km/h
1113 12-06-2007 12:23:01 22.3 C 11.85 g/m*3 22.3 C 0 km/h
1114 12-06-2007 12:35:02 22.6 C 11.85 g/m*3 22.6 C 0 km/h
1115 12-06-2007 12:47:01 23.4 C 11.78 g/m*3 23.4 C 0 km/h
1116 12-06-2007 12:59:01 24.1 C 11.6 g/m*3 24.1 C 0 km/h
1117 12-06-2007 13:11:02 25.9 C 11.62 g/m*3 25.9 C 0 km/h
1118 12-06-2007 13:23:02 27.5 C 10.85 g/m*3 27.5 C 0 km/h
1119 12-06-2007 13:35:01 26.3 C 10.64 g/m*3 26.3 C 0 km/h
1120 12-06-2007 13:47:02 26.9 C 11.01 g/m*3 26.9 C 0 km/h
1121 12-06-2007 13:59:02 25.1 C 11.11 g/m*3 25.1 C 0 km/h
1122 12-06-2007 14:11:02 25.1 C 10.88 g/m*3 25.1 C 0 km/h
1123 12-06-2007 14:23:03 24.6 C 11.48 g/m*3 24.6 C 0 km/h
1124 12-06-2007 14:35:02 26.5 C 11.51 g/m*3 26.5 C 0 km/h
1125 12-06-2007 14:47:03 27.5 C 10.58 g/m*3 27.5 C 0 km/h
Sensor: Nr:Datum:Temp:Abs-Feuchte:Windchill:Wind:
Aussen-T/F 1126 12-06-2007 14:59:03 27.4 C 10.79 g/m*3 27.4 C 0 km/h
1127 12-06-2007 15:11:03 28.2 C 11 g/m*3 28.2 C 0 km/h
1128 12-06-2007 15:23:02 27.1 C 11.13 g/m*3 27.1 C 0 km/h
1129 12-06-2007 15:35:02 25.1 C 11.11 g/m*3 25.1 C 0 km/h
1130 12-06-2007 15:47:02 22 C 12.62 g/m*3 22 C 0 km/h
1131 12-06-2007 15:59:02 20.2 C 13.46 g/m*3 20.2 C 0 km/h
1132 12-06-2007 16:11:03 20.4 C 14.51 g/m*3 20.4 C 0 km/h
1133 12-06-2007 16:23:03 20 C 14 g/m*3 20 C 0 km/h
1134 12-06-2007 16:35:03 20.2 C 13.46 g/m*3 20.2 C 0 km/h
1135 12-06-2007 16:47:02 20.4 C 13.98 g/m*3 20.4 C 0 km/h
1136 12-06-2007 16:59:02 19.8 C 14.01 g/m*3 19.8 C 0 km/h
1137 12-06-2007 17:11:02 20.4 C 14.86 g/m*3 20.4 C 0 km/h
1138 12-06-2007 17:23:03 21.1 C 15.48 g/m*3 21.1 C 0 km/h
1139 12-06-2007 17:35:02 21 C 14.84 g/m*3 21 C 0 km/h
1140 12-06-2007 17:47:01 21.1 C 14.74 g/m*3 21.1 C 0 km/h
1141 12-06-2007 17:59:01 22 C 14.17 g/m*3 22 C 0 km/h
1142 12-06-2007 18:11:02 21.6 C 12.33 g/m*3 21.6 C 0 km/h
1143 12-06-2007 18:23:02 21.1 C 11.61 g/m*3 21.1 C 0 km/h
1144 12-06-2007 18:35:02 21.3 C 12.12 g/m*3 21.3 C 0 km/h
1145 12-06-2007 18:47:02 21.6 C 12.33 g/m*3 21.6 C 0 km/h
1146 12-06-2007 18:59:03 21.9 C 11.77 g/m*3 21.9 C 0 km/h
1147 12-06-2007 19:11:02 21.5 C 11.5 g/m*3 21.5 C 0 km/h
1148 12-06-2007 19:23:02 21.5 C 11.31 g/m*3 21.5 C 0 km/h
1149 12-06-2007 19:35:02 21.9 C 11.19 g/m*3 21.9 C 0 km/h
1150 12-06-2007 19:47:03 22.4 C 11.32 g/m*3 22.4 C 0 km/h
Sensor: Nr:Datum:Temp:Abs-Feuchte:Windchill:Wind:
Aussen-T/F 1151 12-06-2007 19:59:03 22.2 C 10.6 g/m*3 22.2 C 0 km/h
1152 12-06-2007 20:11:03 22 C 10.67 g/m*3 22 C 0 km/h
1153 12-06-2007 20:23:02 21.3 C 10.62 g/m*3 21.3 C 0 km/h
1154 12-06-2007 20:35:03 20.8 C 10.5 g/m*3 20.8 C 0 km/h
1155 12-06-2007 20:47:02 20.7 C 10.8 g/m*3 20.7 C 0 km/h
1156 12-06-2007 20:59:02 20.3 C 10.55 g/m*3 20.3 C 0 km/h
1157 12-06-2007 21:11:02 19.9 C 10.48 g/m*3 19.9 C 0 km/h
1158 12-06-2007 21:23:02 19.8 C 10.59 g/m*3 19.8 C 0 km/h
1159 12-06-2007 21:35:02 19.7 C 10.87 g/m*3 19.7 C 0 km/h
1160 12-06-2007 21:47:02 19.6 C 10.97 g/m*3 19.6 C 0 km/h
1161 12-06-2007 21:59:02 19.5 C 11.08 g/m*3 19.5 C 0 km/h
1162 12-06-2007 22:11:01 19.1 C 11.15 g/m*3 19.1 C 0 km/h
1163 12-06-2007 22:23:02 18.6 C 10.98 g/m*3 18.6 C 0 km/h
1164 12-06-2007 22:35:02 18.1 C 10.97 g/m*3 18.1 C 0 km/h
1165 12-06-2007 22:47:02 17.8 C 11.08 g/m*3 17.8 C 0 km/h
1166 12-06-2007 22:59:02 17.5 C 11.18 g/m*3 17.5 C 0 km/h
1167 12-06-2007 23:11:02 17.2 C 11.13 g/m*3 17.2 C 0 km/h
1168 12-06-2007 23:23:02 17 C 11.14 g/m*3 17 C 0 km/h
1169 12-06-2007 23:35:03 16.7 C 11.08 g/m*3 16.7 C 0 km/h
1170 12-06-2007 23:47:02 16.6 C 11.16 g/m*3 16.6 C 0 km/h
1171 12-06-2007 23:59:02 16.3 C 10.96 g/m*3 16.3 C 0 km/h
1172 13-06-2007 00:11:02 16.1 C 10.97 g/m*3 16.1 C 0 km/h
1173 13-06-2007 00:23:03 15.9 C 10.97 g/m*3 15.9 C 0 km/h
1174 13-06-2007 00:35:03 15.9 C 10.97 g/m*3 15.9 C 0 km/h
1175 13-06-2007 00:47:02 15.7 C 10.84 g/m*3 15.7 C 0 km/h
Sensor: Nr:Datum:Temp:Abs-Feuchte:Windchill:Wind:
Aussen-T/F 1176 13-06-2007 00:59:02 15.8 C 11.17 g/m*3 15.8 C 0 km/h
1177 13-06-2007 01:11:02 15.5 C 10.97 g/m*3 15.5 C 0 km/h
1178 13-06-2007 01:23:02 15.4 C 10.9 g/m*3 15.4 C 0 km/h
1179 13-06-2007 01:35:01 15.4 C 11.04 g/m*3 15.4 C 0 km/h
1180 13-06-2007 01:47:02 15.4 C 11.17 g/m*3 15.4 C 0 km/h
1181 13-06-2007 01:59:02 15.4 C 11.17 g/m*3 15.4 C 0 km/h
1182 13-06-2007 02:11:02 15.6 C 11.17 g/m*3 15.6 C 0 km/h
1183 13-06-2007 02:23:02 15.6 C 11.3 g/m*3 15.6 C 0 km/h
1184 13-06-2007 02:35:02 15.6 C 11.44 g/m*3 15.6 C 0 km/h
1185 13-06-2007 02:48:03 15.5 C 11.37 g/m*3 15.5 C 0 km/h
1186 13-06-2007 03:00:03 15.4 C 11.17 g/m*3 15.4 C 0 km/h
1187 13-06-2007 03:12:03 15.2 C 11.03 g/m*3 15.2 C 0 km/h
1188 13-06-2007 03:24:03 14.9 C 11.09 g/m*3 14.9 C 0 km/h
1189 13-06-2007 03:36:03 14.8 C 11.15 g/m*3 14.8 C 0 km/h
1190 13-06-2007 03:48:03 14.8 C 11.27 g/m*3 14.8 C 0 km/h
1191 13-06-2007 04:00:03 14.6 C 11.14 g/m*3 14.6 C 0 km/h
1192 13-06-2007 04:12:02 14.5 C 11.07 g/m*3 14.5 C 0 km/h
1193 13-06-2007 04:24:02 14.3 C 10.93 g/m*3 14.3 C 0 km/h
1194 13-06-2007 04:36:02 14.2 C 10.87 g/m*3 14.2 C 0 km/h
1195 13-06-2007 04:48:02 14 C 10.74 g/m*3 14 C 0 km/h
1196 13-06-2007 05:00:02 14 C 10.74 g/m*3 14 C 0 km/h
1197 13-06-2007 05:12:02 13.9 C 10.79 g/m*3 13.9 C 0 km/h
1198 13-06-2007 05:24:02 13.8 C 10.72 g/m*3 13.8 C 0 km/h
1199 13-06-2007 05:36:02 13.9 C 10.79 g/m*3 13.9 C 0 km/h
1200 13-06-2007 05:48:01 14.1 C 10.92 g/m*3 14.1 C 0 km/h
Sensor: Nr:Datum:Temp:Abs-Feuchte:Windchill:Wind:
Aussen-T/F 1201 13-06-2007 06:00:01 14.1 C 10.92 g/m*3 14.1 C 0 km/h
1202 13-06-2007 06:12:02 14.3 C 11.06 g/m*3 14.3 C 0 km/h
1203 13-06-2007 06:24:02 14.4 C 11 g/m*3 14.4 C 0 km/h
1204 13-06-2007 06:36:01 14.5 C 11.07 g/m*3 14.5 C 0 km/h
1205 13-06-2007 06:48:02 14.9 C 11.34 g/m*3 14.9 C 0 km/h
1206 13-06-2007 07:00:02 15.1 C 11.22 g/m*3 15.1 C 0 km/h
1207 13-06-2007 07:12:01 15.4 C 11.3 g/m*3 15.4 C 0 km/h
1208 13-06-2007 07:24:01 16 C 11.04 g/m*3 16 C 0 km/h
1209 13-06-2007 07:36:02 16.4 C 11.17 g/m*3 16.4 C 0 km/h
1210 13-06-2007 07:48:02 16.8 C 11.15 g/m*3 16.8 C 0 km/h
1211 13-06-2007 08:00:02 17 C 11 g/m*3 17 C 0 km/h
1212 13-06-2007 08:12:02 17.1 C 10.77 g/m*3 17.1 C 0 km/h
1213 13-06-2007 08:24:02 17.5 C 11.03 g/m*3 17.5 C 0 km/h
1214 13-06-2007 08:36:02 17.9 C 10.99 g/m*3 17.9 C 0 km/h
1215 13-06-2007 08:48:02 18 C 10.91 g/m*3 18 C 0 km/h
1216 13-06-2007 09:00:02 17.8 C 11.08 g/m*3 17.8 C 0 km/h
1217 13-06-2007 09:12:01 18 C 10.91 g/m*3 18 C 0 km/h
1218 13-06-2007 09:24:02 18.3 C 10.79 g/m*3 18.3 C 0 km/h
1219 13-06-2007 09:36:02 18.9 C 11.02 g/m*3 18.9 C 0 km/h
1220 13-06-2007 09:48:02 19.1 C 10.49 g/m*3 19.1 C 0 km/h
1221 13-06-2007 10:00:02 19.4 C 10.34 g/m*3 19.4 C 0 km/h
1222 13-06-2007 10:12:02 20 C 10.54 g/m*3 20 C 0 km/h
1223 13-06-2007 10:24:02 20.2 C 10.32 g/m*3 20.2 C 0 km/h
1224 13-06-2007 10:36:02 20.6 C 10.2 g/m*3 20.6 C 0 km/h
1225 13-06-2007 10:48:02 21.1 C 9.77 g/m*3 21.1 C 0 km/h
Sensor: Nr:Datum:Temp:Abs-Feuchte:Windchill:Wind:
Aussen-T/F 1226 13-06-2007 11:00:02 21.9 C 10.23 g/m*3 21.9 C 0 km/h
1227 13-06-2007 11:12:02 22.1 C 9.56 g/m*3 22.1 C 0 km/h
1228 13-06-2007 11:24:01 22.5 C 9.79 g/m*3 22.5 C 0 km/h
1229 13-06-2007 11:36:02 23 C 9.66 g/m*3 23 C 0 km/h
1230 13-06-2007 11:48:02 23.3 C 8.78 g/m*3 23.3 C 0 km/h
1231 13-06-2007 12:00:02 23.8 C 8.82 g/m*3 23.8 C 0 km/h
1232 13-06-2007 12:12:02 24.6 C 8.55 g/m*3 24.6 C 0 km/h
1233 13-06-2007 12:24:01 25 C 8.06 g/m*3 25 C 0 km/h
1234 13-06-2007 12:36:02 25.8 C 8.43 g/m*3 25.8 C 0 km/h
1235 13-06-2007 12:48:02 25.4 C 8 g/m*3 25.4 C 0 km/h
1236 13-06-2007 13:00:02 25.2 C 7.45 g/m*3 25.2 C 0 km/h
1237 13-06-2007 13:12:03 26.8 C 7.64 g/m*3 26.8 C 0 km/h
1238 13-06-2007 13:24:02 27.6 C 7.71 g/m*3 27.6 C 0 km/h
1239 13-06-2007 13:36:02 28.1 C 7.93 g/m*3 28.1 C 0 km/h
1240 13-06-2007 13:48:02 26.5 C 7.76 g/m*3 26.5 C 0 km/h
1241 13-06-2007 14:00:02 26.6 C 7.05 g/m*3 26.6 C 0 km/h
1242 13-06-2007 14:12:02 26.5 C 7.76 g/m*3 26.5 C 0 km/h
1243 13-06-2007 14:24:04 26.5 C 8.01 g/m*3 26.5 C 0 km/h
1244 13-06-2007 14:36:03 26.7 C 7.09 g/m*3 26.7 C 0 km/h
1245 13-06-2007 14:48:03 27.6 C 7.45 g/m*3 27.6 C 0 km/h
1246 13-06-2007 15:00:03 27.5 C 6.61 g/m*3 27.5 C 0 km/h
1247 13-06-2007 15:12:03 28.2 C 7.15 g/m*3 28.2 C 0 km/h
1248 13-06-2007 15:24:02 28.6 C 6.74 g/m*3 28.6 C 0 km/h
1249 13-06-2007 15:36:02 28.5 C 6.99 g/m*3 28.5 C 0 km/h
1250 13-06-2007 15:48:03 28.5 C 6.71 g/m*3 28.5 C 0 km/h
Sensor: Nr:Datum:Temp:Abs-Feuchte:Windchill:Wind:
Aussen-T/F 1251 13-06-2007 16:00:03 27.5 C 7.41 g/m*3 27.5 C 0 km/h
1252 13-06-2007 16:12:02 28.6 C 7.31 g/m*3 28.6 C 0 km/h
1253 13-06-2007 16:24:02 28.7 C 7.63 g/m*3 28.7 C 0 km/h
1254 13-06-2007 16:36:03 28.6 C 7.31 g/m*3 28.6 C 0 km/h
1255 13-06-2007 16:48:02 28.8 C 7.39 g/m*3 28.8 C 0 km/h
1256 13-06-2007 17:00:02 29.5 C 7.38 g/m*3 29.5 C 0 km/h
1257 13-06-2007 17:12:03 29.7 C 7.16 g/m*3 29.7 C 0 km/h
1258 13-06-2007 17:24:02 29 C 7.18 g/m*3 29 C 0 km/h
1259 13-06-2007 17:36:02 27.8 C 7.26 g/m*3 27.8 C 0 km/h
1260 13-06-2007 17:48:02 28.4 C 7.23 g/m*3 28.4 C 0 km/h
1261 13-06-2007 18:00:02 28.9 C 7.14 g/m*3 28.9 C 0 km/h
1262 13-06-2007 18:12:02 28.9 C 7.14 g/m*3 28.9 C 0 km/h
1263 13-06-2007 18:24:03 29.4 C 7.34 g/m*3 29.4 C 0 km/h
1264 13-06-2007 18:36:03 29.5 C 7.08 g/m*3 29.5 C 0 km/h
1265 13-06-2007 18:48:02 29.1 C 6.64 g/m*3 29.1 C 0 km/h
1266 13-06-2007 19:00:02 28.3 C 6.91 g/m*3 28.3 C 0 km/h
1267 13-06-2007 19:12:03 28.5 C 6.99 g/m*3 28.5 C 0 km/h
1268 13-06-2007 19:24:03 28.1 C 7.11 g/m*3 28.1 C 0 km/h
1269 13-06-2007 19:36:03 27.9 C 7.03 g/m*3 27.9 C 0 km/h
1270 13-06-2007 19:48:02 27.7 C 6.95 g/m*3 27.7 C 0 km/h
1271 13-06-2007 20:00:02 27.8 C 7.26 g/m*3 27.8 C 0 km/h
1272 13-06-2007 20:12:03 27.9 C 7.84 g/m*3 27.9 C 0 km/h
1273 13-06-2007 20:24:02 28 C 7.89 g/m*3 28 C 0 km/h
1274 13-06-2007 20:36:02 27.7 C 8.02 g/m*3 27.7 C 0 km/h
1275 13-06-2007 20:48:02 27.2 C 8.33 g/m*3 27.2 C 0 km/h
Sensor: Nr:Datum:Temp:Abs-Feuchte:Windchill:Wind:
Aussen-T/F 1276 13-06-2007 21:00:02 26.2 C 8.12 g/m*3 26.2 C 0 km/h
1277 13-06-2007 21:12:01 24.7 C 8.15 g/m*3 24.7 C 0 km/h
1278 13-06-2007 21:24:01 24.1 C 8.1 g/m*3 24.1 C 0 km/h
1279 13-06-2007 21:36:02 23.4 C 8.62 g/m*3 23.4 C 0 km/h
1280 13-06-2007 21:48:02 23 C 8.63 g/m*3 23 C 0 km/h
1281 13-06-2007 22:00:02 22.5 C 8.59 g/m*3 22.5 C 0 km/h
1282 13-06-2007 22:12:03 22 C 8.73 g/m*3 22 C 0 km/h
1283 13-06-2007 22:24:02 21.8 C 9.21 g/m*3 21.8 C 0 km/h
1284 13-06-2007 22:36:02 21.7 C 9.54 g/m*3 21.7 C 0 km/h
1285 13-06-2007 22:48:02 21.3 C 9.13 g/m*3 21.3 C 0 km/h
1286 13-06-2007 23:00:02 21 C 9.16 g/m*3 21 C 0 km/h
1287 13-06-2007 23:12:02 20.8 C 9.42 g/m*3 20.8 C 0 km/h
1288 13-06-2007 23:24:03 20.6 C 9.49 g/m*3 20.6 C 0 km/h
1289 13-06-2007 23:36:02 20.4 C 9.38 g/m*3 20.4 C 0 km/h
1290 13-06-2007 23:48:02 20.1 C 9.39 g/m*3 20.1 C 0 km/h
1291 14-06-2007 00:00:02 19.8 C 9.57 g/m*3 19.8 C 0 km/h
1292 14-06-2007 00:12:02 19.6 C 9.62 g/m*3 19.6 C 0 km/h
1293 14-06-2007 00:24:03 19.4 C 9.51 g/m*3 19.4 C 0 km/h
1294 14-06-2007 00:36:02 19.2 C 9.56 g/m*3 19.2 C 0 km/h
1295 14-06-2007 00:48:02 19 C 9.45 g/m*3 19 C 0 km/h
1296 14-06-2007 01:00:02 18.9 C 9.72 g/m*3 18.9 C 0 km/h
1297 14-06-2007 01:12:01 18.8 C 9.82 g/m*3 18.8 C 0 km/h
1298 14-06-2007 01:24:02 18.9 C 9.72 g/m*3 18.9 C 0 km/h
1299 14-06-2007 01:36:01 18.9 C 9.88 g/m*3 18.9 C 0 km/h
1300 14-06-2007 01:48:02 18.9 C 10.21 g/m*3 18.9 C 0 km/h
Sensor: Nr:Datum:Temp:Abs-Feuchte:Windchill:Wind:
Aussen-T/F 1301 14-06-2007 02:00:02 18.9 C 10.04 g/m*3 18.9 C 0 km/h
1302 14-06-2007 02:12:02 18.6 C 10.19 g/m*3 18.6 C 0 km/h
1303 14-06-2007 02:24:03 18.6 C 10.19 g/m*3 18.6 C 0 km/h
1304 14-06-2007 02:36:02 18.6 C 10.19 g/m*3 18.6 C 0 km/h
1305 14-06-2007 02:49:03 18.6 C 10.19 g/m*3 18.6 C 0 km/h
1306 14-06-2007 03:01:03 18.6 C 10.19 g/m*3 18.6 C 0 km/h
1307 14-06-2007 03:13:04 18.6 C 10.35 g/m*3 18.6 C 0 km/h
1308 14-06-2007 03:25:04 18.3 C 10.63 g/m*3 18.3 C 0 km/h
1309 14-06-2007 03:37:02 18.1 C 10.66 g/m*3 18.1 C 0 km/h
1310 14-06-2007 03:49:02 18.1 C 10.66 g/m*3 18.1 C 0 km/h
1311 14-06-2007 04:01:01 17.8 C 10.93 g/m*3 17.8 C 0 km/h
1312 14-06-2007 04:13:01 17.7 C 11.32 g/m*3 17.7 C 0 km/h
1313 14-06-2007 04:25:01 17.3 C 11.34 g/m*3 17.3 C 0 km/h
1314 14-06-2007 04:37:01 17.1 C 11.35 g/m*3 17.1 C 0 km/h
1315 14-06-2007 04:49:02 17.1 C 11.35 g/m*3 17.1 C 0 km/h
1316 14-06-2007 05:01:02 17.1 C 11.21 g/m*3 17.1 C 0 km/h
1317 14-06-2007 05:13:02 17 C 11.14 g/m*3 17 C 0 km/h
1318 14-06-2007 05:25:02 16.9 C 11.08 g/m*3 16.9 C 0 km/h
1319 14-06-2007 05:37:02 16.8 C 11.01 g/m*3 16.8 C 0 km/h
1320 14-06-2007 05:49:02 16.7 C 10.94 g/m*3 16.7 C 0 km/h
1321 14-06-2007 06:01:03 16.6 C 10.88 g/m*3 16.6 C 0 km/h
1322 14-06-2007 06:13:03 16.6 C 11.02 g/m*3 16.6 C 0 km/h
1323 14-06-2007 06:25:02 16.6 C 10.88 g/m*3 16.6 C 0 km/h
1324 14-06-2007 06:37:02 16.6 C 10.88 g/m*3 16.6 C 0 km/h
1325 14-06-2007 06:49:02 16.8 C 11.01 g/m*3 16.8 C 0 km/h
Sensor: Nr:Datum:Temp:Abs-Feuchte:Windchill:Wind:
Aussen-T/F 1326 14-06-2007 07:01:02 17.1 C 11.06 g/m*3 17.1 C 0 km/h
1327 14-06-2007 07:13:02 17.2 C 11.13 g/m*3 17.2 C 0 km/h
1328 14-06-2007 07:25:03 17.2 C 11.13 g/m*3 17.2 C 0 km/h
1329 14-06-2007 07:37:02 17.3 C 11.2 g/m*3 17.3 C 0 km/h
1330 14-06-2007 07:49:02 17.7 C 11.47 g/m*3 17.7 C 0 km/h
1331 14-06-2007 08:01:02 17.9 C 11.3 g/m*3 17.9 C 0 km/h
1332 14-06-2007 08:13:03 18.3 C 11.41 g/m*3 18.3 C 0 km/h
1333 14-06-2007 08:25:01 18.6 C 11.3 g/m*3 18.6 C 0 km/h
1334 14-06-2007 08:37:02 18.9 C 11.34 g/m*3 18.9 C 0 km/h
1335 14-06-2007 08:49:02 19.4 C 11.01 g/m*3 19.4 C 0 km/h
1336 14-06-2007 09:01:03 20.2 C 11.02 g/m*3 20.2 C 0 km/h
1337 14-06-2007 09:13:03 20.7 C 11.34 g/m*3 20.7 C 0 km/h
1338 14-06-2007 09:25:03 21.4 C 11.25 g/m*3 21.4 C 0 km/h
1339 14-06-2007 09:37:03 22 C 11.26 g/m*3 22 C 0 km/h
1340 14-06-2007 09:49:02 22.6 C 11.05 g/m*3 22.6 C 0 km/h
1341 14-06-2007 10:01:02 23.3 C 11.29 g/m*3 23.3 C 0 km/h
1342 14-06-2007 10:13:02 23.9 C 11.25 g/m*3 23.9 C 0 km/h
1343 14-06-2007 10:25:02 24.4 C 10.9 g/m*3 24.4 C 0 km/h
1344 14-06-2007 10:37:03 25.1 C 10.65 g/m*3 25.1 C 0 km/h
1345 14-06-2007 10:49:02 25.3 C 10.53 g/m*3 25.3 C 0 km/h
1346 14-06-2007 11:01:02 25.9 C 10.41 g/m*3 25.9 C 0 km/h
1347 14-06-2007 11:13:02 26.5 C 10.01 g/m*3 26.5 C 0 km/h
1348 14-06-2007 11:25:02 26.7 C 9.62 g/m*3 26.7 C 0 km/h
1349 14-06-2007 11:37:03 27.1 C 9.58 g/m*3 27.1 C 0 km/h
1350 14-06-2007 11:49:02 27.8 C 9.68 g/m*3 27.8 C 0 km/h
Sensor: Nr:Datum:Temp:Abs-Feuchte:Windchill:Wind:
Aussen-T/F 1351 14-06-2007 12:01:02 28.1 C 9.02 g/m*3 28.1 C 0 km/h
1352 14-06-2007 12:13:03 29.4 C 9.1 g/m*3 29.4 C 0 km/h
1353 14-06-2007 12:25:01 30.1 C 8.84 g/m*3 30.1 C 0 km/h
1354 14-06-2007 12:37:01 28.8 C 8.81 g/m*3 28.8 C 0 km/h
1355 14-06-2007 12:49:01 29.3 C 9.34 g/m*3 29.3 C 0 km/h
1356 14-06-2007 13:01:02 30.1 C 9.15 g/m*3 30.1 C 0 km/h
1357 14-06-2007 13:13:02 28.6 C 9.55 g/m*3 28.6 C 0 km/h
1358 14-06-2007 13:25:05 28.3 C 9.95 g/m*3 28.3 C 0 km/h
1359 14-06-2007 13:37:03 29.3 C 10.22 g/m*3 29.3 C 0 km/h
1360 14-06-2007 13:49:02 30 C 9.4 g/m*3 30 C 0 km/h
1361 14-06-2007 14:01:03 30 C 9.4 g/m*3 30 C 0 km/h
1362 14-06-2007 14:13:03 30.2 C 9.81 g/m*3 30.2 C 0 km/h
1363 14-06-2007 14:25:03 29.9 C 9.05 g/m*3 29.9 C 0 km/h
1364 14-06-2007 14:37:03 30 C 9.1 g/m*3 30 C 0 km/h
1365 14-06-2007 14:49:02 29.7 C 8.95 g/m*3 29.7 C 0 km/h
1366 14-06-2007 15:01:11 28.6 C 9.84 g/m*3 28.6 C 0 km/h
1367 14-06-2007 15:13:11 26.3 C 12.87 g/m*3 26.3 C 0 km/h
1368 14-06-2007 15:25:11 25.6 C 13.57 g/m*3 25.6 C 0 km/h
1369 14-06-2007 15:37:11 27.8 C 13.45 g/m*3 27.8 C 0 km/h
1370 14-06-2007 15:49:11 29.6 C 11.57 g/m*3 29.6 C 0 km/h
1371 14-06-2007 16:01:11 30.5 C 11.84 g/m*3 30.5 C 0 km/h
1372 14-06-2007 16:13:11 30.7 C 11.02 g/m*3 30.7 C 0 km/h
1373 14-06-2007 16:25:11 30.4 C 12.08 g/m*3 30.4 C 0 km/h
1374 14-06-2007 16:37:11 29.2 C 11.61 g/m*3 29.2 C 0 km/h
1375 14-06-2007 16:49:11 27.7 C 11.5 g/m*3 27.7 C 0 km/h
Sensor: Nr:Datum:Temp:Abs-Feuchte:Windchill:Wind:
Aussen-T/F 1376 14-06-2007 17:01:11 26.5 C 12.27 g/m*3 26.5 C 0 km/h
1377 14-06-2007 17:13:11 21 C 13.37 g/m*3 21 C 0 km/h
1378 14-06-2007 17:25:11 19.9 C 14.26 g/m*3 19.9 C 0 km/h
1379 14-06-2007 17:37:11 20.1 C 14.78 g/m*3 20.1 C 0 km/h
1380 14-06-2007 17:49:02 20.9 C 15.66 g/m*3 20.9 C 0 km/h
1381 14-06-2007 18:01:01 23.3 C 17.56 g/m*3 23.3 C 0 km/h
1382 14-06-2007 18:13:01 24.8 C 15.93 g/m*3 24.8 C 0 km/h
1383 14-06-2007 18:25:02 25.4 C 16.72 g/m*3 25.4 C 0 km/h
1384 14-06-2007 18:37:02 24.9 C 16.02 g/m*3 24.9 C 0 km/h
1385 14-06-2007 18:49:03 24.3 C 16.38 g/m*3 24.3 C 0 km/h
1386 14-06-2007 19:01:02 23.3 C 16.1 g/m*3 23.3 C 0 km/h
1387 14-06-2007 19:13:02 23 C 15.83 g/m*3 23 C 0 km/h
1388 14-06-2007 19:25:02 22.7 C 15.76 g/m*3 22.7 C 0 km/h
1389 14-06-2007 19:37:03 22.6 C 15.87 g/m*3 22.6 C 0 km/h
1390 14-06-2007 19:49:03 22.1 C 15.42 g/m*3 22.1 C 0 km/h
1391 14-06-2007 20:01:02 21.9 C 15.82 g/m*3 21.9 C 0 km/h
1392 14-06-2007 20:13:03 22.1 C 15.81 g/m*3 22.1 C 0 km/h
1393 14-06-2007 20:25:02 22.3 C 15.6 g/m*3 22.3 C 0 km/h
1394 14-06-2007 20:37:03 22.5 C 15.78 g/m*3 22.5 C 0 km/h
1395 14-06-2007 20:49:02 22.5 C 14.58 g/m*3 22.5 C 0 km/h
1396 14-06-2007 21:01:03 22.1 C 13.66 g/m*3 22.1 C 0 km/h
1397 14-06-2007 21:13:03 21.4 C 13.5 g/m*3 21.4 C 0 km/h
1398 14-06-2007 21:25:03 20.9 C 13.66 g/m*3 20.9 C 0 km/h
1399 14-06-2007 21:37:04 20.4 C 13.62 g/m*3 20.4 C 0 km/h
1400 14-06-2007 21:49:02 20.2 C 12.94 g/m*3 20.2 C 0 km/h
Sensor: Nr:Datum:Temp:Abs-Feuchte:Windchill:Wind:
Aussen-T/F 1401 14-06-2007 22:01:03 20 C 13.13 g/m*3 20 C 0 km/h
1402 14-06-2007 22:13:03 19.8 C 13.32 g/m*3 19.8 C 0 km/h
1403 14-06-2007 22:25:03 19.9 C 13.4 g/m*3 19.9 C 0 km/h
1404 14-06-2007 22:37:03 19.9 C 13.23 g/m*3 19.9 C 0 km/h
1405 14-06-2007 22:49:02 19.9 C 12.54 g/m*3 19.9 C 0 km/h
1406 14-06-2007 23:01:01 19.7 C 12.74 g/m*3 19.7 C 0 km/h
1407 14-06-2007 23:13:01 19.3 C 12.77 g/m*3 19.3 C 0 km/h
1408 14-06-2007 23:25:01 19.2 C 12.7 g/m*3 19.2 C 0 km/h
1409 14-06-2007 23:37:02 19.3 C 12.94 g/m*3 19.3 C 0 km/h
1410 14-06-2007 23:49:02 19.1 C 12.62 g/m*3 19.1 C 0 km/h
1411 15-06-2007 00:01:03 19.1 C 12.79 g/m*3 19.1 C 0 km/h
1412 15-06-2007 00:13:03 18.9 C 12.8 g/m*3 18.9 C 0 km/h
1413 15-06-2007 00:25:03 18.9 C 12.8 g/m*3 18.9 C 0 km/h
1414 15-06-2007 00:37:03 18.9 C 12.8 g/m*3 18.9 C 0 km/h
1415 15-06-2007 00:49:03 19 C 12.22 g/m*3 19 C 0 km/h
1416 15-06-2007 01:01:04 18.8 C 12.4 g/m*3 18.8 C 0 km/h
1417 15-06-2007 01:13:04 18.7 C 12.49 g/m*3 18.7 C 0 km/h
1418 15-06-2007 01:25:03 18.6 C 12.26 g/m*3 18.6 C 0 km/h
1419 15-06-2007 01:37:03 18.9 C 11.99 g/m*3 18.9 C 0 km/h
1420 15-06-2007 01:49:02 19.1 C 11.8 g/m*3 19.1 C 0 km/h
1421 15-06-2007 02:01:04 19.1 C 11.8 g/m*3 19.1 C 0 km/h
1422 15-06-2007 02:13:04 18.9 C 12.15 g/m*3 18.9 C 0 km/h
1423 15-06-2007 02:25:03 18.9 C 12.15 g/m*3 18.9 C 0 km/h
1424 15-06-2007 02:37:03 19.1 C 12.13 g/m*3 19.1 C 0 km/h
1425 15-06-2007 02:50:05 19.1 C 11.97 g/m*3 19.1 C 0 km/h
Sensor: Nr:Datum:Temp:Abs-Feuchte:Windchill:Wind:
Aussen-T/F 1426 15-06-2007 03:02:05 19.1 C 11.97 g/m*3 19.1 C 0 km/h
1427 15-06-2007 03:14:04 19 C 11.9 g/m*3 19 C 0 km/h
1428 15-06-2007 03:26:04 19.1 C 11.97 g/m*3 19.1 C 0 km/h
1429 15-06-2007 03:38:02 19.1 C 11.97 g/m*3 19.1 C 0 km/h
1430 15-06-2007 03:50:02 19.1 C 11.8 g/m*3 19.1 C 0 km/h
1431 15-06-2007 04:02:03 19.1 C 11.8 g/m*3 19.1 C 0 km/h
1432 15-06-2007 04:14:03 19.1 C 11.8 g/m*3 19.1 C 0 km/h
1433 15-06-2007 04:26:03 19 C 11.73 g/m*3 19 C 0 km/h
1434 15-06-2007 04:38:03 18.9 C 11.83 g/m*3 18.9 C 0 km/h
1435 15-06-2007 04:50:02 19 C 11.73 g/m*3 19 C 0 km/h
1436 15-06-2007 05:02:02 19 C 11.57 g/m*3 19 C 0 km/h
1437 15-06-2007 05:14:03 18.9 C 11.66 g/m*3 18.9 C 0 km/h
1438 15-06-2007 05:26:02 18.8 C 11.6 g/m*3 18.8 C 0 km/h
1439 15-06-2007 05:38:02 18.8 C 11.6 g/m*3 18.8 C 0 km/h
1440 15-06-2007 05:50:03 18.8 C 11.6 g/m*3 18.8 C 0 km/h
1441 15-06-2007 06:02:02 18.9 C 11.66 g/m*3 18.9 C 0 km/h
1442 15-06-2007 06:14:03 19 C 11.57 g/m*3 19 C 0 km/h
1443 15-06-2007 06:26:02 19.1 C 11.64 g/m*3 19.1 C 0 km/h
1444 15-06-2007 06:38:03 19.3 C 11.61 g/m*3 19.3 C 0 km/h
1445 15-06-2007 06:50:02 19.4 C 11.68 g/m*3 19.4 C 0 km/h
1446 15-06-2007 07:02:02 19.5 C 11.92 g/m*3 19.5 C 0 km/h
1447 15-06-2007 07:14:02 19.6 C 11.99 g/m*3 19.6 C 0 km/h
1448 15-06-2007 07:26:02 19.9 C 12.03 g/m*3 19.9 C 0 km/h
1449 15-06-2007 07:38:00 19.9 C 12.2 g/m*3 19.9 C 0 km/h
1450 15-06-2007 07:50:02 20 C 12.27 g/m*3 20 C 0 km/h
Sensor: Nr:Datum:Temp:Abs-Feuchte:Windchill:Wind:
Aussen-T/F 1451 15-06-2007 08:02:02 20 C 12.27 g/m*3 20 C 0 km/h
1452 15-06-2007 08:14:02 20 C 12.27 g/m*3 20 C 0 km/h
1453 15-06-2007 08:26:02 20 C 12.27 g/m*3 20 C 0 km/h
1454 15-06-2007 08:38:02 19.7 C 12.23 g/m*3 19.7 C 0 km/h
1455 15-06-2007 08:50:02 19.6 C 12.15 g/m*3 19.6 C 0 km/h
1456 15-06-2007 09:02:02 19.4 C 12.51 g/m*3 19.4 C 0 km/h
1457 15-06-2007 09:14:02 19.2 C 12.86 g/m*3 19.2 C 0 km/h
1458 15-06-2007 09:26:02 19.3 C 13.27 g/m*3 19.3 C 0 km/h
1459 15-06-2007 09:38:02 19.5 C 13.43 g/m*3 19.5 C 0 km/h
1460 15-06-2007 09:50:02 20.4 C 13.09 g/m*3 20.4 C 0 km/h
1461 15-06-2007 10:02:02 21.1 C 12.71 g/m*3 21.1 C 0 km/h
1462 15-06-2007 10:14:02 21.2 C 12.42 g/m*3 21.2 C 0 km/h
1463 15-06-2007 10:26:02 21.6 C 12.71 g/m*3 21.6 C 0 km/h
1464 15-06-2007 10:38:02 21.3 C 12.3 g/m*3 21.3 C 0 km/h
1465 15-06-2007 10:50:02 19.9 C 12.89 g/m*3 19.9 C 0 km/h
1466 15-06-2007 11:02:02 19 C 13.53 g/m*3 19 C 0 km/h
1467 15-06-2007 11:14:02 18.9 C 13.93 g/m*3 18.9 C 0 km/h
1468 15-06-2007 11:26:02 19.2 C 13.85 g/m*3 19.2 C 0 km/h
1469 15-06-2007 11:38:03 20.4 C 13.8 g/m*3 20.4 C 0 km/h
1470 15-06-2007 11:50:03 21 C 13.37 g/m*3 21 C 0 km/h
1471 15-06-2007 12:02:03 21.9 C 13.12 g/m*3 21.9 C 0 km/h
1472 15-06-2007 12:14:03 23 C 12.74 g/m*3 23 C 0 km/h
1473 15-06-2007 12:26:03 23.1 C 11.99 g/m*3 23.1 C 0 km/h
1474 15-06-2007 12:38:03 23.2 C 12.47 g/m*3 23.2 C 0 km/h
1475 15-06-2007 12:50:03 22.9 C 12.06 g/m*3 22.9 C 0 km/h
Sensor: Nr:Datum:Temp:Abs-Feuchte:Windchill:Wind:
Aussen-T/F 1476 15-06-2007 13:02:03 22.5 C 12.18 g/m*3 22.5 C 0 km/h
1477 15-06-2007 13:14:03 21.4 C 12.37 g/m*3 21.4 C 0 km/h
1478 15-06-2007 13:26:03 22 C 13 g/m*3 22 C 0 km/h
1479 15-06-2007 13:38:03 21.9 C 12.35 g/m*3 21.9 C 0 km/h
1480 15-06-2007 13:50:03 21.1 C 12.16 g/m*3 21.1 C 0 km/h
1481 15-06-2007 14:02:03 20.3 C 12.14 g/m*3 20.3 C 0 km/h
1482 15-06-2007 14:14:03 20.8 C 12.31 g/m*3 20.8 C 0 km/h
1483 15-06-2007 14:26:03 21.1 C 12.16 g/m*3 21.1 C 0 km/h
1484 15-06-2007 14:38:00 21.7 C 12.02 g/m*3 21.7 C 0 km/h
1485 15-06-2007 14:50:02 21.5 C 11.31 g/m*3 21.5 C 0 km/h
1486 15-06-2007 15:02:02 21.2 C 11.49 g/m*3 21.2 C 0 km/h
1487 15-06-2007 15:14:02 20.3 C 11.96 g/m*3 20.3 C 0 km/h
1488 15-06-2007 15:26:02 20.4 C 12.03 g/m*3 20.4 C 0 km/h
1489 15-06-2007 15:38:01 20.5 C 12.1 g/m*3 20.5 C 0 km/h
1490 15-06-2007 15:50:02 20.4 C 12.74 g/m*3 20.4 C 0 km/h
1491 15-06-2007 16:02:01 20.7 C 12.78 g/m*3 20.7 C 0 km/h
1492 15-06-2007 16:14:01 21.2 C 12.23 g/m*3 21.2 C 0 km/h
1493 15-06-2007 16:26:02 21.4 C 12.19 g/m*3 21.4 C 0 km/h
1494 15-06-2007 16:38:02 21.4 C 11.62 g/m*3 21.4 C 0 km/h
1495 15-06-2007 16:50:02 21.1 C 11.42 g/m*3 21.1 C 0 km/h
1496 15-06-2007 17:02:02 20.9 C 11.66 g/m*3 20.9 C 0 km/h
1497 15-06-2007 17:14:02 20.7 C 11.16 g/m*3 20.7 C 0 km/h
1498 15-06-2007 17:26:02 20 C 11.23 g/m*3 20 C 0 km/h
1499 15-06-2007 17:38:02 20.2 C 11.37 g/m*3 20.2 C 0 km/h
1500 15-06-2007 17:50:03 20.6 C 11.1 g/m*3 20.6 C 0 km/h
Sensor: Nr:Datum:Temp:Abs-Feuchte:Windchill:Wind:
Aussen-T/F 1501 15-06-2007 18:02:03 21 C 10.81 g/m*3 21 C 0 km/h
1502 15-06-2007 18:14:03 21.2 C 10.38 g/m*3 21.2 C 0 km/h
1503 15-06-2007 18:26:03 21.4 C 10.31 g/m*3 21.4 C 0 km/h
1504 15-06-2007 18:38:02 21.7 C 9.92 g/m*3 21.7 C 0 km/h
1505 15-06-2007 18:50:02 21.2 C 9.82 g/m*3 21.2 C 0 km/h
1506 15-06-2007 19:02:02 21.3 C 10.07 g/m*3 21.3 C 0 km/h
1507 15-06-2007 19:14:02 21 C 9.71 g/m*3 21 C 0 km/h
1508 15-06-2007 19:26:02 20.8 C 9.78 g/m*3 20.8 C 0 km/h
1509 15-06-2007 19:38:02 20.6 C 9.84 g/m*3 20.6 C 0 km/h
1510 15-06-2007 19:50:01 20.4 C 9.73 g/m*3 20.4 C 0 km/h
1511 15-06-2007 20:02:02 20.1 C 9.73 g/m*3 20.1 C 0 km/h
1512 15-06-2007 20:14:02 19.9 C 9.79 g/m*3 19.9 C 0 km/h
1513 15-06-2007 20:26:02 19.7 C 9.68 g/m*3 19.7 C 0 km/h
1514 15-06-2007 20:38:01 19.5 C 9.57 g/m*3 19.5 C 0 km/h
1515 15-06-2007 20:50:02 19.3 C 9.62 g/m*3 19.3 C 0 km/h
1516 15-06-2007 21:02:03 19.1 C 9.67 g/m*3 19.1 C 0 km/h
1517 15-06-2007 21:14:03 19 C 9.45 g/m*3 19 C 0 km/h
1518 15-06-2007 21:26:02 18.8 C 9.5 g/m*3 18.8 C 0 km/h
1519 15-06-2007 21:38:02 18.5 C 9.49 g/m*3 18.5 C 0 km/h
1520 15-06-2007 21:50:02 18.4 C 9.28 g/m*3 18.4 C 0 km/h
1521 15-06-2007 22:02:02 18.2 C 9.33 g/m*3 18.2 C 0 km/h
1522 15-06-2007 22:14:02 17.9 C 9.31 g/m*3 17.9 C 0 km/h
1523 15-06-2007 22:26:03 17.6 C 9.45 g/m*3 17.6 C 0 km/h
1524 15-06-2007 22:38:03 17.6 C 9.45 g/m*3 17.6 C 0 km/h
1525 15-06-2007 22:50:02 17.5 C 9.39 g/m*3 17.5 C 0 km/h
Sensor: Nr:Datum:Temp:Abs-Feuchte:Windchill:Wind:
Aussen-T/F 1526 15-06-2007 23:02:02 17.4 C 9.48 g/m*3 17.4 C 0 km/h
1527 15-06-2007 23:14:02 17.4 C 9.48 g/m*3 17.4 C 0 km/h
1528 15-06-2007 23:26:02 17.4 C 9.78 g/m*3 17.4 C 0 km/h
1529 15-06-2007 23:38:03 17.2 C 9.81 g/m*3 17.2 C 0 km/h
1530 15-06-2007 23:50:02 17 C 9.84 g/m*3 17 C 0 km/h
1531 16-06-2007 00:02:02 16.7 C 9.66 g/m*3 16.7 C 0 km/h
1532 16-06-2007 00:14:02 16.6 C 9.75 g/m*3 16.6 C 0 km/h
1533 16-06-2007 00:26:02 16.6 C 9.75 g/m*3 16.6 C 0 km/h
1534 16-06-2007 00:38:02 16.4 C 9.63 g/m*3 16.4 C 0 km/h
1535 16-06-2007 00:50:02 16.1 C 9.6 g/m*3 16.1 C 0 km/h
1536 16-06-2007 01:02:03 15.9 C 9.75 g/m*3 15.9 C 0 km/h
1537 16-06-2007 01:14:03 15.8 C 9.83 g/m*3 15.8 C 0 km/h
1538 16-06-2007 01:26:02 16 C 9.81 g/m*3 16 C 0 km/h
1539 16-06-2007 01:38:02 16.2 C 9.79 g/m*3 16.2 C 0 km/h
1540 16-06-2007 01:50:01 16.2 C 9.93 g/m*3 16.2 C 0 km/h
1541 16-06-2007 02:02:01 16.1 C 9.87 g/m*3 16.1 C 0 km/h
1542 16-06-2007 02:14:01 15.8 C 9.83 g/m*3 15.8 C 0 km/h
1543 16-06-2007 02:26:02 15.9 C 10.02 g/m*3 15.9 C 0 km/h
1544 16-06-2007 02:38:01 15.9 C 9.89 g/m*3 15.9 C 0 km/h
1545 16-06-2007 02:51:03 15.8 C 9.83 g/m*3 15.8 C 0 km/h
1546 16-06-2007 03:03:03 15.6 C 9.84 g/m*3 15.6 C 0 km/h
1547 16-06-2007 03:15:03 15.2 C 9.73 g/m*3 15.2 C 0 km/h
1548 16-06-2007 03:27:03 14.8 C 9.75 g/m*3 14.8 C 0 km/h
1549 16-06-2007 03:39:02 14.6 C 9.76 g/m*3 14.6 C 0 km/h
1550 16-06-2007 03:51:02 14.4 C 9.77 g/m*3 14.4 C 0 km/h
Sensor: Nr:Datum:Temp:Abs-Feuchte:Windchill:Wind:
Aussen-T/F 1551 16-06-2007 04:03:03 14.3 C 9.71 g/m*3 14.3 C 0 km/h
1552 16-06-2007 04:15:02 14.1 C 9.71 g/m*3 14.1 C 0 km/h
1553 16-06-2007 04:27:02 13.9 C 9.83 g/m*3 13.9 C 0 km/h
1554 16-06-2007 04:39:02 13.8 C 9.77 g/m*3 13.8 C 0 km/h
1555 16-06-2007 04:51:02 14.1 C 9.95 g/m*3 14.1 C 0 km/h
1556 16-06-2007 05:03:02 14.1 C 9.83 g/m*3 14.1 C 0 km/h
1557 16-06-2007 05:15:03 14.4 C 10.01 g/m*3 14.4 C 0 km/h
1558 16-06-2007 05:27:03 14.6 C 10.01 g/m*3 14.6 C 0 km/h
1559 16-06-2007 05:39:02 14.4 C 9.77 g/m*3 14.4 C 0 km/h
1560 16-06-2007 05:51:02 15.2 C 9.99 g/m*3 15.2 C 0 km/h
1561 16-06-2007 06:03:03 15.5 C 9.91 g/m*3 15.5 C 0 km/h
1562 16-06-2007 06:15:02 15.7 C 9.77 g/m*3 15.7 C 0 km/h
1563 16-06-2007 06:27:02 15.8 C 9.69 g/m*3 15.8 C 0 km/h
1564 16-06-2007 06:39:02 15.9 C 9.62 g/m*3 15.9 C 0 km/h
1565 16-06-2007 06:51:02 15.9 C 9.62 g/m*3 15.9 C 0 km/h
1566 16-06-2007 07:03:02 16 C 9.4 g/m*3 16 C 0 km/h
1567 16-06-2007 07:15:02 16 C 9.26 g/m*3 16 C 0 km/h
1568 16-06-2007 07:27:02 16.2 C 9.38 g/m*3 16.2 C 0 km/h
1569 16-06-2007 07:39:02 16.5 C 9.41 g/m*3 16.5 C 0 km/h
1570 16-06-2007 07:51:02 16.6 C 9.18 g/m*3 16.6 C 0 km/h
1571 16-06-2007 08:03:02 16.7 C 9.1 g/m*3 16.7 C 0 km/h
1572 16-06-2007 08:15:02 16.6 C 9.04 g/m*3 16.6 C 0 km/h
1573 16-06-2007 08:27:03 16.6 C 8.9 g/m*3 16.6 C 0 km/h
1574 16-06-2007 08:39:01 16.6 C 8.9 g/m*3 16.6 C 0 km/h
1575 16-06-2007 08:51:02 16.5 C 8.99 g/m*3 16.5 C 0 km/h
Sensor: Nr:Datum:Temp:Abs-Feuchte:Windchill:Wind:
Aussen-T/F 1576 16-06-2007 09:03:02 17 C 8.68 g/m*3 17 C 0 km/h
1577 16-06-2007 09:15:02 17.5 C 8.5 g/m*3 17.5 C 0 km/h
1578 16-06-2007 09:27:02 17.7 C 8.3 g/m*3 17.7 C 0 km/h
1579 16-06-2007 09:39:02 18.2 C 8.39 g/m*3 18.2 C 0 km/h
1580 16-06-2007 09:51:03 18.3 C 8.29 g/m*3 18.3 C 0 km/h
1581 16-06-2007 10:03:02 17.9 C 8.4 g/m*3 17.9 C 0 km/h
1582 16-06-2007 10:15:02 18.3 C 8.44 g/m*3 18.3 C 0 km/h
1583 16-06-2007 10:27:02 19 C 8.15 g/m*3 19 C 0 km/h
1584 16-06-2007 10:39:02 19.4 C 8.34 g/m*3 19.4 C 0 km/h
1585 16-06-2007 10:51:02 19.2 C 7.91 g/m*3 19.2 C 0 km/h
1586 16-06-2007 11:03:02 19 C 7.82 g/m*3 19 C 0 km/h
1587 16-06-2007 11:15:02 18.7 C 7.84 g/m*3 18.7 C 0 km/h
1588 16-06-2007 11:27:02 19.3 C 8.13 g/m*3 19.3 C 0 km/h
1589 16-06-2007 11:39:02 19.4 C 7.67 g/m*3 19.4 C 0 km/h
1590 16-06-2007 11:51:01 20.4 C 7.78 g/m*3 20.4 C 0 km/h
1591 16-06-2007 12:03:02 21.6 C 6.83 g/m*3 21.6 C 0 km/h
1592 16-06-2007 12:15:02 20.9 C 6.92 g/m*3 20.9 C 0 km/h
1593 16-06-2007 12:27:02 20.6 C 6.98 g/m*3 20.6 C 0 km/h
1594 16-06-2007 12:39:01 23.1 C 7.03 g/m*3 23.1 C 0 km/h
1595 16-06-2007 12:51:02 23.6 C 6.81 g/m*3 23.6 C 0 km/h
1596 16-06-2007 13:03:01 23.5 C 6.56 g/m*3 23.5 C 0 km/h
1597 16-06-2007 13:15:02 24.1 C 6.56 g/m*3 24.1 C 0 km/h
1598 16-06-2007 13:27:02 23 C 6.37 g/m*3 23 C 0 km/h
1599 16-06-2007 13:39:02 22.1 C 6.83 g/m*3 22.1 C 0 km/h
1600 16-06-2007 13:51:02 21.3 C 7.27 g/m*3 21.3 C 0 km/h
Sensor: Nr:Datum:Temp:Abs-Feuchte:Windchill:Wind:
Aussen-T/F 1601 16-06-2007 14:03:02 20.7 C 7.56 g/m*3 20.7 C 0 km/h
1602 16-06-2007 14:15:02 21.9 C 7.53 g/m*3 21.9 C 0 km/h
1603 16-06-2007 14:27:02 21.9 C 7.14 g/m*3 21.9 C 0 km/h
1604 16-06-2007 14:39:02 21.5 C 7.17 g/m*3 21.5 C 0 km/h
1605 16-06-2007 14:51:03 20.8 C 7.42 g/m*3 20.8 C 0 km/h
1606 16-06-2007 15:03:03 22.1 C 7.81 g/m*3 22.1 C 0 km/h
1607 16-06-2007 15:15:02 21.4 C 8.06 g/m*3 21.4 C 0 km/h
1608 16-06-2007 15:27:02 17.8 C 9.87 g/m*3 17.8 C 0 km/h
1609 16-06-2007 15:39:02 16.9 C 10.64 g/m*3 16.9 C 0 km/h
1610 16-06-2007 15:51:01 18.2 C 10.57 g/m*3 18.2 C 0 km/h
1611 16-06-2007 16:03:02 19.7 C 9.68 g/m*3 19.7 C 0 km/h
1612 16-06-2007 16:15:02 20.9 C 9.47 g/m*3 20.9 C 0 km/h
1613 16-06-2007 16:27:02 21.9 C 8.88 g/m*3 21.9 C 0 km/h
1614 16-06-2007 16:39:01 22.4 C 8.14 g/m*3 22.4 C 0 km/h
1615 16-06-2007 16:51:02 23.1 C 7.86 g/m*3 23.1 C 0 km/h
1616 16-06-2007 17:03:02 23.2 C 7.28 g/m*3 23.2 C 0 km/h
1617 16-06-2007 17:15:02 22.7 C 7.27 g/m*3 22.7 C 0 km/h
1618 16-06-2007 17:27:02 22.4 C 7.55 g/m*3 22.4 C 0 km/h
1619 16-06-2007 17:39:03 21.2 C 7.41 g/m*3 21.2 C 0 km/h
1620 16-06-2007 17:51:02 21 C 7.51 g/m*3 21 C 0 km/h
1621 16-06-2007 18:03:03 21.7 C 7.63 g/m*3 21.7 C 0 km/h
1622 16-06-2007 18:15:02 23.6 C 7.44 g/m*3 23.6 C 0 km/h
1623 16-06-2007 18:27:03 22 C 7.76 g/m*3 22 C 0 km/h
1624 16-06-2007 18:39:02 23 C 8.22 g/m*3 23 C 0 km/h
1625 16-06-2007 18:51:02 24 C 7.61 g/m*3 24 C 0 km/h
Sensor: Nr:Datum:Temp:Abs-Feuchte:Windchill:Wind:
Aussen-T/F 1626 16-06-2007 19:03:02 22.5 C 7.59 g/m*3 22.5 C 0 km/h
1627 16-06-2007 19:15:01 21.8 C 7.87 g/m*3 21.8 C 0 km/h
1628 16-06-2007 19:27:01 21.9 C 8.1 g/m*3 21.9 C 0 km/h
1629 16-06-2007 19:39:02 21.8 C 8.44 g/m*3 21.8 C 0 km/h
1630 16-06-2007 19:51:01 21.9 C 8.68 g/m*3 21.9 C 0 km/h
1631 16-06-2007 20:03:01 21.9 C 8.68 g/m*3 21.9 C 0 km/h
1632 16-06-2007 20:15:02 18.3 C 8.91 g/m*3 18.3 C 0 km/h
1633 16-06-2007 20:27:02 16 C 9.95 g/m*3 16 C 0 km/h
1634 16-06-2007 20:39:01 15.2 C 10.25 g/m*3 15.2 C 0 km/h
1635 16-06-2007 20:51:02 15.3 C 10.84 g/m*3 15.3 C 0 km/h
1636 16-06-2007 21:03:02 15.2 C 10.64 g/m*3 15.2 C 0 km/h
1637 16-06-2007 21:15:02 15.2 C 10.38 g/m*3 15.2 C 0 km/h
1638 16-06-2007 21:27:02 15 C 10.39 g/m*3 15 C 0 km/h
1639 16-06-2007 21:39:02 14.9 C 10.2 g/m*3 14.9 C 0 km/h
1640 16-06-2007 21:51:02 14.9 C 9.94 g/m*3 14.9 C 0 km/h
1641 16-06-2007 22:03:01 14.8 C 10.13 g/m*3 14.8 C 0 km/h
1642 16-06-2007 22:15:02 14.8 C 10.26 g/m*3 14.8 C 0 km/h
1643 16-06-2007 22:27:02 14.8 C 10.39 g/m*3 14.8 C 0 km/h
1644 16-06-2007 22:39:02 14.7 C 10.32 g/m*3 14.7 C 0 km/h
1645 16-06-2007 22:51:02 14.7 C 10.32 g/m*3 14.7 C 0 km/h
1646 16-06-2007 23:03:03 14.7 C 10.45 g/m*3 14.7 C 0 km/h
1647 16-06-2007 23:15:02 14.7 C 10.45 g/m*3 14.7 C 0 km/h
1648 16-06-2007 23:27:02 14.8 C 10.64 g/m*3 14.8 C 0 km/h
1649 16-06-2007 23:39:02 14.9 C 10.58 g/m*3 14.9 C 0 km/h
1650 16-06-2007 23:51:01 15.1 C 10.58 g/m*3 15.1 C 0 km/h
Sensor: Nr:Datum:Temp:Abs-Feuchte:Windchill:Wind:
Aussen-T/F 1651 17-06-2007 00:03:02 14.5 C 10.32 g/m*3 14.5 C 0 km/h
1652 17-06-2007 00:15:02 14.5 C 10.45 g/m*3 14.5 C 0 km/h
1653 17-06-2007 00:27:02 14.5 C 10.45 g/m*3 14.5 C 0 km/h
1654 17-06-2007 00:39:02 14.5 C 10.45 g/m*3 14.5 C 0 km/h
1655 17-06-2007 00:51:02 14.5 C 10.32 g/m*3 14.5 C 0 km/h
1656 17-06-2007 01:03:02 14.4 C 10.26 g/m*3 14.4 C 0 km/h
1657 17-06-2007 01:15:02 14.2 C 10.14 g/m*3 14.2 C 0 km/h
1658 17-06-2007 01:27:02 14.2 C 10.14 g/m*3 14.2 C 0 km/h
1659 17-06-2007 01:39:02 14.1 C 10.07 g/m*3 14.1 C 0 km/h
1660 17-06-2007 01:51:02 13.9 C 10.07 g/m*3 13.9 C 0 km/h
1661 17-06-2007 02:03:02 13.8 C 10.01 g/m*3 13.8 C 0 km/h
1662 17-06-2007 02:15:02 13.7 C 9.83 g/m*3 13.7 C 0 km/h
1663 17-06-2007 02:27:02 14 C 9.65 g/m*3 14 C 0 km/h
1664 17-06-2007 02:39:02 14 C 9.53 g/m*3 14 C 0 km/h
1665 17-06-2007 02:52:03 13.7 C 9.47 g/m*3 13.7 C 0 km/h
1666 17-06-2007 03:04:03 13.5 C 9.47 g/m*3 13.5 C 0 km/h
1667 17-06-2007 03:16:04 13.2 C 9.42 g/m*3 13.2 C 0 km/h
1668 17-06-2007 03:28:04 13.1 C 9.36 g/m*3 13.1 C 0 km/h
1669 17-06-2007 03:40:02 13 C 9.3 g/m*3 13 C 0 km/h
1670 17-06-2007 03:52:02 12.8 C 9.41 g/m*3 12.8 C 0 km/h
1671 17-06-2007 04:04:03 12.6 C 9.29 g/m*3 12.6 C 0 km/h
1672 17-06-2007 04:16:02 12.4 C 9.18 g/m*3 12.4 C 0 km/h
1673 17-06-2007 04:28:02 12.5 C 9.35 g/m*3 12.5 C 0 km/h
1674 17-06-2007 04:40:02 12.3 C 9.23 g/m*3 12.3 C 0 km/h
1675 17-06-2007 04:52:02 12.1 C 9.12 g/m*3 12.1 C 0 km/h
Sensor: Nr:Datum:Temp:Abs-Feuchte:Windchill:Wind:
Aussen-T/F 1676 17-06-2007 05:04:02 12 C 9.06 g/m*3 12 C 0 km/h
1677 17-06-2007 05:16:02 12.1 C 9.12 g/m*3 12.1 C 0 km/h
1678 17-06-2007 05:28:02 12 C 9.06 g/m*3 12 C 0 km/h
1679 17-06-2007 05:40:02 11.9 C 9 g/m*3 11.9 C 0 km/h
1680 17-06-2007 05:52:02 12 C 9.06 g/m*3 12 C 0 km/h
1681 17-06-2007 06:04:02 12.1 C 9.22 g/m*3 12.1 C 0 km/h
1682 17-06-2007 06:16:02 12.1 C 9.22 g/m*3 12.1 C 0 km/h
1683 17-06-2007 06:28:02 12.2 C 9.28 g/m*3 12.2 C 0 km/h
1684 17-06-2007 06:40:02 12.4 C 9.4 g/m*3 12.4 C 0 km/h
1685 17-06-2007 06:52:02 12.6 C 9.51 g/m*3 12.6 C 0 km/h
1686 17-06-2007 07:04:03 12.8 C 9.41 g/m*3 12.8 C 0 km/h
1687 17-06-2007 07:16:02 13 C 9.19 g/m*3 13 C 0 km/h
1688 17-06-2007 07:28:02 13.6 C 9.42 g/m*3 13.6 C 0 km/h
1689 17-06-2007 07:40:02 13.7 C 9.24 g/m*3 13.7 C 0 km/h
1690 17-06-2007 07:52:02 13.6 C 9.42 g/m*3 13.6 C 0 km/h
1691 17-06-2007 08:04:01 13.8 C 9.53 g/m*3 13.8 C 0 km/h
1692 17-06-2007 08:16:01 14 C 9.53 g/m*3 14 C 0 km/h
1693 17-06-2007 08:28:01 14.3 C 9.58 g/m*3 14.3 C 0 km/h
1694 17-06-2007 08:40:02 15.1 C 9.68 g/m*3 15.1 C 0 km/h
1695 17-06-2007 08:52:02 15.3 C 9.66 g/m*3 15.3 C 0 km/h
1696 17-06-2007 09:04:02 15.8 C 9.83 g/m*3 15.8 C 0 km/h
1697 17-06-2007 09:16:02 16.3 C 9.85 g/m*3 16.3 C 0 km/h
1698 17-06-2007 09:28:02 16.8 C 9.87 g/m*3 16.8 C 0 km/h
1699 17-06-2007 09:40:02 17.5 C 9.69 g/m*3 17.5 C 0 km/h
1700 17-06-2007 09:52:02 18.1 C 9.43 g/m*3 18.1 C 0 km/h
Sensor: Nr:Datum:Temp:Abs-Feuchte:Windchill:Wind:
Aussen-T/F 1701 17-06-2007 10:04:02 18.7 C 9.61 g/m*3 18.7 C 0 km/h
1702 17-06-2007 10:16:02 19.1 C 9.34 g/m*3 19.1 C 0 km/h
1703 17-06-2007 10:28:02 19.4 C 9.01 g/m*3 19.4 C 0 km/h
1704 17-06-2007 10:40:01 19.7 C 8.49 g/m*3 19.7 C 0 km/h
1705 17-06-2007 10:52:02 20.2 C 8.57 g/m*3 20.2 C 0 km/h
1706 17-06-2007 11:04:01 20.6 C 8.41 g/m*3 20.6 C 0 km/h
1707 17-06-2007 11:16:01 21.1 C 8.29 g/m*3 21.1 C 0 km/h
1708 17-06-2007 11:28:01 21.8 C 8.44 g/m*3 21.8 C 0 km/h
1709 17-06-2007 11:40:02 22.3 C 8.1 g/m*3 22.3 C 0 km/h
1710 17-06-2007 11:52:02 23 C 7.6 g/m*3 23 C 0 km/h
1711 17-06-2007 12:04:02 23.6 C 7.44 g/m*3 23.6 C 0 km/h
1712 17-06-2007 12:16:02 23.7 C 7.27 g/m*3 23.7 C 0 km/h
1713 17-06-2007 12:28:02 23.8 C 7.53 g/m*3 23.8 C 0 km/h
1714 17-06-2007 12:40:02 25.3 C 7.02 g/m*3 25.3 C 0 km/h
1715 17-06-2007 12:52:01 24.4 C 6.9 g/m*3 24.4 C 0 km/h
1716 17-06-2007 13:04:02 23.8 C 6.88 g/m*3 23.8 C 0 km/h
1717 17-06-2007 13:16:02 25.2 C 6.98 g/m*3 25.2 C 0 km/h
1718 17-06-2007 13:28:02 26 C 6.33 g/m*3 26 C 0 km/h
1719 17-06-2007 13:40:01 25.9 C 6.54 g/m*3 25.9 C 0 km/h
1720 17-06-2007 13:52:02 26.1 C 6.12 g/m*3 26.1 C 0 km/h
1721 17-06-2007 14:04:02 26.2 C 6.4 g/m*3 26.2 C 0 km/h
1722 17-06-2007 14:16:01 25.6 C 6.19 g/m*3 25.6 C 0 km/h
1723 17-06-2007 14:28:01 26.3 C 6.68 g/m*3 26.3 C 0 km/h
1724 17-06-2007 14:40:02 25.8 C 6.02 g/m*3 25.8 C 0 km/h
1725 17-06-2007 14:52:01 26.4 C 6.22 g/m*3 26.4 C 0 km/h
Sensor: Nr:Datum:Temp:Abs-Feuchte:Windchill:Wind:
Aussen-T/F 1726 17-06-2007 15:04:02 26.4 C 6.22 g/m*3 26.4 C 0 km/h
1727 17-06-2007 15:16:02 27.1 C 5.95 g/m*3 27.1 C 0 km/h
1728 17-06-2007 15:28:03 27.2 C 5.46 g/m*3 27.2 C 0 km/h
1729 17-06-2007 15:40:01 26.8 C 5.6 g/m*3 26.8 C 0 km/h
1730 17-06-2007 15:52:02 26.6 C 6.04 g/m*3 26.6 C 0 km/h
1731 17-06-2007 16:04:01 27.7 C 5.88 g/m*3 27.7 C 0 km/h
1732 17-06-2007 16:16:02 28 C 5.71 g/m*3 28 C 0 km/h
1733 17-06-2007 16:28:02 28.2 C 5.77 g/m*3 28.2 C 0 km/h
1734 17-06-2007 16:40:02 27.3 C 5.76 g/m*3 27.3 C 0 km/h
1735 17-06-2007 16:52:02 27.5 C 5.82 g/m*3 27.5 C 0 km/h
1736 17-06-2007 17:04:02 28.2 C 5.77 g/m*3 28.2 C 0 km/h
1737 17-06-2007 17:16:02 28.3 C 5.53 g/m*3 28.3 C 0 km/h
1738 17-06-2007 17:28:02 28.9 C 6 g/m*3 28.9 C 0 km/h
1739 17-06-2007 17:40:02 28.9 C 6 g/m*3 28.9 C 0 km/h
1740 17-06-2007 17:52:03 28.8 C 5.97 g/m*3 28.8 C 0 km/h
1741 17-06-2007 18:04:02 28.1 C 6.29 g/m*3 28.1 C 0 km/h
1742 17-06-2007 18:16:02 28.6 C 6.18 g/m*3 28.6 C 0 km/h
1743 17-06-2007 18:28:02 28.6 C 6.46 g/m*3 28.6 C 0 km/h
1744 17-06-2007 18:40:02 28.9 C 6.57 g/m*3 28.9 C 0 km/h
1745 17-06-2007 18:52:02 28.2 C 6.87 g/m*3 28.2 C 0 km/h
1746 17-06-2007 19:04:02 28.4 C 6.95 g/m*3 28.4 C 0 km/h
1747 17-06-2007 19:16:02 27.8 C 6.99 g/m*3 27.8 C 0 km/h
1748 17-06-2007 19:28:02 27.7 C 7.22 g/m*3 27.7 C 0 km/h
1749 17-06-2007 19:40:03 27.5 C 7.14 g/m*3 27.5 C 0 km/h
1750 17-06-2007 19:52:02 26.8 C 8.4 g/m*3 26.8 C 0 km/h
Sensor: Nr:Datum:Temp:Abs-Feuchte:Windchill:Wind:
Aussen-T/F 1751 17-06-2007 20:04:02 26.1 C 8.32 g/m*3 26.1 C 0 km/h
1752 17-06-2007 20:16:02 25.4 C 8.48 g/m*3 25.4 C 0 km/h
1753 17-06-2007 20:28:02 24.6 C 8.55 g/m*3 24.6 C 0 km/h
1754 17-06-2007 20:40:03 24.1 C 8.1 g/m*3 24.1 C 0 km/h
1755 17-06-2007 20:52:02 23.7 C 8.34 g/m*3 23.7 C 0 km/h
1756 17-06-2007 21:04:02 23.5 C 8.25 g/m*3 23.5 C 0 km/h
1757 17-06-2007 21:16:02 23.3 C 8.57 g/m*3 23.3 C 0 km/h
1758 17-06-2007 21:28:02 23.1 C 9.1 g/m*3 23.1 C 0 km/h
1759 17-06-2007 21:40:02 23 C 8.84 g/m*3 23 C 0 km/h
1760 17-06-2007 21:52:02 22.9 C 9.4 g/m*3 22.9 C 0 km/h
1761 17-06-2007 22:04:02 22.9 C 8.99 g/m*3 22.9 C 0 km/h
1762 17-06-2007 22:16:02 22.5 C 9.39 g/m*3 22.5 C 0 km/h
1763 17-06-2007 22:28:02 21.7 C 10.49 g/m*3 21.7 C 0 km/h
1764 17-06-2007 22:40:02 19.5 C 11.92 g/m*3 19.5 C 0 km/h
1765 17-06-2007 22:52:01 18.8 C 12.56 g/m*3 18.8 C 0 km/h
1766 17-06-2007 23:04:02 18.5 C 13.13 g/m*3 18.5 C 0 km/h
1767 17-06-2007 23:16:02 18.5 C 13.45 g/m*3 18.5 C 0 km/h
1768 17-06-2007 23:28:02 18.1 C 13.29 g/m*3 18.1 C 0 km/h
1769 17-06-2007 23:40:02 17.9 C 13.44 g/m*3 17.9 C 0 km/h
1770 17-06-2007 23:52:02 17.8 C 13.51 g/m*3 17.8 C 0 km/h
1771 18-06-2007 00:04:02 17.9 C 13.59 g/m*3 17.9 C 0 km/h
1772 18-06-2007 00:16:02 17.6 C 13.5 g/m*3 17.6 C 0 km/h
1773 18-06-2007 00:28:02 17.8 C 13.66 g/m*3 17.8 C 0 km/h
1774 18-06-2007 00:40:02 17.8 C 13.81 g/m*3 17.8 C 0 km/h
1775 18-06-2007 00:52:01 17.9 C 13.89 g/m*3 17.9 C 0 km/h
Sensor: Nr:Datum:Temp:Abs-Feuchte:Windchill:Wind:
Aussen-T/F 1776 18-06-2007 01:04:02 17.7 C 13.73 g/m*3 17.7 C 0 km/h
1777 18-06-2007 01:16:02 17.4 C 13.49 g/m*3 17.4 C 0 km/h
1778 18-06-2007 01:28:02 17.6 C 13.8 g/m*3 17.6 C 0 km/h
1779 18-06-2007 01:40:02 17.9 C 14.05 g/m*3 17.9 C 0 km/h
1780 18-06-2007 01:52:01 17.4 C 13.63 g/m*3 17.4 C 0 km/h
1781 18-06-2007 02:04:01 17.4 C 13.63 g/m*3 17.4 C 0 km/h
1782 18-06-2007 02:16:02 17.4 C 13.78 g/m*3 17.4 C 0 km/h
1783 18-06-2007 02:28:02 17.4 C 13.78 g/m*3 17.4 C 0 km/h
1784 18-06-2007 02:40:02 17.5 C 13.87 g/m*3 17.5 C 0 km/h
1785 18-06-2007 02:52:01 17.5 C 13.87 g/m*3 17.5 C 0 km/h
1786 18-06-2007 03:04:01 17.4 C 13.78 g/m*3 17.4 C 0 km/h
1787 18-06-2007 03:16:02 17.2 C 13.77 g/m*3 17.2 C 0 km/h
1788 18-06-2007 03:28:02 17.2 C 13.77 g/m*3 17.2 C 0 km/h
1789 18-06-2007 03:40:02 17.1 C 13.68 g/m*3 17.1 C 0 km/h
1790 18-06-2007 03:52:02 17.2 C 13.77 g/m*3 17.2 C 0 km/h
1791 18-06-2007 04:04:01 17.2 C 13.77 g/m*3 17.2 C 0 km/h
1792 18-06-2007 04:16:02 17 C 13.6 g/m*3 17 C 0 km/h
1793 18-06-2007 04:28:02 17 C 13.6 g/m*3 17 C 0 km/h
1794 18-06-2007 04:40:02 17 C 13.31 g/m*3 17 C 0 km/h
1795 18-06-2007 04:52:01 17 C 13.17 g/m*3 17 C 0 km/h
1796 18-06-2007 05:04:01 16.9 C 12.94 g/m*3 16.9 C 0 km/h
1797 18-06-2007 05:16:02 16.9 C 12.8 g/m*3 16.9 C 0 km/h
1798 18-06-2007 05:28:02 16.9 C 12.66 g/m*3 16.9 C 0 km/h
1799 18-06-2007 05:40:02 16.8 C 12.44 g/m*3 16.8 C 0 km/h
1800 18-06-2007 05:52:02 16.7 C 12.36 g/m*3 16.7 C 0 km/h
Sensor: Nr:Datum:Temp:Abs-Feuchte:Windchill:Wind:
Aussen-T/F 1801 18-06-2007 06:04:01 16.7 C 12.36 g/m*3 16.7 C 0 km/h
1802 18-06-2007 06:16:01 16.7 C 12.22 g/m*3 16.7 C 0 km/h
1803 18-06-2007 06:28:01 16.7 C 12.22 g/m*3 16.7 C 0 km/h
1804 18-06-2007 06:40:02 16.6 C 12.01 g/m*3 16.6 C 0 km/h
1805 18-06-2007 06:52:01 16.8 C 12.01 g/m*3 16.8 C 0 km/h
1806 18-06-2007 07:04:02 16.8 C 11.87 g/m*3 16.8 C 0 km/h
1807 18-06-2007 07:16:02 17 C 11.87 g/m*3 17 C 0 km/h
1808 18-06-2007 07:28:02 17.1 C 11.79 g/m*3 17.1 C 0 km/h
1809 18-06-2007 07:40:01 17.4 C 11.86 g/m*3 17.4 C 0 km/h
1810 18-06-2007 07:52:02 18 C 11.67 g/m*3 18 C 0 km/h
1811 18-06-2007 08:04:01 17.9 C 11.3 g/m*3 17.9 C 0 km/h
1812 18-06-2007 08:16:01 18.1 C 11.28 g/m*3 18.1 C 0 km/h
1813 18-06-2007 08:28:01 18.3 C 11.1 g/m*3 18.3 C 0 km/h
1814 18-06-2007 08:40:02 18.7 C 10.89 g/m*3 18.7 C 0 km/h
1815 18-06-2007 08:52:01 18.9 C 10.85 g/m*3 18.9 C 0 km/h
1816 18-06-2007 09:04:02 19.2 C 10.39 g/m*3 19.2 C 0 km/h
1817 18-06-2007 09:16:01 19.3 C 10.12 g/m*3 19.3 C 0 km/h
1818 18-06-2007 09:28:02 19.4 C 10.18 g/m*3 19.4 C 0 km/h
1819 18-06-2007 09:40:01 19.6 C 10.13 g/m*3 19.6 C 0 km/h
1820 18-06-2007 09:52:02 19.7 C 10.02 g/m*3 19.7 C 0 km/h
1821 18-06-2007 10:04:01 19.8 C 9.91 g/m*3 19.8 C 0 km/h
1822 18-06-2007 10:16:01 20.4 C 9.73 g/m*3 20.4 C 0 km/h
1823 18-06-2007 10:28:01 20.9 C 9.47 g/m*3 20.9 C 0 km/h
1824 18-06-2007 10:40:02 21.4 C 9 g/m*3 21.4 C 0 km/h
1825 18-06-2007 10:52:01 21.5 C 9.05 g/m*3 21.5 C 0 km/h
Sensor: Nr:Datum:Temp:Abs-Feuchte:Windchill:Wind:
Aussen-T/F 1826 18-06-2007 11:04:02 21.5 C 9.05 g/m*3 21.5 C 0 km/h
1827 18-06-2007 11:16:02 22 C 8.93 g/m*3 22 C 0 km/h
1828 18-06-2007 11:28:02 22.6 C 8.84 g/m*3 22.6 C 0 km/h
1829 18-06-2007 11:40:02 22.8 C 8.53 g/m*3 22.8 C 0 km/h
1830 18-06-2007 11:52:01 22.9 C 8.38 g/m*3 22.9 C 0 km/h
1831 18-06-2007 12:04:01 23.1 C 8.27 g/m*3 23.1 C 0 km/h
1832 18-06-2007 12:16:02 23.4 C 8.2 g/m*3 23.4 C 0 km/h
1833 18-06-2007 12:28:02 23.1 C 8.06 g/m*3 23.1 C 0 km/h
1834 18-06-2007 12:40:02 23.7 C 8.56 g/m*3 23.7 C 0 km/h
1835 18-06-2007 12:52:01 24.3 C 8.63 g/m*3 24.3 C 0 km/h
1836 18-06-2007 13:04:02 25.1 C 8.33 g/m*3 25.1 C 0 km/h
1837 18-06-2007 13:16:01 25.4 C 8.48 g/m*3 25.4 C 0 km/h
1838 18-06-2007 13:28:01 26.9 C 8.45 g/m*3 26.9 C 0 km/h
1839 18-06-2007 13:40:01 27.2 C 7.81 g/m*3 27.2 C 0 km/h
1840 18-06-2007 13:52:01 25.9 C 7.99 g/m*3 25.9 C 0 km/h
1841 18-06-2007 14:04:01 26 C 8.28 g/m*3 26 C 0 km/h
1842 18-06-2007 14:16:02 24.3 C 7.75 g/m*3 24.3 C 0 km/h
1843 18-06-2007 14:28:02 25.1 C 8.1 g/m*3 25.1 C 0 km/h
1844 18-06-2007 14:40:02 25.3 C 7.96 g/m*3 25.3 C 0 km/h
1845 18-06-2007 14:52:02 25.7 C 7.42 g/m*3 25.7 C 0 km/h
1846 18-06-2007 15:04:02 26 C 7.55 g/m*3 26 C 0 km/h
1847 18-06-2007 15:16:01 26.5 C 7.76 g/m*3 26.5 C 0 km/h
1848 18-06-2007 15:28:01 27.2 C 7.81 g/m*3 27.2 C 0 km/h
1849 18-06-2007 15:40:01 25.8 C 7.7 g/m*3 25.8 C 0 km/h
1850 18-06-2007 15:52:01 26.1 C 8.08 g/m*3 26.1 C 0 km/h
Sensor: Nr:Datum:Temp:Abs-Feuchte:Windchill:Wind:
Aussen-T/F 1851 18-06-2007 16:04:01 25.8 C 7.94 g/m*3 25.8 C 0 km/h
1852 18-06-2007 16:16:02 26.4 C 7.97 g/m*3 26.4 C 0 km/h
1853 18-06-2007 16:28:02 26.3 C 8.17 g/m*3 26.3 C 0 km/h
1854 18-06-2007 16:40:02 26.6 C 8.31 g/m*3 26.6 C 0 km/h
1855 18-06-2007 16:52:01 26.2 C 8.37 g/m*3 26.2 C 0 km/h
1856 18-06-2007 17:04:02 27 C 8.24 g/m*3 27 C 0 km/h
1857 18-06-2007 17:16:02 27.4 C 7.89 g/m*3 27.4 C 0 km/h
1858 18-06-2007 17:28:02 26.5 C 8.26 g/m*3 26.5 C 0 km/h
1859 18-06-2007 17:40:02 25.7 C 8.62 g/m*3 25.7 C 0 km/h
1860 18-06-2007 17:52:02 25 C 8.06 g/m*3 25 C 0 km/h
1861 18-06-2007 18:04:01 25.1 C 9.03 g/m*3 25.1 C 0 km/h
1862 18-06-2007 18:16:01 24.5 C 9.4 g/m*3 24.5 C 0 km/h
1863 18-06-2007 18:28:01 24 C 10.66 g/m*3 24 C 0 km/h
1864 18-06-2007 18:40:02 23.7 C 10.27 g/m*3 23.7 C 0 km/h
1865 18-06-2007 18:52:01 23.7 C 9.63 g/m*3 23.7 C 0 km/h
1866 18-06-2007 19:04:01 24.4 C 9.35 g/m*3 24.4 C 0 km/h
1867 18-06-2007 19:16:02 23.9 C 9.74 g/m*3 23.9 C 0 km/h
1868 18-06-2007 19:28:02 23.8 C 10.97 g/m*3 23.8 C 0 km/h
1869 18-06-2007 19:40:03 23.5 C 11 g/m*3 23.5 C 0 km/h
1870 18-06-2007 19:52:02 23.3 C 11.08 g/m*3 23.3 C 0 km/h
1871 18-06-2007 20:04:02 23.1 C 11.16 g/m*3 23.1 C 0 km/h
1872 18-06-2007 20:16:02 23 C 11.3 g/m*3 23 C 0 km/h
1873 18-06-2007 20:28:02 22.7 C 11.31 g/m*3 22.7 C 0 km/h
1874 18-06-2007 20:40:01 22.8 C 11.58 g/m*3 22.8 C 0 km/h
1875 18-06-2007 20:52:02 22.4 C 11.92 g/m*3 22.4 C 0 km/h
Sensor: Nr:Datum:Temp:Abs-Feuchte:Windchill:Wind:
Aussen-T/F 1876 18-06-2007 21:04:01 22.2 C 11.78 g/m*3 22.2 C 0 km/h
1877 18-06-2007 21:16:01 22 C 11.84 g/m*3 22 C 0 km/h
1878 18-06-2007 21:28:01 21.4 C 10.87 g/m*3 21.4 C 0 km/h
1879 18-06-2007 21:40:02 20.8 C 9.78 g/m*3 20.8 C 0 km/h
1880 18-06-2007 21:52:01 20.4 C 9.91 g/m*3 20.4 C 0 km/h
1881 18-06-2007 22:04:02 20.2 C 9.79 g/m*3 20.2 C 0 km/h
1882 18-06-2007 22:16:01 20 C 9.51 g/m*3 20 C 0 km/h
1883 18-06-2007 22:28:02 19.5 C 9.57 g/m*3 19.5 C 0 km/h
1884 18-06-2007 22:40:01 19 C 9.61 g/m*3 19 C 0 km/h
1885 18-06-2007 22:52:02 18.7 C 9.77 g/m*3 18.7 C 0 km/h
1886 18-06-2007 23:04:01 18.2 C 9.64 g/m*3 18.2 C 0 km/h
1887 18-06-2007 23:16:02 18.1 C 9.73 g/m*3 18.1 C 0 km/h
1888 18-06-2007 23:28:02 18 C 10.14 g/m*3 18 C 0 km/h
1889 18-06-2007 23:40:02 17.8 C 10.32 g/m*3 17.8 C 0 km/h
1890 18-06-2007 23:52:01 17.5 C 10.14 g/m*3 17.5 C 0 km/h
1891 19-06-2007 00:04:02 17.4 C 10.23 g/m*3 17.4 C 0 km/h
1892 19-06-2007 00:16:03 17.1 C 10.19 g/m*3 17.1 C 0 km/h
1893 19-06-2007 00:28:03 17 C 10.27 g/m*3 17 C 0 km/h
1894 19-06-2007 00:40:02 16.8 C 10.58 g/m*3 16.8 C 0 km/h
1895 19-06-2007 00:52:02 16.6 C 10.31 g/m*3 16.6 C 0 km/h
1896 19-06-2007 01:04:02 16.5 C 10.39 g/m*3 16.5 C 0 km/h
1897 19-06-2007 01:16:01 16.3 C 10.68 g/m*3 16.3 C 0 km/h
1898 19-06-2007 01:28:02 16.1 C 10.55 g/m*3 16.1 C 0 km/h
1899 19-06-2007 01:40:02 16 C 10.49 g/m*3 16 C 0 km/h
1900 19-06-2007 01:52:02 16.2 C 10.62 g/m*3 16.2 C 0 km/h
Sensor: Nr:Datum:Temp:Abs-Feuchte:Windchill:Wind:
Aussen-T/F 1901 19-06-2007 02:04:02 16.4 C 10.89 g/m*3 16.4 C 0 km/h
1902 19-06-2007 02:16:02 16.3 C 10.68 g/m*3 16.3 C 0 km/h
1903 19-06-2007 02:28:02 15.9 C 10.56 g/m*3 15.9 C 0 km/h
1904 19-06-2007 02:40:02 15.7 C 10.57 g/m*3 15.7 C 0 km/h
1905 19-06-2007 02:52:01 15.6 C 10.64 g/m*3 15.6 C 0 km/h
1906 19-06-2007 03:04:01 15.5 C 10.71 g/m*3 15.5 C 0 km/h
1907 19-06-2007 03:16:02 15.4 C 10.77 g/m*3 15.4 C 0 km/h
1908 19-06-2007 03:28:02 15.2 C 10.51 g/m*3 15.2 C 0 km/h
1909 19-06-2007 03:40:02 15.2 C 10.64 g/m*3 15.2 C 0 km/h
1910 19-06-2007 03:52:02 15.1 C 10.58 g/m*3 15.1 C 0 km/h
1911 19-06-2007 04:04:02 14.8 C 10.51 g/m*3 14.8 C 0 km/h
1912 19-06-2007 04:16:02 14.8 C 10.64 g/m*3 14.8 C 0 km/h
1913 19-06-2007 04:28:02 14.7 C 10.58 g/m*3 14.7 C 0 km/h
1914 19-06-2007 04:40:02 14.7 C 10.58 g/m*3 14.7 C 0 km/h
1915 19-06-2007 04:52:01 14.8 C 10.64 g/m*3 14.8 C 0 km/h
1916 19-06-2007 05:04:01 14.6 C 10.39 g/m*3 14.6 C 0 km/h
1917 19-06-2007 05:16:01 14.6 C 10.51 g/m*3 14.6 C 0 km/h
1918 19-06-2007 05:28:01 14.6 C 10.64 g/m*3 14.6 C 0 km/h
1919 19-06-2007 05:40:01 14.5 C 10.57 g/m*3 14.5 C 0 km/h
1920 19-06-2007 05:52:02 14.4 C 10.63 g/m*3 14.4 C 0 km/h
1921 19-06-2007 06:04:01 14.4 C 10.63 g/m*3 14.4 C 0 km/h
1922 19-06-2007 06:16:01 14.4 C 10.63 g/m*3 14.4 C 0 km/h
1923 19-06-2007 06:28:01 14.4 C 10.63 g/m*3 14.4 C 0 km/h
1924 19-06-2007 06:40:02 14.6 C 10.76 g/m*3 14.6 C 0 km/h
1925 19-06-2007 06:52:01 14.6 C 10.76 g/m*3 14.6 C 0 km/h
Sensor: Nr:Datum:Temp:Abs-Feuchte:Windchill:Wind:
Aussen-T/F 1926 19-06-2007 07:04:02 14.8 C 10.89 g/m*3 14.8 C 0 km/h
1927 19-06-2007 07:16:02 15 C 10.77 g/m*3 15 C 0 km/h
1928 19-06-2007 07:28:02 15.3 C 10.97 g/m*3 15.3 C 0 km/h
1929 19-06-2007 07:40:02 15.5 C 10.97 g/m*3 15.5 C 0 km/h
1930 19-06-2007 07:52:02 15.8 C 11.17 g/m*3 15.8 C 0 km/h
1931 19-06-2007 08:04:01 16 C 11.04 g/m*3 16 C 0 km/h
1932 19-06-2007 08:16:02 16.3 C 11.24 g/m*3 16.3 C 0 km/h
1933 19-06-2007 08:28:02 16.7 C 11.37 g/m*3 16.7 C 0 km/h
1934 19-06-2007 08:40:02 17.1 C 11.35 g/m*3 17.1 C 0 km/h
1935 19-06-2007 08:52:01 17.9 C 11.91 g/m*3 17.9 C 0 km/h
1936 19-06-2007 09:04:02 18.2 C 11.66 g/m*3 18.2 C 0 km/h
1937 19-06-2007 09:16:01 18.7 C 11.85 g/m*3 18.7 C 0 km/h
1938 19-06-2007 09:28:02 19.3 C 11.44 g/m*3 19.3 C 0 km/h
1939 19-06-2007 09:40:01 20.2 C 11.54 g/m*3 20.2 C 0 km/h
1940 19-06-2007 09:52:02 20.8 C 11.41 g/m*3 20.8 C 0 km/h
1941 19-06-2007 10:04:01 21.6 C 11.38 g/m*3 21.6 C 0 km/h
1942 19-06-2007 10:16:01 22.2 C 11.39 g/m*3 22.2 C 0 km/h
1943 19-06-2007 10:28:01 23.3 C 11.5 g/m*3 23.3 C 0 km/h
1944 19-06-2007 10:40:02 23.8 C 11.62 g/m*3 23.8 C 0 km/h
1945 19-06-2007 10:52:01 24.6 C 11.25 g/m*3 24.6 C 0 km/h
1946 19-06-2007 11:04:02 24.8 C 10.7 g/m*3 24.8 C 0 km/h
1947 19-06-2007 11:16:01 25.7 C 11.01 g/m*3 25.7 C 0 km/h
1948 19-06-2007 11:28:01 26.1 C 10.28 g/m*3 26.1 C 0 km/h
1949 19-06-2007 11:40:01 27.1 C 10.09 g/m*3 27.1 C 0 km/h
1950 19-06-2007 11:52:01 27.5 C 9.52 g/m*3 27.5 C 0 km/h
Sensor: Nr:Datum:Temp:Abs-Feuchte:Windchill:Wind:
Aussen-T/F 1951 19-06-2007 12:04:01 27.6 C 9.31 g/m*3 27.6 C 0 km/h
1952 19-06-2007 12:16:02 29 C 9.19 g/m*3 29 C 0 km/h
1953 19-06-2007 12:28:02 30.1 C 9.15 g/m*3 30.1 C 0 km/h
1954 19-06-2007 12:40:02 30 C 8.49 g/m*3 30 C 0 km/h
1955 19-06-2007 12:52:01 28.7 C 8.76 g/m*3 28.7 C 0 km/h
1956 19-06-2007 13:04:02 30 C 9.1 g/m*3 30 C 0 km/h
1957 19-06-2007 13:16:01 30.9 C 8.91 g/m*3 30.9 C 0 km/h
1958 19-06-2007 13:28:01 31.6 C 7.27 g/m*3 31.6 C 0 km/h
1959 19-06-2007 13:40:01 31.1 C 8.04 g/m*3 31.1 C 0 km/h
1960 19-06-2007 13:52:01 31.2 C 7.76 g/m*3 31.2 C 0 km/h
1961 19-06-2007 14:04:01 30.9 C 7.96 g/m*3 30.9 C 0 km/h
1962 19-06-2007 14:16:01 30.3 C 8.32 g/m*3 30.3 C 0 km/h
1963 19-06-2007 14:28:01 30.5 C 8.1 g/m*3 30.5 C 0 km/h
1964 19-06-2007 14:40:02 31.2 C 7.76 g/m*3 31.2 C 0 km/h
1965 19-06-2007 14:52:01 31.5 C 7.23 g/m*3 31.5 C 0 km/h
1966 19-06-2007 15:04:02 31 C 7.36 g/m*3 31 C 0 km/h
1967 19-06-2007 15:16:01 31.5 C 7.56 g/m*3 31.5 C 0 km/h
1968 19-06-2007 15:28:01 31.9 C 8.39 g/m*3 31.9 C 0 km/h
1969 19-06-2007 15:40:01 32 C 7.43 g/m*3 32 C 0 km/h
1970 19-06-2007 15:52:01 31.8 C 7.68 g/m*3 31.8 C 0 km/h
1971 19-06-2007 16:04:01 32.4 C 7.59 g/m*3 32.4 C 0 km/h
1972 19-06-2007 16:16:02 32.9 C 7.08 g/m*3 32.9 C 0 km/h
1973 19-06-2007 16:28:02 32.6 C 6.97 g/m*3 32.6 C 0 km/h
1974 19-06-2007 16:40:02 32.7 C 7.01 g/m*3 32.7 C 0 km/h
1975 19-06-2007 16:52:01 33.3 C 7.23 g/m*3 33.3 C 0 km/h
Sensor: Nr:Datum:Temp:Abs-Feuchte:Windchill:Wind:
Aussen-T/F 1976 19-06-2007 17:04:02 33 C 7.12 g/m*3 33 C 0 km/h
1977 19-06-2007 17:16:01 33.2 C 7.2 g/m*3 33.2 C 0 km/h
1978 19-06-2007 17:28:02 33.4 C 7.27 g/m*3 33.4 C 0 km/h
1979 19-06-2007 17:40:01 33.9 C 7.46 g/m*3 33.9 C 0 km/h
1980 19-06-2007 17:52:02 33.7 C 7.39 g/m*3 33.7 C 0 km/h
1981 19-06-2007 18:04:03 33.2 C 7.2 g/m*3 33.2 C 0 km/h
1982 19-06-2007 18:16:01 33.3 C 7.23 g/m*3 33.3 C 0 km/h
1983 19-06-2007 18:28:01 33.4 C 7.27 g/m*3 33.4 C 0 km/h
1984 19-06-2007 18:40:02 33.5 C 7.31 g/m*3 33.5 C 0 km/h
1985 19-06-2007 18:52:01 33.5 C 7.31 g/m*3 33.5 C 0 km/h
1986 19-06-2007 19:04:01 33.3 C 7.23 g/m*3 33.3 C 0 km/h
1987 19-06-2007 19:16:02 33 C 7.12 g/m*3 33 C 0 km/h
1988 19-06-2007 19:28:02 32.4 C 7.59 g/m*3 32.4 C 0 km/h
1989 19-06-2007 19:40:01 31.7 C 9.3 g/m*3 31.7 C 0 km/h
1990 19-06-2007 19:52:02 31.3 C 8.78 g/m*3 31.3 C 0 km/h
1991 19-06-2007 20:04:01 31.2 C 9.7 g/m*3 31.2 C 0 km/h
1992 19-06-2007 20:16:01 31.2 C 10.03 g/m*3 31.2 C 0 km/h
1993 19-06-2007 20:28:01 31 C 10.24 g/m*3 31 C 0 km/h
1994 19-06-2007 20:40:02 30.4 C 9.61 g/m*3 30.4 C 0 km/h
1995 19-06-2007 20:52:01 30 C 10.92 g/m*3 30 C 0 km/h
1996 19-06-2007 21:04:01 28.8 C 11.08 g/m*3 28.8 C 0 km/h
1997 19-06-2007 21:16:02 27.9 C 11.09 g/m*3 27.9 C 0 km/h
1998 19-06-2007 21:28:02 26.8 C 10.69 g/m*3 26.8 C 0 km/h
1999 19-06-2007 21:40:02 26.2 C 10.34 g/m*3 26.2 C 0 km/h
2000 19-06-2007 21:52:01 25.7 C 10.77 g/m*3 25.7 C 0 km/h
Sensor: Nr:Datum:Temp:Abs-Feuchte:Windchill:Wind:
Aussen-T/F 2001 19-06-2007 22:04:01 24.8 C 10.7 g/m*3 24.8 C 0 km/h
2002 19-06-2007 22:16:02 24.5 C 10.3 g/m*3 24.5 C 0 km/h
2003 19-06-2007 22:28:02 24.3 C 10.18 g/m*3 24.3 C 0 km/h
2004 19-06-2007 22:40:01 24 C 10.44 g/m*3 24 C 0 km/h
2005 19-06-2007 22:52:02 23.8 C 10.54 g/m*3 23.8 C 0 km/h
2006 19-06-2007 23:04:01 23.7 C 10.69 g/m*3 23.7 C 0 km/h
2007 19-06-2007 23:16:01 23.5 C 10.57 g/m*3 23.5 C 0 km/h
2008 19-06-2007 23:28:01 23.2 C 10.6 g/m*3 23.2 C 0 km/h
2009 19-06-2007 23:40:02 23.1 C 10.54 g/m*3 23.1 C 0 km/h
2010 19-06-2007 23:52:02 22.9 C 11.04 g/m*3 22.9 C 0 km/h
2011 20-06-2007 00:04:02 22.8 C 10.97 g/m*3 22.8 C 0 km/h
2012 20-06-2007 00:16:02 22.6 C 11.05 g/m*3 22.6 C 0 km/h
2013 20-06-2007 00:28:02 22.5 C 10.99 g/m*3 22.5 C 0 km/h
2014 20-06-2007 00:40:01 22.4 C 10.92 g/m*3 22.4 C 0 km/h
2015 20-06-2007 00:52:02 22.4 C 11.12 g/m*3 22.4 C 0 km/h
2016 20-06-2007 01:04:02 22.3 C 10.86 g/m*3 22.3 C 0 km/h
2017 20-06-2007 01:16:02 22.3 C 10.86 g/m*3 22.3 C 0 km/h
2018 20-06-2007 01:28:02 22.2 C 10.99 g/m*3 22.2 C 0 km/h
2019 20-06-2007 01:40:02 22.3 C 11.06 g/m*3 22.3 C 0 km/h
2020 20-06-2007 01:52:02 22.4 C 10.92 g/m*3 22.4 C 0 km/h
2021 20-06-2007 02:04:01 22.4 C 10.92 g/m*3 22.4 C 0 km/h
2022 20-06-2007 02:16:02 22.2 C 10.8 g/m*3 22.2 C 0 km/h
2023 20-06-2007 02:28:02 22.1 C 10.93 g/m*3 22.1 C 0 km/h
2024 20-06-2007 02:40:01 21.9 C 11 g/m*3 21.9 C 0 km/h
2025 20-06-2007 02:52:01 21.8 C 10.94 g/m*3 21.8 C 0 km/h
Sensor: Nr:Datum:Temp:Abs-Feuchte:Windchill:Wind:
Aussen-T/F 2026 20-06-2007 03:04:01 21.8 C 11.13 g/m*3 21.8 C 0 km/h
2027 20-06-2007 03:16:02 21.8 C 11.13 g/m*3 21.8 C 0 km/h
2028 20-06-2007 03:28:02 21.8 C 10.94 g/m*3 21.8 C 0 km/h
2029 20-06-2007 03:40:01 21.7 C 11.06 g/m*3 21.7 C 0 km/h
2030 20-06-2007 03:52:01 21.6 C 11.19 g/m*3 21.6 C 0 km/h
2031 20-06-2007 04:04:02 21.5 C 11.13 g/m*3 21.5 C 0 km/h
2032 20-06-2007 04:16:02 21.5 C 11.13 g/m*3 21.5 C 0 km/h
2033 20-06-2007 04:28:02 21.4 C 10.87 g/m*3 21.4 C 0 km/h
2034 20-06-2007 04:40:02 21.5 C 11.13 g/m*3 21.5 C 0 km/h
2035 20-06-2007 04:52:02 21 C 11.54 g/m*3 21 C 0 km/h
2036 20-06-2007 05:04:01 20.8 C 11.77 g/m*3 20.8 C 0 km/h
2037 20-06-2007 05:16:01 20.8 C 11.59 g/m*3 20.8 C 0 km/h
2038 20-06-2007 05:28:01 20.9 C 11.47 g/m*3 20.9 C 0 km/h
2039 20-06-2007 05:40:01 20.8 C 11.41 g/m*3 20.8 C 0 km/h
2040 20-06-2007 05:52:01 20.8 C 11.41 g/m*3 20.8 C 0 km/h
2041 20-06-2007 06:04:01 20.8 C 11.41 g/m*3 20.8 C 0 km/h
2042 20-06-2007 06:16:01 20.9 C 11.47 g/m*3 20.9 C 0 km/h
2043 20-06-2007 06:28:01 20.9 C 11.47 g/m*3 20.9 C 0 km/h
2044 20-06-2007 06:40:02 21.2 C 11.86 g/m*3 21.2 C 0 km/h
2045 20-06-2007 06:52:01 21.3 C 11.93 g/m*3 21.3 C 0 km/h
2046 20-06-2007 07:04:02 21.2 C 11.68 g/m*3 21.2 C 0 km/h
2047 20-06-2007 07:16:02 20.3 C 12.14 g/m*3 20.3 C 0 km/h
2048 20-06-2007 07:28:02 20 C 12.44 g/m*3 20 C 0 km/h
2049 20-06-2007 07:40:01 20.3 C 12.84 g/m*3 20.3 C 0 km/h
2050 20-06-2007 07:52:02 20.3 C 12.66 g/m*3 20.3 C 0 km/h
Sensor: Nr:Datum:Temp:Abs-Feuchte:Windchill:Wind:
Aussen-T/F 2051 20-06-2007 08:04:02 19.9 C 13.06 g/m*3 19.9 C 0 km/h
2052 20-06-2007 08:16:01 19.2 C 13.36 g/m*3 19.2 C 0 km/h
2053 20-06-2007 08:28:01 19.3 C 13.77 g/m*3 19.3 C 0 km/h
2054 20-06-2007 08:40:01 19.1 C 13.93 g/m*3 19.1 C 0 km/h
2055 20-06-2007 08:52:01 19.4 C 14.35 g/m*3 19.4 C 0 km/h
2056 20-06-2007 09:04:01 19.7 C 14.6 g/m*3 19.7 C 0 km/h
2057 20-06-2007 09:16:02 20.4 C 14.68 g/m*3 20.4 C 0 km/h
2058 20-06-2007 09:28:02 20.9 C 14.93 g/m*3 20.9 C 0 km/h
2059 20-06-2007 09:40:02 21.1 C 14.19 g/m*3 21.1 C 0 km/h
2060 20-06-2007 09:52:02 21.8 C 14.39 g/m*3 21.8 C 0 km/h
2061 20-06-2007 10:04:02 22.6 C 14.66 g/m*3 22.6 C 0 km/h
2062 20-06-2007 10:16:01 23.6 C 14.68 g/m*3 23.6 C 0 km/h
2063 20-06-2007 10:28:01 23.8 C 13.55 g/m*3 23.8 C 0 km/h
2064 20-06-2007 10:40:01 23.6 C 13.61 g/m*3 23.6 C 0 km/h
2065 20-06-2007 10:52:01 23.7 C 13.48 g/m*3 23.7 C 0 km/h
2066 20-06-2007 11:04:01 23.5 C 13.32 g/m*3 23.5 C 0 km/h
2067 20-06-2007 11:16:02 24 C 13.49 g/m*3 24 C 0 km/h
2068 20-06-2007 11:28:02 25 C 13.35 g/m*3 25 C 0 km/h
2069 20-06-2007 11:40:01 24.7 C 13.13 g/m*3 24.7 C 0 km/h
2070 20-06-2007 11:52:02 24.7 C 13.13 g/m*3 24.7 C 0 km/h
2071 20-06-2007 12:04:01 24.6 C 13.28 g/m*3 24.6 C 0 km/h
2072 20-06-2007 12:16:01 24.3 C 13.5 g/m*3 24.3 C 0 km/h
2073 20-06-2007 12:28:01 23.7 C 13.05 g/m*3 23.7 C 0 km/h
2074 20-06-2007 12:40:02 24.1 C 12.91 g/m*3 24.1 C 0 km/h
2075 20-06-2007 12:52:01 25.2 C 12.57 g/m*3 25.2 C 0 km/h
Sensor: Nr:Datum:Temp:Abs-Feuchte:Windchill:Wind:
Aussen-T/F 2076 20-06-2007 13:04:01 27 C 11.84 g/m*3 27 C 0 km/h
2077 20-06-2007 13:16:02 26.1 C 11.51 g/m*3 26.1 C 0 km/h
2078 20-06-2007 13:28:02 27 C 11.32 g/m*3 27 C 0 km/h
2079 20-06-2007 13:40:01 27.5 C 10.85 g/m*3 27.5 C 0 km/h
2080 20-06-2007 13:52:02 27 C 11.07 g/m*3 27 C 0 km/h
2081 20-06-2007 14:04:02 28.2 C 11 g/m*3 28.2 C 0 km/h
2082 20-06-2007 14:16:01 28.6 C 10.68 g/m*3 28.6 C 0 km/h
2083 20-06-2007 14:28:01 28.7 C 11.02 g/m*3 28.7 C 0 km/h
2084 20-06-2007 14:40:02 28.1 C 10.66 g/m*3 28.1 C 0 km/h
2085 20-06-2007 14:52:01 28 C 10.88 g/m*3 28 C 0 km/h
2086 20-06-2007 15:04:01 27.6 C 11.17 g/m*3 27.6 C 0 km/h
2087 20-06-2007 15:16:02 27.1 C 11.13 g/m*3 27.1 C 0 km/h
2088 20-06-2007 15:28:02 26.8 C 10.94 g/m*3 26.8 C 0 km/h
2089 20-06-2007 15:40:01 27.4 C 11.05 g/m*3 27.4 C 0 km/h
2090 20-06-2007 15:52:02 28 C 10.88 g/m*3 28 C 0 km/h
2091 20-06-2007 16:04:02 28.2 C 10.45 g/m*3 28.2 C 0 km/h
2092 20-06-2007 16:16:01 29.2 C 10.45 g/m*3 29.2 C 0 km/h
2093 20-06-2007 16:28:01 29.7 C 9.85 g/m*3 29.7 C 0 km/h
2094 20-06-2007 16:40:01 30.1 C 10.37 g/m*3 30.1 C 0 km/h
2095 20-06-2007 16:52:02 30.3 C 10.17 g/m*3 30.3 C 0 km/h
2096 20-06-2007 17:04:01 29 C 10.05 g/m*3 29 C 0 km/h
2097 20-06-2007 17:16:02 27.5 C 11.11 g/m*3 27.5 C 0 km/h
2098 20-06-2007 17:28:02 27.4 C 11.58 g/m*3 27.4 C 0 km/h
2099 20-06-2007 17:40:02 27 C 11.32 g/m*3 27 C 0 km/h
2100 20-06-2007 17:52:02 27.1 C 11.39 g/m*3 27.1 C 0 km/h
Sensor: Nr:Datum:Temp:Abs-Feuchte:Windchill:Wind:
Aussen-T/F 2101 20-06-2007 18:04:02 26.9 C 11.52 g/m*3 26.9 C 0 km/h
2102 20-06-2007 18:16:02 26.9 C 11.52 g/m*3 26.9 C 0 km/h
2103 20-06-2007 18:28:02 26.7 C 11.64 g/m*3 26.7 C 0 km/h
2104 20-06-2007 18:40:01 26.4 C 11.2 g/m*3 26.4 C 0 km/h
2105 20-06-2007 18:52:02 26.1 C 11.26 g/m*3 26.1 C 0 km/h
2106 20-06-2007 19:04:01 25.1 C 11.11 g/m*3 25.1 C 0 km/h
2107 20-06-2007 19:16:01 25 C 11.28 g/m*3 25 C 0 km/h
2108 20-06-2007 19:28:01 25.3 C 11.24 g/m*3 25.3 C 0 km/h
2109 20-06-2007 19:40:02 25.4 C 11.77 g/m*3 25.4 C 0 km/h
2110 20-06-2007 19:52:01 25.2 C 11.17 g/m*3 25.2 C 0 km/h
2111 20-06-2007 20:04:02 25 C 11.28 g/m*3 25 C 0 km/h
2112 20-06-2007 20:16:02 25 C 11.28 g/m*3 25 C 0 km/h
2113 20-06-2007 20:28:02 24.9 C 12.13 g/m*3 24.9 C 0 km/h
2114 20-06-2007 20:40:01 24.6 C 11.7 g/m*3 24.6 C 0 km/h
2115 20-06-2007 20:52:02 24.3 C 12.17 g/m*3 24.3 C 0 km/h
2116 20-06-2007 21:04:01 24.1 C 12.03 g/m*3 24.1 C 0 km/h
2117 20-06-2007 21:16:01 23.8 C 12.26 g/m*3 23.8 C 0 km/h
2118 20-06-2007 21:28:01 23.4 C 12.2 g/m*3 23.4 C 0 km/h
2119 20-06-2007 21:40:02 23 C 11.3 g/m*3 23 C 0 km/h
2120 20-06-2007 21:52:01 23.1 C 11.78 g/m*3 23.1 C 0 km/h
2121 20-06-2007 22:04:02 22.6 C 11.45 g/m*3 22.6 C 0 km/h
2122 20-06-2007 22:16:02 22.4 C 11.72 g/m*3 22.4 C 0 km/h
2123 20-06-2007 22:28:02 22.2 C 11.58 g/m*3 22.2 C 0 km/h
2124 20-06-2007 22:40:02 22.1 C 11.52 g/m*3 22.1 C 0 km/h
2125 20-06-2007 22:52:01 22.1 C 11.52 g/m*3 22.1 C 0 km/h
Sensor: Nr:Datum:Temp:Abs-Feuchte:Windchill:Wind:
Aussen-T/F 2126 20-06-2007 23:04:02 22 C 11.45 g/m*3 22 C 0 km/h
2127 20-06-2007 23:16:01 21.7 C 11.64 g/m*3 21.7 C 0 km/h
2128 20-06-2007 23:28:02 21.8 C 11.7 g/m*3 21.8 C 0 km/h
2129 20-06-2007 23:40:01 21.7 C 11.64 g/m*3 21.7 C 0 km/h
2130 20-06-2007 23:52:02 21.6 C 11.57 g/m*3 21.6 C 0 km/h
2131 21-06-2007 00:04:02 21.4 C 11.62 g/m*3 21.4 C 0 km/h
2132 21-06-2007 00:16:02 21.3 C 11.37 g/m*3 21.3 C 0 km/h
2133 21-06-2007 00:28:02 21.4 C 11.44 g/m*3 21.4 C 0 km/h
2134 21-06-2007 00:40:01 21.3 C 11.56 g/m*3 21.3 C 0 km/h
2135 21-06-2007 00:52:02 21.2 C 11.49 g/m*3 21.2 C 0 km/h
2136 21-06-2007 01:04:01 21 C 11.54 g/m*3 21 C 0 km/h
2137 21-06-2007 01:16:01 20.8 C 11.41 g/m*3 20.8 C 0 km/h
2138 21-06-2007 01:28:01 20.8 C 11.59 g/m*3 20.8 C 0 km/h
2139 21-06-2007 01:40:02 20.9 C 11.66 g/m*3 20.9 C 0 km/h
2140 21-06-2007 01:52:02 20.7 C 11.52 g/m*3 20.7 C 0 km/h
2141 21-06-2007 02:04:01 20.6 C 11.63 g/m*3 20.6 C 0 km/h
2142 21-06-2007 02:16:01 20.3 C 11.26 g/m*3 20.3 C 0 km/h
2143 21-06-2007 02:28:01 20.4 C 11.68 g/m*3 20.4 C 0 km/h
2144 21-06-2007 02:40:02 20.4 C 12.03 g/m*3 20.4 C 0 km/h
2145 21-06-2007 02:52:02 20.4 C 12.03 g/m*3 20.4 C 0 km/h
2146 21-06-2007 03:04:02 20.2 C 11.71 g/m*3 20.2 C 0 km/h
2147 21-06-2007 03:16:01 19.7 C 11.55 g/m*3 19.7 C 0 km/h
2148 21-06-2007 03:28:01 19.6 C 11.65 g/m*3 19.6 C 0 km/h
2149 21-06-2007 03:40:02 19.7 C 11.89 g/m*3 19.7 C 0 km/h
2150 21-06-2007 03:52:02 19.7 C 12.06 g/m*3 19.7 C 0 km/h
Sensor: Nr:Datum:Temp:Abs-Feuchte:Windchill:Wind:
Aussen-T/F 2151 21-06-2007 04:04:01 19.7 C 12.06 g/m*3 19.7 C 0 km/h
2152 21-06-2007 04:16:02 19.7 C 12.06 g/m*3 19.7 C 0 km/h
2153 21-06-2007 04:28:02 19.7 C 12.06 g/m*3 19.7 C 0 km/h
2154 21-06-2007 04:40:02 19.8 C 12.13 g/m*3 19.8 C 0 km/h
2155 21-06-2007 04:52:02 19.5 C 11.75 g/m*3 19.5 C 0 km/h
2156 21-06-2007 05:04:02 19.4 C 11.68 g/m*3 19.4 C 0 km/h
2157 21-06-2007 05:16:02 19.3 C 11.61 g/m*3 19.3 C 0 km/h
2158 21-06-2007 05:28:03 19.2 C 11.54 g/m*3 19.2 C 0 km/h
2159 21-06-2007 05:40:01 19.2 C 11.54 g/m*3 19.2 C 0 km/h
2160 21-06-2007 05:52:01 19.3 C 11.61 g/m*3 19.3 C 0 km/h
2161 21-06-2007 06:04:02 19.2 C 11.54 g/m*3 19.2 C 0 km/h
2162 21-06-2007 06:16:02 19.2 C 11.54 g/m*3 19.2 C 0 km/h
2163 21-06-2007 06:28:02 19.3 C 11.78 g/m*3 19.3 C 0 km/h
2164 21-06-2007 06:40:01 19.4 C 11.85 g/m*3 19.4 C 0 km/h
2165 21-06-2007 06:52:02 19.4 C 11.85 g/m*3 19.4 C 0 km/h
2166 21-06-2007 07:04:01 19.4 C 11.85 g/m*3 19.4 C 0 km/h
2167 21-06-2007 07:16:01 19.6 C 11.99 g/m*3 19.6 C 0 km/h
2168 21-06-2007 07:28:01 19.8 C 11.79 g/m*3 19.8 C 0 km/h
2169 21-06-2007 07:40:02 19.9 C 11.68 g/m*3 19.9 C 0 km/h
2170 21-06-2007 07:52:01 20 C 11.58 g/m*3 20 C 0 km/h
2171 21-06-2007 08:04:02 19.8 C 11.79 g/m*3 19.8 C 0 km/h
2172 21-06-2007 08:16:02 18.9 C 12.47 g/m*3 18.9 C 0 km/h
2173 21-06-2007 08:28:02 18.5 C 13.13 g/m*3 18.5 C 0 km/h
2174 21-06-2007 08:40:01 18.5 C 13.61 g/m*3 18.5 C 0 km/h
2175 21-06-2007 08:52:02 18.4 C 13.68 g/m*3 18.4 C 0 km/h
Sensor: Nr:Datum:Temp:Abs-Feuchte:Windchill:Wind:
Aussen-T/F 2176 21-06-2007 09:04:01 18.2 C 13.68 g/m*3 18.2 C 0 km/h
2177 21-06-2007 09:16:01 18.1 C 13.75 g/m*3 18.1 C 0 km/h
2178 21-06-2007 09:28:01 18.2 C 13.99 g/m*3 18.2 C 0 km/h
2179 21-06-2007 09:40:02 18.3 C 14.07 g/m*3 18.3 C 0 km/h
2180 21-06-2007 09:52:01 18.2 C 13.99 g/m*3 18.2 C 0 km/h
2181 21-06-2007 10:04:02 18.4 C 14.31 g/m*3 18.4 C 0 km/h
2182 21-06-2007 10:16:02 18.8 C 14.66 g/m*3 18.8 C 0 km/h
2183 21-06-2007 10:28:02 18.9 C 14.74 g/m*3 18.9 C 0 km/h
2184 21-06-2007 10:40:01 19.2 C 14.84 g/m*3 19.2 C 0 km/h
2185 21-06-2007 10:52:02 19.3 C 14.76 g/m*3 19.3 C 0 km/h
2186 21-06-2007 11:04:02 19.3 C 14.6 g/m*3 19.3 C 0 km/h
2187 21-06-2007 11:16:01 19 C 14.18 g/m*3 19 C 0 km/h
2188 21-06-2007 11:28:01 19.1 C 14.1 g/m*3 19.1 C 0 km/h
2189 21-06-2007 11:40:01 19.8 C 14.86 g/m*3 19.8 C 0 km/h
2190 21-06-2007 11:52:02 19.6 C 14.18 g/m*3 19.6 C 0 km/h
2191 21-06-2007 12:04:01 19.7 C 14.26 g/m*3 19.7 C 0 km/h
2192 21-06-2007 12:16:02 19.8 C 14.52 g/m*3 19.8 C 0 km/h
2193 21-06-2007 12:28:02 19.9 C 14.6 g/m*3 19.9 C 0 km/h
2194 21-06-2007 12:40:02 19.6 C 14.18 g/m*3 19.6 C 0 km/h
2195 21-06-2007 12:52:01 19.3 C 14.1 g/m*3 19.3 C 0 km/h
2196 21-06-2007 13:04:02 19.1 C 14.1 g/m*3 19.1 C 0 km/h
2197 21-06-2007 13:16:01 18.7 C 14.09 g/m*3 18.7 C 0 km/h
2198 21-06-2007 13:28:01 18.1 C 13.6 g/m*3 18.1 C 0 km/h
2199 21-06-2007 13:40:01 17.4 C 13.34 g/m*3 17.4 C 0 km/h
2200 21-06-2007 13:52:02 17.3 C 13.55 g/m*3 17.3 C 0 km/h
Sensor: Nr:Datum:Temp:Abs-Feuchte:Windchill:Wind:
Aussen-T/F 2201 21-06-2007 14:04:01 17.1 C 13.39 g/m*3 17.1 C 0 km/h
2202 21-06-2007 14:16:01 17 C 13.31 g/m*3 17 C 0 km/h
2203 21-06-2007 14:28:01 17.4 C 13.63 g/m*3 17.4 C 0 km/h
2204 21-06-2007 14:40:02 17.7 C 13.73 g/m*3 17.7 C 0 km/h
2205 21-06-2007 14:52:01 17.9 C 13.44 g/m*3 17.9 C 0 km/h
2206 21-06-2007 15:04:02 17.8 C 13.05 g/m*3 17.8 C 0 km/h
2207 21-06-2007 15:16:01 17.9 C 13.13 g/m*3 17.9 C 0 km/h
2208 21-06-2007 15:28:01 17.9 C 12.83 g/m*3 17.9 C 0 km/h
2209 21-06-2007 15:40:02 17.9 C 12.83 g/m*3 17.9 C 0 km/h
2210 21-06-2007 15:52:01 17.5 C 12.52 g/m*3 17.5 C 0 km/h
2211 21-06-2007 16:04:02 17.7 C 12.82 g/m*3 17.7 C 0 km/h
2212 21-06-2007 16:16:01 17.6 C 12.45 g/m*3 17.6 C 0 km/h
2213 21-06-2007 16:28:01 17.4 C 12.3 g/m*3 17.4 C 0 km/h
2214 21-06-2007 16:40:01 17.2 C 12.15 g/m*3 17.2 C 0 km/h
2215 21-06-2007 16:52:01 17.7 C 12.37 g/m*3 17.7 C 0 km/h
2216 21-06-2007 17:04:02 17.2 C 11.86 g/m*3 17.2 C 0 km/h
2217 21-06-2007 17:16:02 17 C 11.72 g/m*3 17 C 0 km/h
2218 21-06-2007 17:28:02 16.9 C 11.94 g/m*3 16.9 C 0 km/h
2219 21-06-2007 17:40:01 17 C 11.87 g/m*3 17 C 0 km/h
2220 21-06-2007 17:52:02 16.9 C 11.94 g/m*3 16.9 C 0 km/h
2221 21-06-2007 18:04:01 16.8 C 11.72 g/m*3 16.8 C 0 km/h
2222 21-06-2007 18:16:01 17.3 C 12.08 g/m*3 17.3 C 0 km/h
2223 21-06-2007 18:28:01 17.4 C 11.71 g/m*3 17.4 C 0 km/h
2224 21-06-2007 18:40:02 17.6 C 11.85 g/m*3 17.6 C 0 km/h
2225 21-06-2007 18:52:01 17.3 C 11.49 g/m*3 17.3 C 0 km/h
Sensor: Nr:Datum:Temp:Abs-Feuchte:Windchill:Wind:
Aussen-T/F 2226 21-06-2007 19:04:02 17.5 C 11.63 g/m*3 17.5 C 0 km/h
2227 21-06-2007 19:16:01 17.7 C 12.07 g/m*3 17.7 C 0 km/h
2228 21-06-2007 19:28:01 17.5 C 11.78 g/m*3 17.5 C 0 km/h
2229 21-06-2007 19:40:01 17.4 C 12.15 g/m*3 17.4 C 0 km/h
2230 21-06-2007 19:52:01 17 C 11.58 g/m*3 17 C 0 km/h
2231 21-06-2007 20:04:01 16.9 C 11.79 g/m*3 16.9 C 0 km/h
2232 21-06-2007 20:16:02 16.8 C 11.72 g/m*3 16.8 C 0 km/h
2233 21-06-2007 20:28:02 16.9 C 11.65 g/m*3 16.9 C 0 km/h
2234 21-06-2007 20:40:02 16.9 C 11.79 g/m*3 16.9 C 0 km/h
2235 21-06-2007 20:52:01 17 C 11.87 g/m*3 17 C 0 km/h
2236 21-06-2007 21:04:02 17 C 12.01 g/m*3 17 C 0 km/h
2237 21-06-2007 21:16:01 16.5 C 11.65 g/m*3 16.5 C 0 km/h
2238 21-06-2007 21:28:01 16 C 11.44 g/m*3 16 C 0 km/h
2239 21-06-2007 21:40:01 15.5 C 11.24 g/m*3 15.5 C 0 km/h
2240 21-06-2007 21:52:01 15 C 11.03 g/m*3 15 C 0 km/h
2241 21-06-2007 22:04:01 14.8 C 11.15 g/m*3 14.8 C 0 km/h
2242 21-06-2007 22:16:02 14.6 C 11.01 g/m*3 14.6 C 0 km/h
2243 21-06-2007 22:28:02 14.5 C 11.07 g/m*3 14.5 C 0 km/h
2244 21-06-2007 22:40:02 14.3 C 10.93 g/m*3 14.3 C 0 km/h
2245 21-06-2007 22:52:01 14.2 C 10.87 g/m*3 14.2 C 0 km/h
2246 21-06-2007 23:04:01 14.1 C 10.92 g/m*3 14.1 C 0 km/h
2247 21-06-2007 23:16:01 14.1 C 10.92 g/m*3 14.1 C 0 km/h
2248 21-06-2007 23:28:01 14 C 10.86 g/m*3 14 C 0 km/h
2249 21-06-2007 23:40:01 13.9 C 10.91 g/m*3 13.9 C 0 km/h
2250 21-06-2007 23:52:02 13.8 C 10.84 g/m*3 13.8 C 0 km/h
Sensor: Nr:Datum:Temp:Abs-Feuchte:Windchill:Wind:
Aussen-T/F 2251 22-06-2007 00:04:02 13.7 C 10.78 g/m*3 13.7 C 0 km/h
2252 22-06-2007 00:16:02 13.7 C 10.78 g/m*3 13.7 C 0 km/h
2253 22-06-2007 00:28:02 13.8 C 10.96 g/m*3 13.8 C 0 km/h
2254 22-06-2007 00:40:02 13.8 C 10.96 g/m*3 13.8 C 0 km/h
2255 22-06-2007 00:52:02 14 C 11.1 g/m*3 14 C 0 km/h
2256 22-06-2007 01:04:02 14.1 C 11.17 g/m*3 14.1 C 0 km/h
2257 22-06-2007 01:16:02 14 C 11.1 g/m*3 14 C 0 km/h
2258 22-06-2007 01:28:02 13.7 C 10.89 g/m*3 13.7 C 0 km/h
2259 22-06-2007 01:40:02 13.5 C 10.76 g/m*3 13.5 C 0 km/h
2260 22-06-2007 01:52:01 13.5 C 10.76 g/m*3 13.5 C 0 km/h
2261 22-06-2007 02:04:01 13.4 C 10.69 g/m*3 13.4 C 0 km/h
2262 22-06-2007 02:16:01 13.7 C 11.01 g/m*3 13.7 C 0 km/h
2263 22-06-2007 02:28:02 14 C 11.22 g/m*3 14 C 0 km/h
2264 22-06-2007 02:40:01 14.1 C 11.29 g/m*3 14.1 C 0 km/h
2265 22-06-2007 02:53:12 14.1 C 11.41 g/m*3 14.1 C 0 km/h
2266 22-06-2007 03:05:12 14.2 C 11.48 g/m*3 14.2 C 0 km/h
2267 22-06-2007 03:17:12 14.2 C 11.48 g/m*3 14.2 C 0 km/h
2268 22-06-2007 03:29:12 14.2 C 11.48 g/m*3 14.2 C 0 km/h
2269 22-06-2007 03:41:03 14.2 C 11.48 g/m*3 14.2 C 0 km/h
2270 22-06-2007 03:53:03 14.2 C 11.48 g/m*3 14.2 C 0 km/h
2271 22-06-2007 04:05:02 14.2 C 11.48 g/m*3 14.2 C 0 km/h
2272 22-06-2007 04:17:02 14.3 C 11.55 g/m*3 14.3 C 0 km/h
2273 22-06-2007 04:29:02 14.3 C 11.55 g/m*3 14.3 C 0 km/h
2274 22-06-2007 04:41:02 14.2 C 11.36 g/m*3 14.2 C 0 km/h
2275 22-06-2007 04:53:03 14.2 C 11.36 g/m*3 14.2 C 0 km/h
Sensor: Nr:Datum:Temp:Abs-Feuchte:Windchill:Wind:
Aussen-T/F 2276 22-06-2007 05:05:01 14.2 C 11.36 g/m*3 14.2 C 0 km/h
2277 22-06-2007 05:17:03 14.2 C 11.36 g/m*3 14.2 C 0 km/h
2278 22-06-2007 05:29:03 14.1 C 11.17 g/m*3 14.1 C 0 km/h
2279 22-06-2007 05:41:01 14.2 C 11.23 g/m*3 14.2 C 0 km/h
2280 22-06-2007 05:53:02 14.2 C 11.23 g/m*3 14.2 C 0 km/h
2281 22-06-2007 06:05:03 14.2 C 11.23 g/m*3 14.2 C 0 km/h
2282 22-06-2007 06:17:02 14.3 C 11.3 g/m*3 14.3 C 0 km/h
2283 22-06-2007 06:29:02 14.4 C 11.25 g/m*3 14.4 C 0 km/h
2284 22-06-2007 06:41:02 14.7 C 11.58 g/m*3 14.7 C 0 km/h
2285 22-06-2007 06:53:02 14.9 C 11.6 g/m*3 14.9 C 0 km/h
2286 22-06-2007 07:05:02 14.9 C 11.6 g/m*3 14.9 C 0 km/h
2287 22-06-2007 07:17:02 14.9 C 11.47 g/m*3 14.9 C 0 km/h
2288 22-06-2007 07:29:02 15.1 C 11.35 g/m*3 15.1 C 0 km/h
2289 22-06-2007 07:41:02 15.4 C 11.3 g/m*3 15.4 C 0 km/h
2290 22-06-2007 07:53:01 15.2 C 11.03 g/m*3 15.2 C 0 km/h
2291 22-06-2007 08:05:02 15.2 C 11.03 g/m*3 15.2 C 0 km/h
2292 22-06-2007 08:17:02 14.9 C 10.96 g/m*3 14.9 C 0 km/h
2293 22-06-2007 08:29:02 14.8 C 11.02 g/m*3 14.8 C 0 km/h
2294 22-06-2007 08:41:01 14.8 C 11.15 g/m*3 14.8 C 0 km/h
2295 22-06-2007 08:53:02 14.8 C 11.27 g/m*3 14.8 C 0 km/h
2296 22-06-2007 09:05:01 15 C 11.41 g/m*3 15 C 0 km/h
2297 22-06-2007 09:17:01 15.4 C 11.43 g/m*3 15.4 C 0 km/h
2298 22-06-2007 09:29:01 15.4 C 11.17 g/m*3 15.4 C 0 km/h
2299 22-06-2007 09:41:02 15.1 C 10.97 g/m*3 15.1 C 0 km/h
2300 22-06-2007 09:53:02 14.8 C 10.89 g/m*3 14.8 C 0 km/h
Sensor: Nr:Datum:Temp:Abs-Feuchte:Windchill:Wind:
Aussen-T/F 2301 22-06-2007 10:05:03 14.6 C 10.89 g/m*3 14.6 C 0 km/h
2302 22-06-2007 10:17:02 15 C 11.28 g/m*3 15 C 0 km/h
2303 22-06-2007 10:29:03 15.2 C 11.42 g/m*3 15.2 C 0 km/h
2304 22-06-2007 10:41:02 14.9 C 11.22 g/m*3 14.9 C 0 km/h
2305 22-06-2007 10:53:02 15.5 C 11.37 g/m*3 15.5 C 0 km/h
2306 22-06-2007 11:05:01 16 C 11.58 g/m*3 16 C 0 km/h
2307 22-06-2007 11:17:02 17.2 C 11.28 g/m*3 17.2 C 0 km/h
2308 22-06-2007 11:29:02 18 C 10.91 g/m*3 18 C 0 km/h
2309 22-06-2007 11:41:01 18.5 C 10.44 g/m*3 18.5 C 0 km/h
2310 22-06-2007 11:53:02 18.2 C 10.41 g/m*3 18.2 C 0 km/h
2311 22-06-2007 12:05:02 17.5 C 9.99 g/m*3 17.5 C 0 km/h
2312 22-06-2007 12:17:02 16.7 C 10.52 g/m*3 16.7 C 0 km/h
2313 22-06-2007 12:29:02 15.9 C 10.97 g/m*3 15.9 C 0 km/h
2314 22-06-2007 12:41:01 15.4 C 11.04 g/m*3 15.4 C 0 km/h
2315 22-06-2007 12:53:02 15.5 C 11.24 g/m*3 15.5 C 0 km/h
2316 22-06-2007 13:05:01 15.7 C 11.51 g/m*3 15.7 C 0 km/h
2317 22-06-2007 13:17:02 15.7 C 11.11 g/m*3 15.7 C 0 km/h
2318 22-06-2007 13:29:02 16 C 10.9 g/m*3 16 C 0 km/h
2319 22-06-2007 13:41:02 15.8 C 10.36 g/m*3 15.8 C 0 km/h
2320 22-06-2007 13:53:03 15.8 C 10.23 g/m*3 15.8 C 0 km/h
2321 22-06-2007 14:05:02 17.6 C 10.5 g/m*3 17.6 C 0 km/h
2322 22-06-2007 14:17:02 18.7 C 10.41 g/m*3 18.7 C 0 km/h
2323 22-06-2007 14:29:02 18.9 C 9.88 g/m*3 18.9 C 0 km/h
2324 22-06-2007 14:41:02 19 C 9.29 g/m*3 19 C 0 km/h
2325 22-06-2007 14:53:02 19.2 C 8.74 g/m*3 19.2 C 0 km/h
Sensor: Nr:Datum:Temp:Abs-Feuchte:Windchill:Wind:
Aussen-T/F 2326 22-06-2007 15:05:02 19.3 C 8.79 g/m*3 19.3 C 0 km/h
2327 22-06-2007 15:17:02 19.2 C 8.57 g/m*3 19.2 C 0 km/h
2328 22-06-2007 15:29:02 20 C 8.81 g/m*3 20 C 0 km/h
2329 22-06-2007 15:41:02 20.7 C 9.36 g/m*3 20.7 C 0 km/h
2330 22-06-2007 15:53:02 20.6 C 8.77 g/m*3 20.6 C 0 km/h
2331 22-06-2007 16:05:02 21.1 C 8.66 g/m*3 21.1 C 0 km/h
2332 22-06-2007 16:17:02 20.7 C 9 g/m*3 20.7 C 0 km/h
2333 22-06-2007 16:29:02 20.5 C 8.72 g/m*3 20.5 C 0 km/h
2334 22-06-2007 16:41:03 20.6 C 8.95 g/m*3 20.6 C 0 km/h
2335 22-06-2007 16:53:02 20.2 C 8.74 g/m*3 20.2 C 0 km/h
2336 22-06-2007 17:05:02 18.8 C 9.66 g/m*3 18.8 C 0 km/h
2337 22-06-2007 17:17:02 17.2 C 10.4 g/m*3 17.2 C 0 km/h
2338 22-06-2007 17:29:02 17.7 C 11.01 g/m*3 17.7 C 0 km/h
2339 22-06-2007 17:41:02 18.8 C 10.47 g/m*3 18.8 C 0 km/h
2340 22-06-2007 17:53:02 19.9 C 10.14 g/m*3 19.9 C 0 km/h
2341 22-06-2007 18:05:02 20.1 C 9.73 g/m*3 20.1 C 0 km/h
2342 22-06-2007 18:17:03 20.9 C 9.47 g/m*3 20.9 C 0 km/h
2343 22-06-2007 18:29:03 21.3 C 9.13 g/m*3 21.3 C 0 km/h
2344 22-06-2007 18:41:02 22.5 C 8.99 g/m*3 22.5 C 0 km/h
2345 22-06-2007 18:53:02 21.2 C 9.08 g/m*3 21.2 C 0 km/h
2346 22-06-2007 19:05:02 19.8 C 9.57 g/m*3 19.8 C 0 km/h
2347 22-06-2007 19:17:02 16.7 C 10.66 g/m*3 16.7 C 0 km/h
2348 22-06-2007 19:29:02 16 C 11.04 g/m*3 16 C 0 km/h
2349 22-06-2007 19:41:02 15.6 C 11.04 g/m*3 15.6 C 0 km/h
2350 22-06-2007 19:53:01 16.3 C 11.65 g/m*3 16.3 C 0 km/h
Sensor: Nr:Datum:Temp:Abs-Feuchte:Windchill:Wind:
Aussen-T/F 2351 22-06-2007 20:05:02 17.4 C 12 g/m*3 17.4 C 0 km/h
2352 22-06-2007 20:17:02 17.5 C 11.78 g/m*3 17.5 C 0 km/h
2353 22-06-2007 20:29:03 16.7 C 11.08 g/m*3 16.7 C 0 km/h
2354 22-06-2007 20:41:01 16.3 C 11.1 g/m*3 16.3 C 0 km/h
2355 22-06-2007 20:53:02 16.3 C 11.24 g/m*3 16.3 C 0 km/h
2356 22-06-2007 21:05:01 16.4 C 11.45 g/m*3 16.4 C 0 km/h
2357 22-06-2007 21:17:02 16.4 C 11.45 g/m*3 16.4 C 0 km/h
2358 22-06-2007 21:29:02 16.1 C 11.51 g/m*3 16.1 C 0 km/h
2359 22-06-2007 21:41:02 16.1 C 11.51 g/m*3 16.1 C 0 km/h
2360 22-06-2007 21:53:03 15.5 C 11.5 g/m*3 15.5 C 0 km/h
2361 22-06-2007 22:05:02 15.2 C 11.29 g/m*3 15.2 C 0 km/h
2362 22-06-2007 22:17:02 14.8 C 11.15 g/m*3 14.8 C 0 km/h
2363 22-06-2007 22:29:02 14.6 C 11.01 g/m*3 14.6 C 0 km/h
2364 22-06-2007 22:41:02 14.4 C 10.88 g/m*3 14.4 C 0 km/h
2365 22-06-2007 22:53:02 14.2 C 10.75 g/m*3 14.2 C 0 km/h
2366 22-06-2007 23:05:02 14.1 C 10.68 g/m*3 14.1 C 0 km/h
2367 22-06-2007 23:17:02 14 C 10.49 g/m*3 14 C 0 km/h
2368 22-06-2007 23:29:02 13.8 C 10.48 g/m*3 13.8 C 0 km/h
2369 22-06-2007 23:41:02 13.7 C 10.42 g/m*3 13.7 C 0 km/h
2370 22-06-2007 23:53:02 13.6 C 10.47 g/m*3 13.6 C 0 km/h
2371 23-06-2007 00:05:02 13.6 C 10.47 g/m*3 13.6 C 0 km/h
2372 23-06-2007 00:17:02 13.7 C 10.54 g/m*3 13.7 C 0 km/h
2373 23-06-2007 00:29:02 13.8 C 10.6 g/m*3 13.8 C 0 km/h
2374 23-06-2007 00:41:02 13.8 C 10.6 g/m*3 13.8 C 0 km/h
2375 23-06-2007 00:53:02 13.9 C 10.55 g/m*3 13.9 C 0 km/h
Sensor: Nr:Datum:Temp:Abs-Feuchte:Windchill:Wind:
Aussen-T/F 2376 23-06-2007 01:05:02 14 C 10.25 g/m*3 14 C 0 km/h
2377 23-06-2007 01:17:02 14 C 10.01 g/m*3 14 C 0 km/h
2378 23-06-2007 01:29:02 14 C 10.01 g/m*3 14 C 0 km/h
2379 23-06-2007 01:41:02 14 C 10.01 g/m*3 14 C 0 km/h
2380 23-06-2007 01:53:02 13.9 C 9.95 g/m*3 13.9 C 0 km/h
2381 23-06-2007 02:05:02 14.1 C 9.71 g/m*3 14.1 C 0 km/h
2382 23-06-2007 02:17:02 14 C 9.65 g/m*3 14 C 0 km/h
2383 23-06-2007 02:29:02 14 C 9.65 g/m*3 14 C 0 km/h
2384 23-06-2007 02:41:02 14.1 C 9.71 g/m*3 14.1 C 0 km/h
2385 23-06-2007 02:53:01 14.1 C 9.59 g/m*3 14.1 C 0 km/h
2386 23-06-2007 03:05:01 14.1 C 9.59 g/m*3 14.1 C 0 km/h
2387 23-06-2007 03:17:02 14 C 9.77 g/m*3 14 C 0 km/h
2388 23-06-2007 03:29:02 13.8 C 9.89 g/m*3 13.8 C 0 km/h
2389 23-06-2007 03:41:02 13.6 C 9.77 g/m*3 13.6 C 0 km/h
2390 23-06-2007 03:53:02 13.3 C 9.7 g/m*3 13.3 C 0 km/h
2391 23-06-2007 04:05:02 13.3 C 9.94 g/m*3 13.3 C 0 km/h
2392 23-06-2007 04:17:02 13.2 C 9.87 g/m*3 13.2 C 0 km/h
2393 23-06-2007 04:29:02 13 C 9.87 g/m*3 13 C 0 km/h
2394 23-06-2007 04:41:02 13 C 9.87 g/m*3 13 C 0 km/h
2395 23-06-2007 04:53:01 12.9 C 10.03 g/m*3 12.9 C 0 km/h
2396 23-06-2007 05:05:02 13.3 C 10.28 g/m*3 13.3 C 0 km/h
2397 23-06-2007 05:17:02 13.4 C 10.35 g/m*3 13.4 C 0 km/h
2398 23-06-2007 05:29:02 13.5 C 10.41 g/m*3 13.5 C 0 km/h
2399 23-06-2007 05:41:02 13.6 C 10.47 g/m*3 13.6 C 0 km/h
2400 23-06-2007 05:53:02 13.7 C 10.54 g/m*3 13.7 C 0 km/h
Sensor: Nr:Datum:Temp:Abs-Feuchte:Windchill:Wind:
Aussen-T/F 2401 23-06-2007 06:05:01 13.8 C 10.6 g/m*3 13.8 C 0 km/h
2402 23-06-2007 06:17:01 13.9 C 10.67 g/m*3 13.9 C 0 km/h
2403 23-06-2007 06:29:01 14 C 10.61 g/m*3 14 C 0 km/h
2404 23-06-2007 06:41:02 14.1 C 10.68 g/m*3 14.1 C 0 km/h
2405 23-06-2007 06:53:01 14.1 C 10.68 g/m*3 14.1 C 0 km/h
2406 23-06-2007 07:05:02 14.2 C 10.62 g/m*3 14.2 C 0 km/h
2407 23-06-2007 07:17:01 14.4 C 10.75 g/m*3 14.4 C 0 km/h
2408 23-06-2007 07:29:01 14.4 C 10.51 g/m*3 14.4 C 0 km/h
2409 23-06-2007 07:41:01 14.4 C 10.51 g/m*3 14.4 C 0 km/h
2410 23-06-2007 07:53:01 14.2 C 10.38 g/m*3 14.2 C 0 km/h
2411 23-06-2007 08:05:01 14.1 C 10.56 g/m*3 14.1 C 0 km/h
2412 23-06-2007 08:17:02 14.3 C 10.69 g/m*3 14.3 C 0 km/h
2413 23-06-2007 08:29:02 14.5 C 10.82 g/m*3 14.5 C 0 km/h
2414 23-06-2007 08:41:03 14.6 C 10.89 g/m*3 14.6 C 0 km/h
2415 23-06-2007 08:53:02 15.3 C 10.84 g/m*3 15.3 C 0 km/h
2416 23-06-2007 09:05:01 15 C 10.51 g/m*3 15 C 0 km/h
2417 23-06-2007 09:17:01 15.8 C 10.9 g/m*3 15.8 C 0 km/h
2418 23-06-2007 09:29:01 15.9 C 10.56 g/m*3 15.9 C 0 km/h
2419 23-06-2007 09:41:02 15.8 C 10.5 g/m*3 15.8 C 0 km/h
2420 23-06-2007 09:53:01 16.3 C 10.68 g/m*3 16.3 C 0 km/h
2421 23-06-2007 10:05:02 17.3 C 10.61 g/m*3 17.3 C 0 km/h
2422 23-06-2007 10:17:02 17.6 C 10.2 g/m*3 17.6 C 0 km/h
2423 23-06-2007 10:29:02 16 C 10.08 g/m*3 16 C 0 km/h
2424 23-06-2007 10:41:01 15 C 10.64 g/m*3 15 C 0 km/h
2425 23-06-2007 10:53:01 14.7 C 10.95 g/m*3 14.7 C 0 km/h
Sensor: Nr:Datum:Temp:Abs-Feuchte:Windchill:Wind:
Aussen-T/F 2426 23-06-2007 11:05:02 14.8 C 11.02 g/m*3 14.8 C 0 km/h
2427 23-06-2007 11:17:02 15.6 C 11.57 g/m*3 15.6 C 0 km/h
2428 23-06-2007 11:29:02 16.7 C 11.65 g/m*3 16.7 C 0 km/h
2429 23-06-2007 11:41:01 17.1 C 11.21 g/m*3 17.1 C 0 km/h
2430 23-06-2007 11:53:02 17.4 C 10.37 g/m*3 17.4 C 0 km/h
2431 23-06-2007 12:05:01 17.7 C 9.96 g/m*3 17.7 C 0 km/h
2432 23-06-2007 12:17:02 18.9 C 10.04 g/m*3 18.9 C 0 km/h
2433 23-06-2007 12:29:02 19.4 C 10.01 g/m*3 19.4 C 0 km/h
2434 23-06-2007 12:41:02 19.2 C 9.89 g/m*3 19.2 C 0 km/h
2435 23-06-2007 12:53:02 18 C 10.14 g/m*3 18 C 0 km/h
2436 23-06-2007 13:05:02 17.9 C 9.92 g/m*3 17.9 C 0 km/h
2437 23-06-2007 13:17:01 17.6 C 10.35 g/m*3 17.6 C 0 km/h
2438 23-06-2007 13:29:01 16.8 C 10.58 g/m*3 16.8 C 0 km/h
2439 23-06-2007 13:41:02 17.9 C 11.15 g/m*3 17.9 C 0 km/h
2440 23-06-2007 13:53:01 18.4 C 10.85 g/m*3 18.4 C 0 km/h
2441 23-06-2007 14:05:02 19.2 C 10.39 g/m*3 19.2 C 0 km/h
2442 23-06-2007 14:17:02 20 C 9.85 g/m*3 20 C 0 km/h
2443 23-06-2007 14:29:02 20.5 C 9.79 g/m*3 20.5 C 0 km/h
2444 23-06-2007 14:41:01 21.4 C 9.56 g/m*3 21.4 C 0 km/h
2445 23-06-2007 14:53:02 20.6 C 9.49 g/m*3 20.6 C 0 km/h
2446 23-06-2007 15:05:01 19.5 C 10.74 g/m*3 19.5 C 0 km/h
2447 23-06-2007 15:17:01 18.9 C 11.34 g/m*3 18.9 C 0 km/h
2448 23-06-2007 15:29:01 18.9 C 11.34 g/m*3 18.9 C 0 km/h
2449 23-06-2007 15:41:02 18.9 C 11.34 g/m*3 18.9 C 0 km/h
2450 23-06-2007 15:53:01 18.9 C 11.34 g/m*3 18.9 C 0 km/h
Sensor: Nr:Datum:Temp:Abs-Feuchte:Windchill:Wind:
Aussen-T/F 2451 23-06-2007 16:05:02 16.4 C 11.45 g/m*3 16.4 C 0 km/h
2452 23-06-2007 16:17:01 16.7 C 11.94 g/m*3 16.7 C 0 km/h
2453 23-06-2007 16:29:01 18.2 C 13.37 g/m*3 18.2 C 0 km/h
2454 23-06-2007 16:41:01 18.9 C 12.64 g/m*3 18.9 C 0 km/h
2455 23-06-2007 16:53:02 18.6 C 11.3 g/m*3 18.6 C 0 km/h
2456 23-06-2007 17:05:02 18.1 C 11.28 g/m*3 18.1 C 0 km/h
2457 23-06-2007 17:17:01 19.3 C 11.78 g/m*3 19.3 C 0 km/h
2458 23-06-2007 17:29:01 19.5 C 11.92 g/m*3 19.5 C 0 km/h
2459 23-06-2007 17:41:02 19.8 C 11.44 g/m*3 19.8 C 0 km/h
2460 23-06-2007 17:53:01 18.9 C 10.53 g/m*3 18.9 C 0 km/h
2461 23-06-2007 18:05:01 17.5 C 11.78 g/m*3 17.5 C 0 km/h
2462 23-06-2007 18:17:02 17.9 C 11.76 g/m*3 17.9 C 0 km/h
2463 23-06-2007 18:29:02 17.7 C 10.71 g/m*3 17.7 C 0 km/h
2464 23-06-2007 18:41:01 16.8 C 11.15 g/m*3 16.8 C 0 km/h
2465 23-06-2007 18:53:02 16.8 C 11.29 g/m*3 16.8 C 0 km/h
2466 23-06-2007 19:05:01 17.1 C 10.77 g/m*3 17.1 C 0 km/h
2467 23-06-2007 19:17:02 17.6 C 10.95 g/m*3 17.6 C 0 km/h
2468 23-06-2007 19:29:02 18.5 C 10.44 g/m*3 18.5 C 0 km/h
2469 23-06-2007 19:41:01 18 C 10.14 g/m*3 18 C 0 km/h
2470 23-06-2007 19:53:02 17.7 C 10.26 g/m*3 17.7 C 0 km/h
2471 23-06-2007 20:05:01 17.4 C 10.37 g/m*3 17.4 C 0 km/h
2472 23-06-2007 20:17:02 16.6 C 10.03 g/m*3 16.6 C 0 km/h
2473 23-06-2007 20:29:02 16.4 C 10.19 g/m*3 16.4 C 0 km/h
2474 23-06-2007 20:41:01 16.3 C 10.68 g/m*3 16.3 C 0 km/h
2475 23-06-2007 20:53:01 16.2 C 10.62 g/m*3 16.2 C 0 km/h
Sensor: Nr:Datum:Temp:Abs-Feuchte:Windchill:Wind:
Aussen-T/F 2476 23-06-2007 21:05:01 16.1 C 10.83 g/m*3 16.1 C 0 km/h
2477 23-06-2007 21:17:02 16 C 10.63 g/m*3 16 C 0 km/h
2478 23-06-2007 21:29:02 16.2 C 10.2 g/m*3 16.2 C 0 km/h
2479 23-06-2007 21:41:01 16.1 C 10.01 g/m*3 16.1 C 0 km/h
2480 23-06-2007 21:53:01 16 C 9.81 g/m*3 16 C 0 km/h
2481 23-06-2007 22:05:01 16 C 9.81 g/m*3 16 C 0 km/h
2482 23-06-2007 22:17:01 15.9 C 9.89 g/m*3 15.9 C 0 km/h
2483 23-06-2007 22:29:01 15.8 C 9.83 g/m*3 15.8 C 0 km/h
2484 23-06-2007 22:41:01 15.6 C 9.84 g/m*3 15.6 C 0 km/h
2485 23-06-2007 22:53:02 15.5 C 9.91 g/m*3 15.5 C 0 km/h
2486 23-06-2007 23:05:01 15.5 C 9.78 g/m*3 15.5 C 0 km/h
2487 23-06-2007 23:17:02 15.7 C 9.9 g/m*3 15.7 C 0 km/h
2488 23-06-2007 23:29:02 15.8 C 9.83 g/m*3 15.8 C 0 km/h
2489 23-06-2007 23:41:01 15.8 C 9.83 g/m*3 15.8 C 0 km/h
2490 23-06-2007 23:53:01 15.5 C 9.91 g/m*3 15.5 C 0 km/h
2491 24-06-2007 00:05:02 15.4 C 10.12 g/m*3 15.4 C 0 km/h
2492 24-06-2007 00:17:02 15.4 C 9.99 g/m*3 15.4 C 0 km/h
2493 24-06-2007 00:29:02 15.4 C 9.99 g/m*3 15.4 C 0 km/h
2494 24-06-2007 00:41:01 15.2 C 10.12 g/m*3 15.2 C 0 km/h
2495 24-06-2007 00:53:02 14.8 C 10.13 g/m*3 14.8 C 0 km/h
2496 24-06-2007 01:05:02 15 C 10.13 g/m*3 15 C 0 km/h
2497 24-06-2007 01:17:01 14.7 C 10.07 g/m*3 14.7 C 0 km/h
2498 24-06-2007 01:29:01 14.7 C 10.07 g/m*3 14.7 C 0 km/h
2499 24-06-2007 01:41:02 14.5 C 10.07 g/m*3 14.5 C 0 km/h
2500 24-06-2007 01:53:01 14.3 C 10.07 g/m*3 14.3 C 0 km/h
Sensor: Nr:Datum:Temp:Abs-Feuchte:Windchill:Wind:
Aussen-T/F 2501 24-06-2007 02:05:01 14.2 C 10.01 g/m*3 14.2 C 0 km/h
2502 24-06-2007 02:17:02 14.1 C 10.07 g/m*3 14.1 C 0 km/h
2503 24-06-2007 02:29:02 14.1 C 10.07 g/m*3 14.1 C 0 km/h
2504 24-06-2007 02:41:02 13.9 C 10.07 g/m*3 13.9 C 0 km/h
2505 24-06-2007 02:54:05 13.7 C 10.07 g/m*3 13.7 C 0 km/h
2506 24-06-2007 03:06:05 13.5 C 9.94 g/m*3 13.5 C 0 km/h
2507 24-06-2007 03:18:05 13.2 C 9.87 g/m*3 13.2 C 0 km/h
2508 24-06-2007 03:30:05 13.3 C 10.05 g/m*3 13.3 C 0 km/h
2509 24-06-2007 03:42:03 13.4 C 10.23 g/m*3 13.4 C 0 km/h
2510 24-06-2007 03:54:03 13.6 C 10.36 g/m*3 13.6 C 0 km/h
2511 24-06-2007 04:06:04 13.7 C 10.42 g/m*3 13.7 C 0 km/h
2512 24-06-2007 04:18:03 13.7 C 10.42 g/m*3 13.7 C 0 km/h
2513 24-06-2007 04:30:03 13.7 C 10.42 g/m*3 13.7 C 0 km/h
2514 24-06-2007 04:42:02 13.9 C 10.43 g/m*3 13.9 C 0 km/h
2515 24-06-2007 04:54:02 13.9 C 10.43 g/m*3 13.9 C 0 km/h
2516 24-06-2007 05:06:01 13.9 C 10.43 g/m*3 13.9 C 0 km/h
2517 24-06-2007 05:18:02 13.9 C 10.43 g/m*3 13.9 C 0 km/h
2518 24-06-2007 05:30:02 13.9 C 10.43 g/m*3 13.9 C 0 km/h
2519 24-06-2007 05:42:01 13.9 C 10.43 g/m*3 13.9 C 0 km/h
2520 24-06-2007 05:54:02 13.9 C 10.31 g/m*3 13.9 C 0 km/h
2521 24-06-2007 06:06:02 14 C 10.25 g/m*3 14 C 0 km/h
2522 24-06-2007 06:18:02 14.1 C 10.19 g/m*3 14.1 C 0 km/h
2523 24-06-2007 06:30:02 14.2 C 10.26 g/m*3 14.2 C 0 km/h
2524 24-06-2007 06:42:02 14.4 C 10.38 g/m*3 14.4 C 0 km/h
2525 24-06-2007 06:54:02 14.7 C 10.58 g/m*3 14.7 C 0 km/h
Sensor: Nr:Datum:Temp:Abs-Feuchte:Windchill:Wind:
Aussen-T/F 2526 24-06-2007 07:06:01 14.8 C 10.51 g/m*3 14.8 C 0 km/h
2527 24-06-2007 07:18:01 15 C 10.39 g/m*3 15 C 0 km/h
2528 24-06-2007 07:30:01 15.4 C 10.25 g/m*3 15.4 C 0 km/h
2529 24-06-2007 07:42:02 15.8 C 10.36 g/m*3 15.8 C 0 km/h
2530 24-06-2007 07:54:02 15.9 C 10.16 g/m*3 15.9 C 0 km/h
2531 24-06-2007 08:06:02 16 C 9.95 g/m*3 16 C 0 km/h
2532 24-06-2007 08:18:02 16.4 C 10.19 g/m*3 16.4 C 0 km/h
2533 24-06-2007 08:30:02 16.6 C 10.17 g/m*3 16.6 C 0 km/h
2534 24-06-2007 08:42:02 16.8 C 10.15 g/m*3 16.8 C 0 km/h
2535 24-06-2007 08:54:02 17 C 9.84 g/m*3 17 C 0 km/h
2536 24-06-2007 09:06:02 17.1 C 9.9 g/m*3 17.1 C 0 km/h
2537 24-06-2007 09:18:02 17.8 C 10.02 g/m*3 17.8 C 0 km/h
2538 24-06-2007 09:30:02 18 C 9.68 g/m*3 18 C 0 km/h
2539 24-06-2007 09:42:02 18.2 C 9.79 g/m*3 18.2 C 0 km/h
2540 24-06-2007 09:54:02 18.7 C 9.77 g/m*3 18.7 C 0 km/h
2541 24-06-2007 10:06:02 18.7 C 9.61 g/m*3 18.7 C 0 km/h
2542 24-06-2007 10:18:01 19.1 C 9.34 g/m*3 19.1 C 0 km/h
2543 24-06-2007 10:30:01 20 C 9.33 g/m*3 20 C 0 km/h
2544 24-06-2007 10:42:02 20.1 C 8.69 g/m*3 20.1 C 0 km/h
2545 24-06-2007 10:54:02 20.3 C 9.15 g/m*3 20.3 C 0 km/h
2546 24-06-2007 11:06:03 20.6 C 9.13 g/m*3 20.6 C 0 km/h
2547 24-06-2007 11:18:02 21 C 8.79 g/m*3 21 C 0 km/h
2548 24-06-2007 11:30:02 21 C 8.79 g/m*3 21 C 0 km/h
2549 24-06-2007 11:42:02 21.4 C 9.19 g/m*3 21.4 C 0 km/h
2550 24-06-2007 11:54:02 21.4 C 9 g/m*3 21.4 C 0 km/h
Sensor: Nr:Datum:Temp:Abs-Feuchte:Windchill:Wind:
Aussen-T/F 2551 24-06-2007 12:06:02 21.6 C 9.1 g/m*3 21.6 C 0 km/h
2552 24-06-2007 12:18:03 21.9 C 8.68 g/m*3 21.9 C 0 km/h
2553 24-06-2007 12:30:03 21 C 8.61 g/m*3 21 C 0 km/h
2554 24-06-2007 12:42:02 20.5 C 8.54 g/m*3 20.5 C 0 km/h
2555 24-06-2007 12:54:02 20.7 C 9 g/m*3 20.7 C 0 km/h
2556 24-06-2007 13:06:02 21.2 C 8.71 g/m*3 21.2 C 0 km/h
2557 24-06-2007 13:18:01 21.5 C 8.49 g/m*3 21.5 C 0 km/h
2558 24-06-2007 13:30:01 22 C 8.54 g/m*3 22 C 0 km/h
2559 24-06-2007 13:42:02 22.4 C 8.14 g/m*3 22.4 C 0 km/h
2560 24-06-2007 13:54:01 23.6 C 8.72 g/m*3 23.6 C 0 km/h
2561 24-06-2007 14:06:01 23.5 C 8.25 g/m*3 23.5 C 0 km/h
2562 24-06-2007 14:18:02 23.9 C 8 g/m*3 23.9 C 0 km/h
2563 24-06-2007 14:30:02 23.7 C 8.13 g/m*3 23.7 C 0 km/h
2564 24-06-2007 14:42:01 24.2 C 7.92 g/m*3 24.2 C 0 km/h
2565 24-06-2007 14:54:02 24.1 C 8.31 g/m*3 24.1 C 0 km/h
2566 24-06-2007 15:06:02 23.9 C 7.79 g/m*3 23.9 C 0 km/h
2567 24-06-2007 15:18:01 23.5 C 7.61 g/m*3 23.5 C 0 km/h
2568 24-06-2007 15:30:01 23.7 C 7.91 g/m*3 23.7 C 0 km/h
2569 24-06-2007 15:42:02 23.3 C 7.32 g/m*3 23.3 C 0 km/h
2570 24-06-2007 15:54:01 24.1 C 7.88 g/m*3 24.1 C 0 km/h
2571 24-06-2007 16:06:02 24.7 C 8.15 g/m*3 24.7 C 0 km/h
2572 24-06-2007 16:18:01 24.5 C 8.06 g/m*3 24.5 C 0 km/h
2573 24-06-2007 16:30:01 24.1 C 8.31 g/m*3 24.1 C 0 km/h
2574 24-06-2007 16:42:01 24.7 C 7.92 g/m*3 24.7 C 0 km/h
2575 24-06-2007 16:54:02 25 C 8.06 g/m*3 25 C 0 km/h
Sensor: Nr:Datum:Temp:Abs-Feuchte:Windchill:Wind:
Aussen-T/F 2576 24-06-2007 17:06:02 25 C 7.6 g/m*3 25 C 0 km/h
2577 24-06-2007 17:18:03 25.3 C 7.96 g/m*3 25.3 C 0 km/h
2578 24-06-2007 17:30:03 25.3 C 7.49 g/m*3 25.3 C 0 km/h
2579 24-06-2007 17:42:02 24.8 C 7.97 g/m*3 24.8 C 0 km/h
2580 24-06-2007 17:54:02 24.6 C 8.55 g/m*3 24.6 C 0 km/h
2581 24-06-2007 18:06:02 26.1 C 7.83 g/m*3 26.1 C 0 km/h
2582 24-06-2007 18:18:02 26.4 C 7.97 g/m*3 26.4 C 0 km/h
2583 24-06-2007 18:30:03 26.3 C 8.17 g/m*3 26.3 C 0 km/h
2584 24-06-2007 18:42:02 26.3 C 7.67 g/m*3 26.3 C 0 km/h
2585 24-06-2007 18:54:02 26.6 C 9.06 g/m*3 26.6 C 0 km/h
2586 24-06-2007 19:06:02 26.1 C 10.04 g/m*3 26.1 C 0 km/h
2587 24-06-2007 19:18:01 26.2 C 8.86 g/m*3 26.2 C 0 km/h
2588 24-06-2007 19:30:01 25.1 C 9.49 g/m*3 25.1 C 0 km/h
2589 24-06-2007 19:42:01 24.7 C 10.19 g/m*3 24.7 C 0 km/h
2590 24-06-2007 19:54:02 24.6 C 10.35 g/m*3 24.6 C 0 km/h
2591 24-06-2007 20:06:01 23.3 C 10.25 g/m*3 23.3 C 0 km/h
2592 24-06-2007 20:18:01 22.9 C 10.42 g/m*3 22.9 C 0 km/h
2593 24-06-2007 20:30:01 23.3 C 10.45 g/m*3 23.3 C 0 km/h
2594 24-06-2007 20:42:01 22.9 C 10.42 g/m*3 22.9 C 0 km/h
2595 24-06-2007 20:54:02 22.8 C 10.36 g/m*3 22.8 C 0 km/h
2596 24-06-2007 21:06:02 22.1 C 10.15 g/m*3 22.1 C 0 km/h
2597 24-06-2007 21:18:02 21.1 C 9.95 g/m*3 21.1 C 0 km/h
2598 24-06-2007 21:30:02 20.3 C 10.2 g/m*3 20.3 C 0 km/h
2599 24-06-2007 21:42:02 19.9 C 9.97 g/m*3 19.9 C 0 km/h
2600 24-06-2007 21:54:01 19.5 C 9.73 g/m*3 19.5 C 0 km/h
Sensor: Nr:Datum:Temp:Abs-Feuchte:Windchill:Wind:
Aussen-T/F 2601 24-06-2007 22:06:02 19.3 C 9.79 g/m*3 19.3 C 0 km/h
2602 24-06-2007 22:18:01 19.1 C 10 g/m*3 19.1 C 0 km/h
2603 24-06-2007 22:30:01 19.1 C 10.16 g/m*3 19.1 C 0 km/h
2604 24-06-2007 22:42:01 18.9 C 10.53 g/m*3 18.9 C 0 km/h
2605 24-06-2007 22:54:02 19.1 C 10.49 g/m*3 19.1 C 0 km/h
2606 24-06-2007 23:06:02 19.1 C 10.49 g/m*3 19.1 C 0 km/h
2607 24-06-2007 23:18:03 18.9 C 10.69 g/m*3 18.9 C 0 km/h
2608 24-06-2007 23:30:03 18.8 C 10.63 g/m*3 18.8 C 0 km/h
2609 24-06-2007 23:42:02 18.7 C 10.73 g/m*3 18.7 C 0 km/h
2610 24-06-2007 23:54:02 18.9 C 10.85 g/m*3 18.9 C 0 km/h
2611 25-06-2007 00:06:01 18.9 C 10.85 g/m*3 18.9 C 0 km/h
2612 25-06-2007 00:18:02 18.7 C 11.05 g/m*3 18.7 C 0 km/h
2613 25-06-2007 00:30:02 18 C 11.52 g/m*3 18 C 0 km/h
2614 25-06-2007 00:42:01 17.4 C 12.15 g/m*3 17.4 C 0 km/h
2615 25-06-2007 00:54:02 17.5 C 12.52 g/m*3 17.5 C 0 km/h
2616 25-06-2007 01:06:02 17.7 C 12.82 g/m*3 17.7 C 0 km/h
2617 25-06-2007 01:18:03 17.5 C 12.37 g/m*3 17.5 C 0 km/h
2618 25-06-2007 01:30:03 17 C 12.15 g/m*3 17 C 0 km/h
2619 25-06-2007 01:42:03 16.8 C 12.44 g/m*3 16.8 C 0 km/h
2620 25-06-2007 01:54:02 16.7 C 12.65 g/m*3 16.7 C 0 km/h
2621 25-06-2007 02:06:01 16.6 C 12.71 g/m*3 16.6 C 0 km/h
2622 25-06-2007 02:18:02 16.6 C 12.71 g/m*3 16.6 C 0 km/h
2623 25-06-2007 02:30:02 16.2 C 12.55 g/m*3 16.2 C 0 km/h
2624 25-06-2007 02:42:02 16.1 C 12.47 g/m*3 16.1 C 0 km/h
2625 25-06-2007 02:55:04 16.2 C 12.69 g/m*3 16.2 C 0 km/h
Sensor: Nr:Datum:Temp:Abs-Feuchte:Windchill:Wind:
Aussen-T/F 2626 25-06-2007 03:07:04 16.2 C 12.69 g/m*3 16.2 C 0 km/h
2627 25-06-2007 03:19:04 16.3 C 12.9 g/m*3 16.3 C 0 km/h
2628 25-06-2007 03:31:03 16.2 C 12.82 g/m*3 16.2 C 0 km/h
2629 25-06-2007 03:43:03 16 C 12.67 g/m*3 16 C 0 km/h
2630 25-06-2007 03:55:03 16.1 C 12.75 g/m*3 16.1 C 0 km/h
2631 25-06-2007 04:07:02 16.2 C 12.96 g/m*3 16.2 C 0 km/h
2632 25-06-2007 04:19:03 16.3 C 13.04 g/m*3 16.3 C 0 km/h
2633 25-06-2007 04:31:02 16 C 12.81 g/m*3 16 C 0 km/h
2634 25-06-2007 04:43:02 15.9 C 12.73 g/m*3 15.9 C 0 km/h
2635 25-06-2007 04:55:03 15.7 C 12.58 g/m*3 15.7 C 0 km/h
2636 25-06-2007 05:07:03 15.7 C 12.58 g/m*3 15.7 C 0 km/h
2637 25-06-2007 05:19:02 15.8 C 12.79 g/m*3 15.8 C 0 km/h
2638 25-06-2007 05:31:02 15.6 C 12.63 g/m*3 15.6 C 0 km/h
2639 25-06-2007 05:43:02 15.8 C 12.79 g/m*3 15.8 C 0 km/h
2640 25-06-2007 05:55:02 15.9 C 12.87 g/m*3 15.9 C 0 km/h
2641 25-06-2007 06:07:02 16 C 12.81 g/m*3 16 C 0 km/h
2642 25-06-2007 06:19:02 16.1 C 12.75 g/m*3 16.1 C 0 km/h
2643 25-06-2007 06:31:02 16.3 C 12.9 g/m*3 16.3 C 0 km/h
2644 25-06-2007 06:43:02 16.4 C 12.98 g/m*3 16.4 C 0 km/h
2645 25-06-2007 06:55:01 16.5 C 12.78 g/m*3 16.5 C 0 km/h
2646 25-06-2007 07:07:02 16.6 C 12.57 g/m*3 16.6 C 0 km/h
2647 25-06-2007 07:19:02 16.8 C 12.44 g/m*3 16.8 C 0 km/h
2648 25-06-2007 07:31:02 16.8 C 12.3 g/m*3 16.8 C 0 km/h
2649 25-06-2007 07:43:02 16.8 C 12.15 g/m*3 16.8 C 0 km/h
2650 25-06-2007 07:55:02 16.8 C 12.01 g/m*3 16.8 C 0 km/h
Sensor: Nr:Datum:Temp:Abs-Feuchte:Windchill:Wind:
Aussen-T/F 2651 25-06-2007 08:07:02 16.2 C 12.14 g/m*3 16.2 C 0 km/h
2652 25-06-2007 08:19:02 16 C 12.4 g/m*3 16 C 0 km/h
2653 25-06-2007 08:31:02 16.4 C 12.84 g/m*3 16.4 C 0 km/h
2654 25-06-2007 08:43:02 16.8 C 13.3 g/m*3 16.8 C 0 km/h
2655 25-06-2007 08:55:02 17.2 C 13.47 g/m*3 17.2 C 0 km/h
2656 25-06-2007 09:07:01 17.8 C 14.12 g/m*3 17.8 C 0 km/h
2657 25-06-2007 09:19:01 17.9 C 14.05 g/m*3 17.9 C 0 km/h
2658 25-06-2007 09:31:02 17.9 C 13.89 g/m*3 17.9 C 0 km/h
2659 25-06-2007 09:43:02 18 C 13.82 g/m*3 18 C 0 km/h
2660 25-06-2007 09:55:02 18.5 C 14.24 g/m*3 18.5 C 0 km/h
2661 25-06-2007 10:07:02 18.9 C 14.58 g/m*3 18.9 C 0 km/h
2662 25-06-2007 10:19:02 19.6 C 15.02 g/m*3 19.6 C 0 km/h
2663 25-06-2007 10:31:02 19.4 C 14.18 g/m*3 19.4 C 0 km/h
2664 25-06-2007 10:43:02 19.5 C 13.26 g/m*3 19.5 C 0 km/h
2665 25-06-2007 10:55:02 19.2 C 12.37 g/m*3 19.2 C 0 km/h
2666 25-06-2007 11:07:02 19.2 C 12.86 g/m*3 19.2 C 0 km/h
2667 25-06-2007 11:19:02 18.1 C 12.52 g/m*3 18.1 C 0 km/h
2668 25-06-2007 11:31:02 17.5 C 12.67 g/m*3 17.5 C 0 km/h
2669 25-06-2007 11:43:02 17.2 C 12.89 g/m*3 17.2 C 0 km/h
2670 25-06-2007 11:55:03 17.2 C 13.03 g/m*3 17.2 C 0 km/h
2671 25-06-2007 12:07:02 17.2 C 12.89 g/m*3 17.2 C 0 km/h
2672 25-06-2007 12:19:02 17.7 C 12.98 g/m*3 17.7 C 0 km/h
2673 25-06-2007 12:31:02 17.3 C 12.37 g/m*3 17.3 C 0 km/h
2674 25-06-2007 12:43:02 17.2 C 12.59 g/m*3 17.2 C 0 km/h
2675 25-06-2007 12:55:01 17.5 C 12.97 g/m*3 17.5 C 0 km/h
Sensor: Nr:Datum:Temp:Abs-Feuchte:Windchill:Wind:
Aussen-T/F 2676 25-06-2007 13:07:02 20.2 C 13.11 g/m*3 20.2 C 0 km/h
2677 25-06-2007 13:19:02 21.1 C 11.98 g/m*3 21.1 C 0 km/h
2678 25-06-2007 13:31:01 20 C 11.58 g/m*3 20 C 0 km/h
2679 25-06-2007 13:43:01 20.1 C 11.47 g/m*3 20.1 C 0 km/h
2680 25-06-2007 13:55:02 19.9 C 11.34 g/m*3 19.9 C 0 km/h
2681 25-06-2007 14:07:02 19.7 C 11.38 g/m*3 19.7 C 0 km/h
2682 25-06-2007 14:19:02 20.5 C 10.68 g/m*3 20.5 C 0 km/h
2683 25-06-2007 14:31:02 21.7 C 10.68 g/m*3 21.7 C 0 km/h
2684 25-06-2007 14:43:02 22.8 C 10.57 g/m*3 22.8 C 0 km/h
2685 25-06-2007 14:55:01 22.2 C 9.82 g/m*3 22.2 C 0 km/h
2686 25-06-2007 15:07:02 22.5 C 9.39 g/m*3 22.5 C 0 km/h
2687 25-06-2007 15:19:01 22.7 C 8.49 g/m*3 22.7 C 0 km/h
2688 25-06-2007 15:31:02 21.8 C 8.83 g/m*3 21.8 C 0 km/h
2689 25-06-2007 15:43:02 20.3 C 8.44 g/m*3 20.3 C 0 km/h
2690 25-06-2007 15:55:01 20.4 C 7.78 g/m*3 20.4 C 0 km/h
2691 25-06-2007 16:07:01 19.6 C 7.6 g/m*3 19.6 C 0 km/h
2692 25-06-2007 16:19:02 18.8 C 7.41 g/m*3 18.8 C 0 km/h
2693 25-06-2007 16:31:01 19.1 C 7.7 g/m*3 19.1 C 0 km/h
2694 25-06-2007 16:43:01 19 C 7.82 g/m*3 19 C 0 km/h
2695 25-06-2007 16:55:02 19.3 C 8.13 g/m*3 19.3 C 0 km/h
2696 25-06-2007 17:07:02 20.4 C 7.96 g/m*3 20.4 C 0 km/h
2697 25-06-2007 17:19:02 21.4 C 7.87 g/m*3 21.4 C 0 km/h
2698 25-06-2007 17:31:02 21.6 C 7.59 g/m*3 21.6 C 0 km/h
2699 25-06-2007 17:43:02 22.2 C 6.87 g/m*3 22.2 C 0 km/h
2700 25-06-2007 17:55:03 20.8 C 7.24 g/m*3 20.8 C 0 km/h
Sensor: Nr:Datum:Temp:Abs-Feuchte:Windchill:Wind:
Aussen-T/F 2701 25-06-2007 18:07:02 20.6 C 7.16 g/m*3 20.6 C 0 km/h
2702 25-06-2007 18:19:02 20.7 C 7.38 g/m*3 20.7 C 0 km/h
2703 25-06-2007 18:31:03 22.1 C 6.83 g/m*3 22.1 C 0 km/h
2704 25-06-2007 18:43:03 22.3 C 6.71 g/m*3 22.3 C 0 km/h
2705 25-06-2007 18:55:02 21.9 C 6.75 g/m*3 21.9 C 0 km/h
2706 25-06-2007 19:07:02 21.5 C 6.6 g/m*3 21.5 C 0 km/h
2707 25-06-2007 19:19:03 21.2 C 6.12 g/m*3 21.2 C 0 km/h
2708 25-06-2007 19:31:02 20.4 C 5.84 g/m*3 20.4 C 0 km/h
2709 25-06-2007 19:43:03 19.4 C 6.17 g/m*3 19.4 C 0 km/h
2710 25-06-2007 19:55:02 19.5 C 6.55 g/m*3 19.5 C 0 km/h
2711 25-06-2007 20:07:01 20 C 6.39 g/m*3 20 C 0 km/h
2712 25-06-2007 20:19:02 20 C 6.57 g/m*3 20 C 0 km/h
2713 25-06-2007 20:31:02 19.8 C 6.83 g/m*3 19.8 C 0 km/h
2714 25-06-2007 20:43:02 19.7 C 6.96 g/m*3 19.7 C 0 km/h
2715 25-06-2007 20:55:03 19.3 C 6.8 g/m*3 19.3 C 0 km/h
2716 25-06-2007 21:07:02 18.7 C 7.36 g/m*3 18.7 C 0 km/h
2717 25-06-2007 21:19:02 18.1 C 7.26 g/m*3 18.1 C 0 km/h
2718 25-06-2007 21:31:02 17.8 C 7.59 g/m*3 17.8 C 0 km/h
2719 25-06-2007 21:43:02 17.3 C 7.37 g/m*3 17.3 C 0 km/h
2720 25-06-2007 21:55:02 17 C 7.52 g/m*3 17 C 0 km/h
2721 25-06-2007 22:07:01 16.7 C 7.53 g/m*3 16.7 C 0 km/h
2722 25-06-2007 22:19:02 16.1 C 7.68 g/m*3 16.1 C 0 km/h
2723 25-06-2007 22:31:02 15.7 C 7.76 g/m*3 15.7 C 0 km/h
2724 25-06-2007 22:43:02 15.4 C 7.88 g/m*3 15.4 C 0 km/h
2725 25-06-2007 22:55:02 15.1 C 7.61 g/m*3 15.1 C 0 km/h
Sensor: Nr:Datum:Temp:Abs-Feuchte:Windchill:Wind:
Aussen-T/F 2726 25-06-2007 23:07:02 14.6 C 7.38 g/m*3 14.6 C 0 km/h
2727 25-06-2007 23:19:02 14.6 C 7.51 g/m*3 14.6 C 0 km/h
2728 25-06-2007 23:31:02 14.7 C 7.68 g/m*3 14.7 C 0 km/h
2729 25-06-2007 23:43:02 14.8 C 7.47 g/m*3 14.8 C 0 km/h
2730 25-06-2007 23:55:02 15.2 C 7.27 g/m*3 15.2 C 0 km/h
2731 26-06-2007 00:07:03 15.4 C 7.09 g/m*3 15.4 C 0 km/h
2732 26-06-2007 00:19:03 15.2 C 7.14 g/m*3 15.2 C 0 km/h
2733 26-06-2007 00:31:02 14.8 C 7.35 g/m*3 14.8 C 0 km/h
2734 26-06-2007 00:43:02 14.6 C 7.38 g/m*3 14.6 C 0 km/h
2735 26-06-2007 00:55:02 14.4 C 7.42 g/m*3 14.4 C 0 km/h
2736 26-06-2007 01:07:01 14.4 C 7.54 g/m*3 14.4 C 0 km/h
2737 26-06-2007 01:19:01 14.2 C 7.33 g/m*3 14.2 C 0 km/h
2738 26-06-2007 01:31:01 14.2 C 7.45 g/m*3 14.2 C 0 km/h
2739 26-06-2007 01:43:01 14 C 7.48 g/m*3 14 C 0 km/h
2740 26-06-2007 01:55:02 13.9 C 7.43 g/m*3 13.9 C 0 km/h
2741 26-06-2007 02:07:03 13.9 C 7.55 g/m*3 13.9 C 0 km/h
2742 26-06-2007 02:19:02 13.8 C 7.51 g/m*3 13.8 C 0 km/h
2743 26-06-2007 02:31:02 13.7 C 7.34 g/m*3 13.7 C 0 km/h
2744 26-06-2007 02:43:02 13.7 C 7.46 g/m*3 13.7 C 0 km/h
2745 26-06-2007 02:55:02 13.5 C 7.49 g/m*3 13.5 C 0 km/h
2746 26-06-2007 03:07:02 13.5 C 7.49 g/m*3 13.5 C 0 km/h
2747 26-06-2007 03:19:01 13.4 C 7.44 g/m*3 13.4 C 0 km/h
2748 26-06-2007 03:31:01 13.3 C 7.63 g/m*3 13.3 C 0 km/h
2749 26-06-2007 03:43:01 13.3 C 7.63 g/m*3 13.3 C 0 km/h
2750 26-06-2007 03:55:01 13.6 C 7.53 g/m*3 13.6 C 0 km/h
Sensor: Nr:Datum:Temp:Abs-Feuchte:Windchill:Wind:
Aussen-T/F 2751 26-06-2007 04:07:02 13.9 C 7.43 g/m*3 13.9 C 0 km/h
2752 26-06-2007 04:19:02 13.9 C 7.55 g/m*3 13.9 C 0 km/h
2753 26-06-2007 04:31:02 13.8 C 7.63 g/m*3 13.8 C 0 km/h
2754 26-06-2007 04:43:02 13.6 C 7.89 g/m*3 13.6 C 0 km/h
2755 26-06-2007 04:55:02 13.4 C 8.14 g/m*3 13.4 C 0 km/h
2756 26-06-2007 05:07:02 13.5 C 8.19 g/m*3 13.5 C 0 km/h
2757 26-06-2007 05:19:02 13.5 C 8.07 g/m*3 13.5 C 0 km/h
2758 26-06-2007 05:31:01 13.3 C 8.32 g/m*3 13.3 C 0 km/h
2759 26-06-2007 05:43:01 13.1 C 8.44 g/m*3 13.1 C 0 km/h
2760 26-06-2007 05:55:01 12.5 C 8.8 g/m*3 12.5 C 0 km/h
2761 26-06-2007 06:07:02 12.3 C 8.9 g/m*3 12.3 C 0 km/h
2762 26-06-2007 06:19:01 12.4 C 9.07 g/m*3 12.4 C 0 km/h
2763 26-06-2007 06:31:01 12.5 C 9.13 g/m*3 12.5 C 0 km/h
2764 26-06-2007 06:43:01 12.4 C 9.07 g/m*3 12.4 C 0 km/h
2765 26-06-2007 06:55:02 12.5 C 9.13 g/m*3 12.5 C 0 km/h
2766 26-06-2007 07:07:02 12.6 C 9.29 g/m*3 12.6 C 0 km/h
2767 26-06-2007 07:19:02 12.5 C 9.13 g/m*3 12.5 C 0 km/h
2768 26-06-2007 07:31:01 12.4 C 9.18 g/m*3 12.4 C 0 km/h
2769 26-06-2007 07:43:01 12.4 C 9.4 g/m*3 12.4 C 0 km/h
2770 26-06-2007 07:55:01 12.7 C 9.57 g/m*3 12.7 C 0 km/h
2771 26-06-2007 08:07:02 13.2 C 9.53 g/m*3 13.2 C 0 km/h
2772 26-06-2007 08:19:02 13.4 C 9.3 g/m*3 13.4 C 0 km/h
2773 26-06-2007 08:31:01 13.8 C 9.41 g/m*3 13.8 C 0 km/h
2774 26-06-2007 08:43:01 13.7 C 9.24 g/m*3 13.7 C 0 km/h
2775 26-06-2007 08:55:02 13.3 C 9.36 g/m*3 13.3 C 0 km/h
Sensor: Nr:Datum:Temp:Abs-Feuchte:Windchill:Wind:
Aussen-T/F 2776 26-06-2007 09:07:01 13.2 C 9.53 g/m*3 13.2 C 0 km/h
2777 26-06-2007 09:19:01 13.5 C 9.71 g/m*3 13.5 C 0 km/h
2778 26-06-2007 09:31:02 13.7 C 9.59 g/m*3 13.7 C 0 km/h
2779 26-06-2007 09:43:02 14.1 C 9.47 g/m*3 14.1 C 0 km/h
2780 26-06-2007 09:55:02 14 C 9.05 g/m*3 14 C 0 km/h
2781 26-06-2007 10:07:01 13.4 C 9.42 g/m*3 13.4 C 0 km/h
2782 26-06-2007 10:19:02 13.8 C 10.01 g/m*3 13.8 C 0 km/h
2783 26-06-2007 10:31:02 14.3 C 10.07 g/m*3 14.3 C 0 km/h
2784 26-06-2007 10:43:02 15 C 8.98 g/m*3 15 C 0 km/h
2785 26-06-2007 10:55:02 14.5 C 8.83 g/m*3 14.5 C 0 km/h
2786 26-06-2007 11:07:02 13.6 C 9.3 g/m*3 13.6 C 0 km/h
2787 26-06-2007 11:19:01 13.4 C 9.42 g/m*3 13.4 C 0 km/h
2788 26-06-2007 11:31:02 13.5 C 9.59 g/m*3 13.5 C 0 km/h
2789 26-06-2007 11:43:02 13.6 C 9.77 g/m*3 13.6 C 0 km/h
2790 26-06-2007 11:55:01 13.5 C 9.94 g/m*3 13.5 C 0 km/h
2791 26-06-2007 12:07:01 13.3 C 9.94 g/m*3 13.3 C 0 km/h
2792 26-06-2007 12:19:02 13.5 C 10.29 g/m*3 13.5 C 0 km/h
2793 26-06-2007 12:31:02 14.5 C 10.7 g/m*3 14.5 C 0 km/h
2794 26-06-2007 12:43:02 15.8 C 10.5 g/m*3 15.8 C 0 km/h
2795 26-06-2007 12:55:01 16.6 C 9.89 g/m*3 16.6 C 0 km/h
2796 26-06-2007 13:07:01 16.8 C 9.87 g/m*3 16.8 C 0 km/h
2797 26-06-2007 13:19:02 16.1 C 9.05 g/m*3 16.1 C 0 km/h
2798 26-06-2007 13:31:01 13.9 C 9.83 g/m*3 13.9 C 0 km/h
2799 26-06-2007 13:43:01 13.8 C 9.77 g/m*3 13.8 C 0 km/h
2800 26-06-2007 13:55:01 13.6 C 9.89 g/m*3 13.6 C 0 km/h
Sensor: Nr:Datum:Temp:Abs-Feuchte:Windchill:Wind:
Aussen-T/F 2801 26-06-2007 14:07:02 14.4 C 10.38 g/m*3 14.4 C 0 km/h
2802 26-06-2007 14:19:01 14.6 C 10.26 g/m*3 14.6 C 0 km/h
2803 26-06-2007 14:31:02 14.1 C 9.47 g/m*3 14.1 C 0 km/h
2804 26-06-2007 14:43:02 14.1 C 9.71 g/m*3 14.1 C 0 km/h
2805 26-06-2007 14:55:01 14.7 C 9.95 g/m*3 14.7 C 0 km/h
2806 26-06-2007 15:07:01 15.7 C 9.77 g/m*3 15.7 C 0 km/h
2807 26-06-2007 15:19:02 16.4 C 8.93 g/m*3 16.4 C 0 km/h
2808 26-06-2007 15:31:01 16.8 C 8.29 g/m*3 16.8 C 0 km/h
2809 26-06-2007 15:43:02 16.4 C 7.96 g/m*3 16.4 C 0 km/h
2810 26-06-2007 15:55:02 16.5 C 8 g/m*3 16.5 C 0 km/h
2811 26-06-2007 16:07:01 16.4 C 7.82 g/m*3 16.4 C 0 km/h
2812 26-06-2007 16:19:01 16.2 C 7.58 g/m*3 16.2 C 0 km/h
2813 26-06-2007 16:31:01 13.9 C 8.75 g/m*3 13.9 C 0 km/h
2814 26-06-2007 16:43:01 13.8 C 8.7 g/m*3 13.8 C 0 km/h
2815 26-06-2007 16:55:01 13.9 C 8.51 g/m*3 13.9 C 0 km/h
2816 26-06-2007 17:07:02 14 C 8.32 g/m*3 14 C 0 km/h
2817 26-06-2007 17:19:02 14.4 C 8.03 g/m*3 14.4 C 0 km/h
2818 26-06-2007 17:31:01 14.7 C 7.81 g/m*3 14.7 C 0 km/h
2819 26-06-2007 17:43:01 14.9 C 7.9 g/m*3 14.9 C 0 km/h
2820 26-06-2007 17:55:01 15.2 C 7.53 g/m*3 15.2 C 0 km/h
2821 26-06-2007 18:07:02 14.7 C 7.55 g/m*3 14.7 C 0 km/h
2822 26-06-2007 18:19:01 14.4 C 7.42 g/m*3 14.4 C 0 km/h
2823 26-06-2007 18:31:02 14.5 C 7.46 g/m*3 14.5 C 0 km/h
2824 26-06-2007 18:43:02 14.6 C 7.26 g/m*3 14.6 C 0 km/h
2825 26-06-2007 18:55:01 15.2 C 7.01 g/m*3 15.2 C 0 km/h
Sensor: Nr:Datum:Temp:Abs-Feuchte:Windchill:Wind:
Aussen-T/F 2826 26-06-2007 19:07:02 14.8 C 6.97 g/m*3 14.8 C 0 km/h
2827 26-06-2007 19:19:02 14.7 C 7.05 g/m*3 14.7 C 0 km/h
2828 26-06-2007 19:31:01 14.7 C 6.92 g/m*3 14.7 C 0 km/h
2829 26-06-2007 19:43:01 14.6 C 6.88 g/m*3 14.6 C 0 km/h
2830 26-06-2007 19:55:02 15.1 C 6.32 g/m*3 15.1 C 0 km/h
2831 26-06-2007 20:07:01 15 C 6.28 g/m*3 15 C 0 km/h
2832 26-06-2007 20:19:01 14.4 C 6.18 g/m*3 14.4 C 0 km/h
2833 26-06-2007 20:31:01 14.2 C 6.35 g/m*3 14.2 C 0 km/h
2834 26-06-2007 20:43:01 14 C 6.39 g/m*3 14 C 0 km/h
2835 26-06-2007 20:55:02 14 C 6.39 g/m*3 14 C 0 km/h
2836 26-06-2007 21:07:01 14 C 6.51 g/m*3 14 C 0 km/h
2837 26-06-2007 21:19:01 13.8 C 6.67 g/m*3 13.8 C 0 km/h
2838 26-06-2007 21:31:02 13.5 C 6.78 g/m*3 13.5 C 0 km/h
2839 26-06-2007 21:43:02 13.4 C 6.86 g/m*3 13.4 C 0 km/h
2840 26-06-2007 21:55:02 13.4 C 6.86 g/m*3 13.4 C 0 km/h
2841 26-06-2007 22:07:02 13.1 C 7.3 g/m*3 13.1 C 0 km/h
2842 26-06-2007 22:19:03 12.6 C 7.63 g/m*3 12.6 C 0 km/h
2843 26-06-2007 22:31:02 12.4 C 7.98 g/m*3 12.4 C 0 km/h
2844 26-06-2007 22:43:02 11.9 C 7.94 g/m*3 11.9 C 0 km/h
2845 26-06-2007 22:55:01 11.8 C 8.1 g/m*3 11.8 C 0 km/h
2846 26-06-2007 23:07:01 11.6 C 8.32 g/m*3 11.6 C 0 km/h
2847 26-06-2007 23:19:02 11.3 C 8.16 g/m*3 11.3 C 0 km/h
2848 26-06-2007 23:31:01 11.1 C 7.86 g/m*3 11.1 C 0 km/h
2849 26-06-2007 23:43:01 11.2 C 7.8 g/m*3 11.2 C 0 km/h
2850 26-06-2007 23:55:02 11.3 C 7.75 g/m*3 11.3 C 0 km/h
Sensor: Nr:Datum:Temp:Abs-Feuchte:Windchill:Wind:
Aussen-T/F 2851 27-06-2007 00:07:01 11.2 C 7.6 g/m*3 11.2 C 0 km/h
2852 27-06-2007 00:19:03 10.9 C 7.66 g/m*3 10.9 C 0 km/h
2853 27-06-2007 00:31:02 10.7 C 7.56 g/m*3 10.7 C 0 km/h
2854 27-06-2007 00:43:02 10.6 C 7.61 g/m*3 10.6 C 0 km/h
2855 27-06-2007 00:55:01 10.5 C 7.66 g/m*3 10.5 C 0 km/h
2856 27-06-2007 01:07:02 10.5 C 7.57 g/m*3 10.5 C 0 km/h
2857 27-06-2007 01:19:02 10.7 C 7.46 g/m*3 10.7 C 0 km/h
2858 27-06-2007 01:31:02 10.7 C 7.27 g/m*3 10.7 C 0 km/h
2859 27-06-2007 01:43:02 10.7 C 7.27 g/m*3 10.7 C 0 km/h
2860 27-06-2007 01:55:02 10.7 C 7.27 g/m*3 10.7 C 0 km/h
2861 27-06-2007 02:07:02 10.6 C 7.22 g/m*3 10.6 C 0 km/h
2862 27-06-2007 02:19:02 10.6 C 7.22 g/m*3 10.6 C 0 km/h
2863 27-06-2007 02:31:01 10.6 C 7.22 g/m*3 10.6 C 0 km/h
2864 27-06-2007 02:43:01 10.5 C 7.18 g/m*3 10.5 C 0 km/h
2865 27-06-2007 02:55:02 10.5 C 7.18 g/m*3 10.5 C 0 km/h
2866 27-06-2007 03:07:02 10.5 C 7.08 g/m*3 10.5 C 0 km/h
2867 27-06-2007 03:19:02 10.5 C 6.89 g/m*3 10.5 C 0 km/h
2868 27-06-2007 03:31:02 10.5 C 6.89 g/m*3 10.5 C 0 km/h
2869 27-06-2007 03:43:02 10.4 C 6.94 g/m*3 10.4 C 0 km/h
2870 27-06-2007 03:55:02 10.4 C 6.94 g/m*3 10.4 C 0 km/h
2871 27-06-2007 04:07:01 10.4 C 7.04 g/m*3 10.4 C 0 km/h
2872 27-06-2007 04:19:02 10.4 C 7.04 g/m*3 10.4 C 0 km/h
2873 27-06-2007 04:31:01 10.4 C 7.04 g/m*3 10.4 C 0 km/h
2874 27-06-2007 04:43:01 10.4 C 7.04 g/m*3 10.4 C 0 km/h
2875 27-06-2007 04:55:02 10.3 C 7.09 g/m*3 10.3 C 0 km/h
Sensor: Nr:Datum:Temp:Abs-Feuchte:Windchill:Wind:
Aussen-T/F 2876 27-06-2007 05:07:01 10.1 C 7.28 g/m*3 10.1 C 0 km/h
2877 27-06-2007 05:19:02 9.9 C 7.56 g/m*3 9.9 C 0 km/h
2878 27-06-2007 05:31:02 9.7 C 7.65 g/m*3 9.7 C 0 km/h
2879 27-06-2007 05:43:02 9.6 C 7.69 g/m*3 9.6 C 0 km/h
2880 27-06-2007 05:55:01 9.6 C 7.79 g/m*3 9.6 C 0 km/h
2881 27-06-2007 06:07:02 9.6 C 7.88 g/m*3 9.6 C 0 km/h
2882 27-06-2007 06:19:01 9.7 C 7.93 g/m*3 9.7 C 0 km/h
2883 27-06-2007 06:31:01 9.9 C 7.84 g/m*3 9.9 C 0 km/h
2884 27-06-2007 06:43:01 10.1 C 7.75 g/m*3 10.1 C 0 km/h
2885 27-06-2007 06:55:01 10.2 C 7.71 g/m*3 10.2 C 0 km/h
2886 27-06-2007 07:07:01 10.4 C 7.71 g/m*3 10.4 C 0 km/h
2887 27-06-2007 07:19:01 10.8 C 7.71 g/m*3 10.8 C 0 km/h
2888 27-06-2007 07:31:02 11 C 7.51 g/m*3 11 C 0 km/h
2889 27-06-2007 07:43:02 11.2 C 7.3 g/m*3 11.2 C 0 km/h
2890 27-06-2007 07:55:01 11.3 C 7.14 g/m*3 11.3 C 0 km/h
2891 27-06-2007 08:07:01 11.2 C 7.2 g/m*3 11.2 C 0 km/h
2892 27-06-2007 08:19:02 11.4 C 7.29 g/m*3 11.4 C 0 km/h
2893 27-06-2007 08:31:01 11.7 C 7.11 g/m*3 11.7 C 0 km/h
2894 27-06-2007 08:43:01 12.4 C 6.99 g/m*3 12.4 C 0 km/h
2895 27-06-2007 08:55:02 12.2 C 6.15 g/m*3 12.2 C 0 km/h
2896 27-06-2007 09:07:01 12.8 C 5.94 g/m*3 12.8 C 0 km/h
2897 27-06-2007 09:19:01 12.5 C 5.61 g/m*3 12.5 C 0 km/h
2898 27-06-2007 09:31:02 13.2 C 5.63 g/m*3 13.2 C 0 km/h
2899 27-06-2007 09:43:02 13.4 C 5.81 g/m*3 13.4 C 0 km/h
2900 27-06-2007 09:55:01 13.1 C 5.25 g/m*3 13.1 C 0 km/h
Sensor: Nr:Datum:Temp:Abs-Feuchte:Windchill:Wind:
Aussen-T/F 2901 27-06-2007 10:07:02 13.9 C 5.63 g/m*3 13.9 C 0 km/h
2902 27-06-2007 10:19:01 13.7 C 5.57 g/m*3 13.7 C 0 km/h
2903 27-06-2007 10:31:01 14.4 C 5.44 g/m*3 14.4 C 0 km/h
2904 27-06-2007 10:43:01 14.2 C 4.64 g/m*3 14.2 C 0 km/h
2905 27-06-2007 10:55:02 14 C 4.82 g/m*3 14 C 0 km/h
2906 27-06-2007 11:07:01 15.1 C 4.64 g/m*3 15.1 C 0 km/h
2907 27-06-2007 11:19:01 15.2 C 4.67 g/m*3 15.2 C 0 km/h
2908 27-06-2007 11:31:02 15.8 C 4.44 g/m*3 15.8 C 0 km/h
2909 27-06-2007 11:43:02 16.1 C 4.25 g/m*3 16.1 C 0 km/h
2910 27-06-2007 11:55:01 16.4 C 4.89 g/m*3 16.4 C 0 km/h
2911 27-06-2007 12:07:02 16.1 C 4.52 g/m*3 16.1 C 0 km/h
2912 27-06-2007 12:19:01 16.1 C 4.8 g/m*3 16.1 C 0 km/h
2913 27-06-2007 12:31:01 16.5 C 4.21 g/m*3 16.5 C 0 km/h
2914 27-06-2007 12:43:01 18.1 C 5.1 g/m*3 18.1 C 0 km/h
2915 27-06-2007 12:55:01 18.2 C 4.66 g/m*3 18.2 C 0 km/h
2916 27-06-2007 13:07:01 18 C 4.61 g/m*3 18 C 0 km/h
2917 27-06-2007 13:19:02 18.2 C 4.66 g/m*3 18.2 C 0 km/h
2918 27-06-2007 13:31:01 16.2 C 4.96 g/m*3 16.2 C 0 km/h
2919 27-06-2007 13:43:02 15.7 C 5.22 g/m*3 15.7 C 0 km/h
2920 27-06-2007 13:55:02 16.4 C 5.44 g/m*3 16.4 C 0 km/h
2921 27-06-2007 14:07:02 17.2 C 5.13 g/m*3 17.2 C 0 km/h
2922 27-06-2007 14:19:01 17.1 C 4.66 g/m*3 17.1 C 0 km/h
2923 27-06-2007 14:31:02 16.4 C 4.89 g/m*3 16.4 C 0 km/h
2924 27-06-2007 14:43:02 16.1 C 5.21 g/m*3 16.1 C 0 km/h
2925 27-06-2007 14:55:01 17.7 C 5.58 g/m*3 17.7 C 0 km/h
Sensor: Nr:Datum:Temp:Abs-Feuchte:Windchill:Wind:
Aussen-T/F 2926 27-06-2007 15:07:02 17.7 C 5.43 g/m*3 17.7 C 0 km/h
2927 27-06-2007 15:19:02 17 C 5.35 g/m*3 17 C 0 km/h
2928 27-06-2007 15:31:01 18 C 5.38 g/m*3 18 C 0 km/h
2929 27-06-2007 15:43:01 18.7 C 5.6 g/m*3 18.7 C 0 km/h
2930 27-06-2007 15:55:02 18 C 5.53 g/m*3 18 C 0 km/h
2931 27-06-2007 16:07:01 17.3 C 5.45 g/m*3 17.3 C 0 km/h
2932 27-06-2007 16:19:02 18.6 C 5.41 g/m*3 18.6 C 0 km/h
2933 27-06-2007 16:31:01 20 C 5.7 g/m*3 20 C 0 km/h
2934 27-06-2007 16:43:02 19.4 C 5.51 g/m*3 19.4 C 0 km/h
2935 27-06-2007 16:55:02 19.9 C 5.67 g/m*3 19.9 C 0 km/h
2936 27-06-2007 17:07:01 19.5 C 5.71 g/m*3 19.5 C 0 km/h
2937 27-06-2007 17:19:01 20.2 C 5.42 g/m*3 20.2 C 0 km/h
2938 27-06-2007 17:31:02 18.7 C 5.76 g/m*3 18.7 C 0 km/h
2939 27-06-2007 17:43:02 19.7 C 5.6 g/m*3 19.7 C 0 km/h
2940 27-06-2007 17:55:01 19.9 C 5.5 g/m*3 19.9 C 0 km/h
2941 27-06-2007 18:07:02 18.7 C 5.44 g/m*3 18.7 C 0 km/h
2942 27-06-2007 18:19:01 18.9 C 5.51 g/m*3 18.9 C 0 km/h
2943 27-06-2007 18:31:01 18.3 C 5.63 g/m*3 18.3 C 0 km/h
2944 27-06-2007 18:43:01 17.9 C 5.95 g/m*3 17.9 C 0 km/h
2945 27-06-2007 18:55:01 17.9 C 6.11 g/m*3 17.9 C 0 km/h
2946 27-06-2007 19:07:01 17.7 C 6.19 g/m*3 17.7 C 0 km/h
2947 27-06-2007 19:19:02 17.6 C 6.15 g/m*3 17.6 C 0 km/h
2948 27-06-2007 19:31:02 17.4 C 6.22 g/m*3 17.4 C 0 km/h
2949 27-06-2007 19:43:02 16.8 C 6.29 g/m*3 16.8 C 0 km/h
2950 27-06-2007 19:55:02 16.7 C 6.4 g/m*3 16.7 C 0 km/h
Sensor: Nr:Datum:Temp:Abs-Feuchte:Windchill:Wind:
Aussen-T/F 2951 27-06-2007 20:07:02 16.5 C 6.46 g/m*3 16.5 C 0 km/h
2952 27-06-2007 20:19:01 16.2 C 6.34 g/m*3 16.2 C 0 km/h
2953 27-06-2007 20:31:02 16 C 6.4 g/m*3 16 C 0 km/h
2954 27-06-2007 20:43:02 15.8 C 6.46 g/m*3 15.8 C 0 km/h
2955 27-06-2007 20:55:01 15.8 C 6.6 g/m*3 15.8 C 0 km/h
2956 27-06-2007 21:07:02 15.6 C 6.52 g/m*3 15.6 C 0 km/h
2957 27-06-2007 21:19:02 15.3 C 6.53 g/m*3 15.3 C 0 km/h
2958 27-06-2007 21:31:02 15 C 6.67 g/m*3 15 C 0 km/h
2959 27-06-2007 21:43:02 14.7 C 6.8 g/m*3 14.7 C 0 km/h
2960 27-06-2007 21:55:01 14.7 C 7.05 g/m*3 14.7 C 0 km/h
2961 27-06-2007 22:07:01 14.6 C 7.01 g/m*3 14.6 C 0 km/h
2962 27-06-2007 22:19:02 14.6 C 7.13 g/m*3 14.6 C 0 km/h
2963 27-06-2007 22:31:01 14.6 C 7.13 g/m*3 14.6 C 0 km/h
2964 27-06-2007 22:43:01 14.6 C 7.13 g/m*3 14.6 C 0 km/h
2965 27-06-2007 22:55:02 14.6 C 7.13 g/m*3 14.6 C 0 km/h
2966 27-06-2007 23:07:01 14.7 C 7.05 g/m*3 14.7 C 0 km/h
2967 27-06-2007 23:19:01 14.8 C 6.97 g/m*3 14.8 C 0 km/h
2968 27-06-2007 23:31:02 14.8 C 6.97 g/m*3 14.8 C 0 km/h
2969 27-06-2007 23:43:02 14.7 C 6.92 g/m*3 14.7 C 0 km/h
2970 27-06-2007 23:55:01 14.6 C 7.01 g/m*3 14.6 C 0 km/h
2971 28-06-2007 00:07:02 14.5 C 6.96 g/m*3 14.5 C 0 km/h
2972 28-06-2007 00:19:02 14.4 C 7.05 g/m*3 14.4 C 0 km/h
2973 28-06-2007 00:31:02 14.3 C 7.13 g/m*3 14.3 C 0 km/h
2974 28-06-2007 00:43:02 14.2 C 7.2 g/m*3 14.2 C 0 km/h
2975 28-06-2007 00:55:02 14.1 C 7.28 g/m*3 14.1 C 0 km/h
Sensor: Nr:Datum:Temp:Abs-Feuchte:Windchill:Wind:
Aussen-T/F 2976 28-06-2007 01:07:01 14.1 C 7.28 g/m*3 14.1 C 0 km/h
2977 28-06-2007 01:19:02 14 C 7.48 g/m*3 14 C 0 km/h
2978 28-06-2007 01:31:02 13.9 C 7.55 g/m*3 13.9 C 0 km/h
2979 28-06-2007 01:43:02 13.9 C 7.55 g/m*3 13.9 C 0 km/h
2980 28-06-2007 01:55:02 13.8 C 7.63 g/m*3 13.8 C 0 km/h
2981 28-06-2007 02:07:02 13.8 C 7.63 g/m*3 13.8 C 0 km/h
2982 28-06-2007 02:19:01 13.8 C 7.63 g/m*3 13.8 C 0 km/h
2983 28-06-2007 02:31:01 13.8 C 7.63 g/m*3 13.8 C 0 km/h
2984 28-06-2007 02:43:01 13.8 C 7.51 g/m*3 13.8 C 0 km/h
2985 28-06-2007 02:56:06 13.8 C 7.51 g/m*3 13.8 C 0 km/h
2986 28-06-2007 03:08:06 13.7 C 7.58 g/m*3 13.7 C 0 km/h
2987 28-06-2007 03:20:07 13.7 C 7.58 g/m*3 13.7 C 0 km/h
2988 28-06-2007 03:32:02 13.6 C 7.65 g/m*3 13.6 C 0 km/h
2989 28-06-2007 03:44:02 13.6 C 7.65 g/m*3 13.6 C 0 km/h
2990 28-06-2007 03:56:02 13.5 C 7.72 g/m*3 13.5 C 0 km/h
2991 28-06-2007 04:08:02 13.5 C 7.72 g/m*3 13.5 C 0 km/h
2992 28-06-2007 04:20:02 13.6 C 7.77 g/m*3 13.6 C 0 km/h
2993 28-06-2007 04:32:02 13.5 C 7.72 g/m*3 13.5 C 0 km/h
2994 28-06-2007 04:44:02 13.5 C 7.72 g/m*3 13.5 C 0 km/h
2995 28-06-2007 04:56:02 13.5 C 7.72 g/m*3 13.5 C 0 km/h
2996 28-06-2007 05:08:02 13.5 C 7.72 g/m*3 13.5 C 0 km/h
2997 28-06-2007 05:20:03 13.6 C 7.77 g/m*3 13.6 C 0 km/h
2998 28-06-2007 05:32:03 13.5 C 7.72 g/m*3 13.5 C 0 km/h
2999 28-06-2007 05:44:03 13.5 C 7.72 g/m*3 13.5 C 0 km/h
3000 28-06-2007 05:56:03 13.3 C 7.97 g/m*3 13.3 C 0 km/h
Sensor: Nr:Datum:Temp:Abs-Feuchte:Windchill:Wind:
Aussen-T/F 3001 28-06-2007 06:08:02 13.3 C 7.97 g/m*3 13.3 C 0 km/h
3002 28-06-2007 06:20:02 13.4 C 7.9 g/m*3 13.4 C 0 km/h
3003 28-06-2007 06:32:03 13.5 C 7.95 g/m*3 13.5 C 0 km/h
3004 28-06-2007 06:44:03 13.6 C 7.89 g/m*3 13.6 C 0 km/h
3005 28-06-2007 06:56:02 13.6 C 8 g/m*3 13.6 C 0 km/h
3006 28-06-2007 07:08:03 13.7 C 8.05 g/m*3 13.7 C 0 km/h
3007 28-06-2007 07:20:02 13.7 C 7.93 g/m*3 13.7 C 0 km/h
3008 28-06-2007 07:32:02 13.9 C 8.03 g/m*3 13.9 C 0 km/h
3009 28-06-2007 07:44:02 14 C 7.96 g/m*3 14 C 0 km/h
3010 28-06-2007 07:56:01 14.1 C 7.89 g/m*3 14.1 C 0 km/h
3011 28-06-2007 08:08:01 14.3 C 7.86 g/m*3 14.3 C 0 km/h
3012 28-06-2007 08:20:02 14.5 C 7.96 g/m*3 14.5 C 0 km/h
3013 28-06-2007 08:32:01 14.5 C 7.84 g/m*3 14.5 C 0 km/h
3014 28-06-2007 08:44:02 14.4 C 7.79 g/m*3 14.4 C 0 km/h
3015 28-06-2007 08:56:02 14.8 C 7.85 g/m*3 14.8 C 0 km/h
3016 28-06-2007 09:08:02 15 C 7.57 g/m*3 15 C 0 km/h
3017 28-06-2007 09:20:01 14.8 C 7.73 g/m*3 14.8 C 0 km/h
3018 28-06-2007 09:32:02 15 C 7.69 g/m*3 15 C 0 km/h
3019 28-06-2007 09:44:02 14.8 C 7.85 g/m*3 14.8 C 0 km/h
3020 28-06-2007 09:56:01 15.1 C 7.61 g/m*3 15.1 C 0 km/h
3021 28-06-2007 10:08:02 15.4 C 7.62 g/m*3 15.4 C 0 km/h
3022 28-06-2007 10:20:01 15.9 C 7.58 g/m*3 15.9 C 0 km/h
3023 28-06-2007 10:32:01 16.3 C 7.63 g/m*3 16.3 C 0 km/h
3024 28-06-2007 10:44:01 16.5 C 7.72 g/m*3 16.5 C 0 km/h
3025 28-06-2007 10:56:02 16.5 C 7.44 g/m*3 16.5 C 0 km/h
Sensor: Nr:Datum:Temp:Abs-Feuchte:Windchill:Wind:
Aussen-T/F 3026 28-06-2007 11:08:01 15.8 C 7.67 g/m*3 15.8 C 0 km/h
3027 28-06-2007 11:20:02 15.8 C 7.27 g/m*3 15.8 C 0 km/h
3028 28-06-2007 11:32:02 16.2 C 7.58 g/m*3 16.2 C 0 km/h
3029 28-06-2007 11:44:02 16 C 7.49 g/m*3 16 C 0 km/h
3030 28-06-2007 11:56:03 15.4 C 8.15 g/m*3 15.4 C 0 km/h
3031 28-06-2007 12:08:02 17 C 7.81 g/m*3 17 C 0 km/h
3032 28-06-2007 12:20:02 17.9 C 7.48 g/m*3 17.9 C 0 km/h
3033 28-06-2007 12:32:02 16.5 C 7.16 g/m*3 16.5 C 0 km/h
3034 28-06-2007 12:44:02 15.8 C 7.81 g/m*3 15.8 C 0 km/h
3035 28-06-2007 12:56:02 13.9 C 8.63 g/m*3 13.9 C 0 km/h
3036 28-06-2007 13:08:02 15.1 C 8.77 g/m*3 15.1 C 0 km/h
3037 28-06-2007 13:20:02 15.8 C 9.02 g/m*3 15.8 C 0 km/h
3038 28-06-2007 13:32:02 18.9 C 8.42 g/m*3 18.9 C 0 km/h
3039 28-06-2007 13:44:02 18.7 C 8.97 g/m*3 18.7 C 0 km/h
3040 28-06-2007 13:56:02 17.2 C 8.49 g/m*3 17.2 C 0 km/h
3041 28-06-2007 14:08:02 16.2 C 8.14 g/m*3 16.2 C 0 km/h
3042 28-06-2007 14:20:02 16.5 C 8.57 g/m*3 16.5 C 0 km/h
3043 28-06-2007 14:32:02 16.4 C 8.1 g/m*3 16.4 C 0 km/h
3044 28-06-2007 14:44:02 16.3 C 7.21 g/m*3 16.3 C 0 km/h
3045 28-06-2007 14:56:02 17 C 6.37 g/m*3 17 C 0 km/h
3046 28-06-2007 15:08:01 18.1 C 7.11 g/m*3 18.1 C 0 km/h
3047 28-06-2007 15:20:01 19 C 6.52 g/m*3 19 C 0 km/h
3048 28-06-2007 15:32:02 19.1 C 6.39 g/m*3 19.1 C 0 km/h
3049 28-06-2007 15:44:02 18.5 C 7.12 g/m*3 18.5 C 0 km/h
3050 28-06-2007 15:56:02 19.5 C 7.22 g/m*3 19.5 C 0 km/h
Sensor: Nr:Datum:Temp:Abs-Feuchte:Windchill:Wind:
Aussen-T/F 3051 28-06-2007 16:08:02 18.2 C 6.84 g/m*3 18.2 C 0 km/h
3052 28-06-2007 16:20:02 17.8 C 6.68 g/m*3 17.8 C 0 km/h
3053 28-06-2007 16:32:02 18.6 C 6.68 g/m*3 18.6 C 0 km/h
3054 28-06-2007 16:44:02 20.7 C 7.2 g/m*3 20.7 C 0 km/h
3055 28-06-2007 16:56:02 21.4 C 6.94 g/m*3 21.4 C 0 km/h
3056 28-06-2007 17:08:02 20.6 C 7.16 g/m*3 20.6 C 0 km/h
3057 28-06-2007 17:20:02 19.6 C 6.75 g/m*3 19.6 C 0 km/h
3058 28-06-2007 17:32:02 19.3 C 6.3 g/m*3 19.3 C 0 km/h
3059 28-06-2007 17:44:02 18.5 C 5.22 g/m*3 18.5 C 0 km/h
3060 28-06-2007 17:56:02 18.3 C 5.63 g/m*3 18.3 C 0 km/h
3061 28-06-2007 18:08:02 18.1 C 5.56 g/m*3 18.1 C 0 km/h
3062 28-06-2007 18:20:01 18.7 C 5.92 g/m*3 18.7 C 0 km/h
3063 28-06-2007 18:32:02 19.1 C 5.9 g/m*3 19.1 C 0 km/h
3064 28-06-2007 18:44:02 20.1 C 5.56 g/m*3 20.1 C 0 km/h
3065 28-06-2007 18:56:01 19.9 C 5.33 g/m*3 19.9 C 0 km/h
3066 28-06-2007 19:08:01 19.1 C 5.41 g/m*3 19.1 C 0 km/h
3067 28-06-2007 19:20:02 18.4 C 5.5 g/m*3 18.4 C 0 km/h
3068 28-06-2007 19:32:01 18.2 C 5.75 g/m*3 18.2 C 0 km/h
3069 28-06-2007 19:44:01 17.9 C 5.95 g/m*3 17.9 C 0 km/h
3070 28-06-2007 19:56:02 17.7 C 5.88 g/m*3 17.7 C 0 km/h
3071 28-06-2007 20:08:02 17.5 C 6.11 g/m*3 17.5 C 0 km/h
3072 28-06-2007 20:20:01 17.1 C 6.55 g/m*3 17.1 C 0 km/h
3073 28-06-2007 20:32:01 17.1 C 6.26 g/m*3 17.1 C 0 km/h
3074 28-06-2007 20:44:01 17.6 C 6.3 g/m*3 17.6 C 0 km/h
3075 28-06-2007 20:56:01 17.6 C 6.3 g/m*3 17.6 C 0 km/h
Sensor: Nr:Datum:Temp:Abs-Feuchte:Windchill:Wind:
Aussen-T/F 3076 28-06-2007 21:08:01 17.1 C 6.26 g/m*3 17.1 C 0 km/h
3077 28-06-2007 21:20:02 16.6 C 6.22 g/m*3 16.6 C 0 km/h
3078 28-06-2007 21:32:02 16.2 C 6.62 g/m*3 16.2 C 0 km/h
3079 28-06-2007 21:44:02 15.8 C 6.73 g/m*3 15.8 C 0 km/h
3080 28-06-2007 21:56:02 15.6 C 7.05 g/m*3 15.6 C 0 km/h
3081 28-06-2007 22:08:02 15.5 C 6.74 g/m*3 15.5 C 0 km/h
3082 28-06-2007 22:20:02 15.5 C 7.14 g/m*3 15.5 C 0 km/h
3083 28-06-2007 22:32:02 15.3 C 7.05 g/m*3 15.3 C 0 km/h
3084 28-06-2007 22:44:02 15.2 C 7.27 g/m*3 15.2 C 0 km/h
3085 28-06-2007 22:56:02 15.1 C 7.35 g/m*3 15.1 C 0 km/h
3086 28-06-2007 23:08:01 15 C 7.69 g/m*3 15 C 0 km/h
3087 28-06-2007 23:20:02 14.9 C 7.9 g/m*3 14.9 C 0 km/h
3088 28-06-2007 23:32:02 14.7 C 7.93 g/m*3 14.7 C 0 km/h
3089 28-06-2007 23:44:02 14.7 C 8.18 g/m*3 14.7 C 0 km/h
3090 28-06-2007 23:56:03 14.6 C 8.26 g/m*3 14.6 C 0 km/h

Legende:
   Min
   Max


Maximal/Minimal-Werte vom 29.05.2007 - 28.06.2007

Sensor Min Max Avg
Temp
(Aussen-T/F)
3.7 °C
30-05-2007  05:32:02
34.5 °C
08-06-2007  17:04:37
19.23 °C
Abs-Feuchte
(Aussen-T/F)
3.61 g/m*3
30-05-2007  14:04:01
17.56 g/m*3
14-06-2007  18:01:01
9.86 g/m*3
Windchill
(Aussen-T/F)
3.7 C
30-05-2007  05:32:02
34.5 C
08-06-2007  17:04:37
19.22 C

Die Daten stammen von einer Davis Vantage Pro 2 Wetter-Station und werden unter Linux mit der Software wview2wettercgi und aufbereitet. Alle Angaben erfolgen ohne Gewähr für ihre Vollständigkeit oder Richtigkeit.
Kontakt: Rainer Krienke krienke@uni-koblenz.de . Meine Webseiten an der Uni Koblenz oder privat.
Version: $Revision: 0.78 $